<?xml version="1.0" encoding="UTF-8" standalone="no" ?>
<gpx xmlns="http://www.topografix.com/GPX/1/1" xmlns:xsi="http://www.w3.org/2001/XMLSchema-instance" xsi:schemaLocation="http://www.topografix.com/GPX/1/1 http://www.topografix.com/GPX/1/1/gpx.xsd" version="1.1" creator="VisuGPX - https://www.visugpx.com">
  <metadata>
    <name>Traces DPT 33</name>
    <desc><![CDATA[Total: 12.2km]]></desc>
  </metadata>
  <trk>
    <name><![CDATA[randogps33-476]]></name>
    <extensions>
      <line xmlns="http://www.topografix.com/GPX/gpx_style/0/2">
        <color>0000FF</color>
        <width>4</width>
      </line>
    </extensions>
    <trkseg>
      <trkpt lat="44.67394" lon="-0.2302">
        <ele>33.78</ele>
        <time>2016-09-17T07:00:40Z</time>
      </trkpt>
      <trkpt lat="44.67394" lon="-0.2302">
        <ele>37.63</ele>
        <time>2016-09-17T07:00:41Z</time>
      </trkpt>
      <trkpt lat="44.67394" lon="-0.23021">
        <ele>36.67</ele>
        <time>2016-09-17T07:00:42Z</time>
      </trkpt>
      <trkpt lat="44.67394" lon="-0.23021">
        <ele>38.59</ele>
        <time>2016-09-17T07:00:45Z</time>
      </trkpt>
      <trkpt lat="44.67395" lon="-0.23025">
        <ele>40.51</ele>
        <time>2016-09-17T07:00:49Z</time>
      </trkpt>
      <trkpt lat="44.67399" lon="-0.23028">
        <ele>42.92</ele>
        <time>2016-09-17T07:00:53Z</time>
      </trkpt>
      <trkpt lat="44.67399" lon="-0.23029">
        <ele>44.84</ele>
        <time>2016-09-17T07:00:58Z</time>
      </trkpt>
      <trkpt lat="44.67398" lon="-0.23031">
        <ele>48.2</ele>
        <time>2016-09-17T07:01:15Z</time>
      </trkpt>
      <trkpt lat="44.674" lon="-0.23034">
        <ele>48.2</ele>
        <time>2016-09-17T07:01:19Z</time>
      </trkpt>
      <trkpt lat="44.67409" lon="-0.23044">
        <ele>49.16</ele>
        <time>2016-09-17T07:01:27Z</time>
      </trkpt>
      <trkpt lat="44.67415" lon="-0.2305">
        <ele>49.65</ele>
        <time>2016-09-17T07:01:33Z</time>
      </trkpt>
      <trkpt lat="44.67431" lon="-0.23069">
        <ele>50.13</ele>
        <time>2016-09-17T07:01:47Z</time>
      </trkpt>
      <trkpt lat="44.67438" lon="-0.23074">
        <ele>50.61</ele>
        <time>2016-09-17T07:01:52Z</time>
      </trkpt>
      <trkpt lat="44.67454" lon="-0.23092">
        <ele>51.57</ele>
        <time>2016-09-17T07:02:06Z</time>
      </trkpt>
      <trkpt lat="44.67473" lon="-0.23111">
        <ele>51.57</ele>
        <time>2016-09-17T07:02:20Z</time>
      </trkpt>
      <trkpt lat="44.67479" lon="-0.23121">
        <ele>53.01</ele>
        <time>2016-09-17T07:02:26Z</time>
      </trkpt>
      <trkpt lat="44.67486" lon="-0.23129">
        <ele>52.53</ele>
        <time>2016-09-17T07:02:32Z</time>
      </trkpt>
      <trkpt lat="44.675" lon="-0.2315">
        <ele>53.49</ele>
        <time>2016-09-17T07:02:48Z</time>
      </trkpt>
      <trkpt lat="44.67529" lon="-0.23172">
        <ele>54.93</ele>
        <time>2016-09-17T07:03:07Z</time>
      </trkpt>
      <trkpt lat="44.67542" lon="-0.232">
        <ele>55.89</ele>
        <time>2016-09-17T07:03:23Z</time>
      </trkpt>
      <trkpt lat="44.67548" lon="-0.23223">
        <ele>55.89</ele>
        <time>2016-09-17T07:03:36Z</time>
      </trkpt>
      <trkpt lat="44.67552" lon="-0.23261">
        <ele>55.41</ele>
        <time>2016-09-17T07:03:57Z</time>
      </trkpt>
      <trkpt lat="44.67558" lon="-0.23295">
        <ele>55.41</ele>
        <time>2016-09-17T07:04:19Z</time>
      </trkpt>
      <trkpt lat="44.67573" lon="-0.23285">
        <ele>56.37</ele>
        <time>2016-09-17T07:04:35Z</time>
      </trkpt>
      <trkpt lat="44.67582" lon="-0.23274">
        <ele>57.34</ele>
        <time>2016-09-17T07:04:47Z</time>
      </trkpt>
      <trkpt lat="44.6761" lon="-0.23254">
        <ele>59.26</ele>
        <time>2016-09-17T07:05:10Z</time>
      </trkpt>
      <trkpt lat="44.6763" lon="-0.23239">
        <ele>61.18</ele>
        <time>2016-09-17T07:05:29Z</time>
      </trkpt>
      <trkpt lat="44.67652" lon="-0.23222">
        <ele>62.62</ele>
        <time>2016-09-17T07:05:51Z</time>
      </trkpt>
      <trkpt lat="44.6767" lon="-0.23204">
        <ele>63.58</ele>
        <time>2016-09-17T07:06:10Z</time>
      </trkpt>
      <trkpt lat="44.67689" lon="-0.2318">
        <ele>62.62</ele>
        <time>2016-09-17T07:06:30Z</time>
      </trkpt>
      <trkpt lat="44.67712" lon="-0.23154">
        <ele>62.62</ele>
        <time>2016-09-17T07:06:51Z</time>
      </trkpt>
      <trkpt lat="44.67731" lon="-0.23128">
        <ele>62.62</ele>
        <time>2016-09-17T07:07:12Z</time>
      </trkpt>
      <trkpt lat="44.67742" lon="-0.23115">
        <ele>64.07</ele>
        <time>2016-09-17T07:07:27Z</time>
      </trkpt>
      <trkpt lat="44.67759" lon="-0.23092">
        <ele>64.55</ele>
        <time>2016-09-17T07:07:44Z</time>
      </trkpt>
      <trkpt lat="44.67777" lon="-0.23081">
        <ele>65.51</ele>
        <time>2016-09-17T07:08:02Z</time>
      </trkpt>
      <trkpt lat="44.678" lon="-0.23075">
        <ele>66.47</ele>
        <time>2016-09-17T07:08:21Z</time>
      </trkpt>
      <trkpt lat="44.67824" lon="-0.23078">
        <ele>66.47</ele>
        <time>2016-09-17T07:08:40Z</time>
      </trkpt>
      <trkpt lat="44.67827" lon="-0.23099">
        <ele>66.47</ele>
        <time>2016-09-17T07:08:56Z</time>
      </trkpt>
      <trkpt lat="44.67827" lon="-0.23102">
        <ele>66.47</ele>
        <time>2016-09-17T07:08:58Z</time>
      </trkpt>
      <trkpt lat="44.67818" lon="-0.23122">
        <ele>65.51</ele>
        <time>2016-09-17T07:09:15Z</time>
      </trkpt>
      <trkpt lat="44.6781" lon="-0.23131">
        <ele>65.51</ele>
        <time>2016-09-17T07:09:23Z</time>
      </trkpt>
      <trkpt lat="44.67794" lon="-0.23147">
        <ele>64.55</ele>
        <time>2016-09-17T07:09:41Z</time>
      </trkpt>
      <trkpt lat="44.67793" lon="-0.2315">
        <ele>64.07</ele>
        <time>2016-09-17T07:09:43Z</time>
      </trkpt>
      <trkpt lat="44.67804" lon="-0.23176">
        <ele>62.14</ele>
        <time>2016-09-17T07:10:01Z</time>
      </trkpt>
      <trkpt lat="44.67804" lon="-0.23181">
        <ele>62.14</ele>
        <time>2016-09-17T07:10:04Z</time>
      </trkpt>
      <trkpt lat="44.67815" lon="-0.23205">
        <ele>60.7</ele>
        <time>2016-09-17T07:10:23Z</time>
      </trkpt>
      <trkpt lat="44.67829" lon="-0.2323">
        <ele>59.26</ele>
        <time>2016-09-17T07:10:43Z</time>
      </trkpt>
      <trkpt lat="44.6784" lon="-0.23256">
        <ele>57.34</ele>
        <time>2016-09-17T07:11:03Z</time>
      </trkpt>
      <trkpt lat="44.6785" lon="-0.2328">
        <ele>56.86</ele>
        <time>2016-09-17T07:11:23Z</time>
      </trkpt>
      <trkpt lat="44.67851" lon="-0.23281">
        <ele>56.86</ele>
        <time>2016-09-17T07:11:24Z</time>
      </trkpt>
      <trkpt lat="44.67867" lon="-0.23309">
        <ele>55.41</ele>
        <time>2016-09-17T07:11:44Z</time>
      </trkpt>
      <trkpt lat="44.67881" lon="-0.23334">
        <ele>54.93</ele>
        <time>2016-09-17T07:12:02Z</time>
      </trkpt>
      <trkpt lat="44.67894" lon="-0.23364">
        <ele>54.93</ele>
        <time>2016-09-17T07:12:23Z</time>
      </trkpt>
      <trkpt lat="44.67906" lon="-0.23391">
        <ele>55.41</ele>
        <time>2016-09-17T07:12:41Z</time>
      </trkpt>
      <trkpt lat="44.67916" lon="-0.23415">
        <ele>56.86</ele>
        <time>2016-09-17T07:12:59Z</time>
      </trkpt>
      <trkpt lat="44.67922" lon="-0.23426">
        <ele>57.34</ele>
        <time>2016-09-17T07:13:08Z</time>
      </trkpt>
      <trkpt lat="44.67934" lon="-0.23447">
        <ele>58.78</ele>
        <time>2016-09-17T07:13:26Z</time>
      </trkpt>
      <trkpt lat="44.67944" lon="-0.23466">
        <ele>60.7</ele>
        <time>2016-09-17T07:13:42Z</time>
      </trkpt>
      <trkpt lat="44.67958" lon="-0.23488">
        <ele>61.66</ele>
        <time>2016-09-17T07:14:02Z</time>
      </trkpt>
      <trkpt lat="44.67972" lon="-0.2351">
        <ele>63.1</ele>
        <time>2016-09-17T07:14:21Z</time>
      </trkpt>
      <trkpt lat="44.67983" lon="-0.2353">
        <ele>63.58</ele>
        <time>2016-09-17T07:14:38Z</time>
      </trkpt>
      <trkpt lat="44.67983" lon="-0.23531">
        <ele>63.58</ele>
        <time>2016-09-17T07:14:39Z</time>
      </trkpt>
      <trkpt lat="44.67986" lon="-0.23534">
        <ele>63.58</ele>
        <time>2016-09-17T07:14:43Z</time>
      </trkpt>
      <trkpt lat="44.68002" lon="-0.23558">
        <ele>62.62</ele>
        <time>2016-09-17T07:15:03Z</time>
      </trkpt>
      <trkpt lat="44.68006" lon="-0.23563">
        <ele>62.14</ele>
        <time>2016-09-17T07:15:08Z</time>
      </trkpt>
      <trkpt lat="44.68014" lon="-0.23562">
        <ele>62.14</ele>
        <time>2016-09-17T07:15:17Z</time>
      </trkpt>
      <trkpt lat="44.68036" lon="-0.23553">
        <ele>63.1</ele>
        <time>2016-09-17T07:15:37Z</time>
      </trkpt>
      <trkpt lat="44.68055" lon="-0.23541">
        <ele>63.58</ele>
        <time>2016-09-17T07:15:53Z</time>
      </trkpt>
      <trkpt lat="44.68073" lon="-0.2353">
        <ele>64.07</ele>
        <time>2016-09-17T07:16:11Z</time>
      </trkpt>
      <trkpt lat="44.68072" lon="-0.23531">
        <ele>64.07</ele>
        <time>2016-09-17T07:16:21Z</time>
      </trkpt>
      <trkpt lat="44.68073" lon="-0.23531">
        <ele>64.55</ele>
        <time>2016-09-17T07:16:27Z</time>
      </trkpt>
      <trkpt lat="44.68075" lon="-0.23529">
        <ele>64.07</ele>
        <time>2016-09-17T07:16:30Z</time>
      </trkpt>
      <trkpt lat="44.68083" lon="-0.23524">
        <ele>64.55</ele>
        <time>2016-09-17T07:16:45Z</time>
      </trkpt>
      <trkpt lat="44.68099" lon="-0.23511">
        <ele>64.07</ele>
        <time>2016-09-17T07:17:01Z</time>
      </trkpt>
      <trkpt lat="44.68115" lon="-0.23498">
        <ele>64.07</ele>
        <time>2016-09-17T07:17:16Z</time>
      </trkpt>
      <trkpt lat="44.68118" lon="-0.23495">
        <ele>64.07</ele>
        <time>2016-09-17T07:17:19Z</time>
      </trkpt>
      <trkpt lat="44.68121" lon="-0.23491">
        <ele>64.07</ele>
        <time>2016-09-17T07:17:22Z</time>
      </trkpt>
      <trkpt lat="44.68126" lon="-0.23486">
        <ele>64.07</ele>
        <time>2016-09-17T07:17:27Z</time>
      </trkpt>
      <trkpt lat="44.6813" lon="-0.23479">
        <ele>64.07</ele>
        <time>2016-09-17T07:17:32Z</time>
      </trkpt>
      <trkpt lat="44.68136" lon="-0.23468">
        <ele>64.07</ele>
        <time>2016-09-17T07:17:40Z</time>
      </trkpt>
      <trkpt lat="44.68142" lon="-0.23457">
        <ele>64.07</ele>
        <time>2016-09-17T07:17:48Z</time>
      </trkpt>
      <trkpt lat="44.68153" lon="-0.23449">
        <ele>64.55</ele>
        <time>2016-09-17T07:17:59Z</time>
      </trkpt>
      <trkpt lat="44.68157" lon="-0.23454">
        <ele>64.55</ele>
        <time>2016-09-17T07:18:04Z</time>
      </trkpt>
      <trkpt lat="44.68164" lon="-0.23481">
        <ele>64.07</ele>
        <time>2016-09-17T07:18:22Z</time>
      </trkpt>
      <trkpt lat="44.68171" lon="-0.23514">
        <ele>63.1</ele>
        <time>2016-09-17T07:18:42Z</time>
      </trkpt>
      <trkpt lat="44.68179" lon="-0.23546">
        <ele>62.62</ele>
        <time>2016-09-17T07:19:01Z</time>
      </trkpt>
      <trkpt lat="44.68186" lon="-0.23578">
        <ele>61.66</ele>
        <time>2016-09-17T07:19:21Z</time>
      </trkpt>
      <trkpt lat="44.6819" lon="-0.23612">
        <ele>60.7</ele>
        <time>2016-09-17T07:19:40Z</time>
      </trkpt>
      <trkpt lat="44.68191" lon="-0.23626">
        <ele>59.74</ele>
        <time>2016-09-17T07:19:49Z</time>
      </trkpt>
      <trkpt lat="44.68202" lon="-0.23662">
        <ele>58.3</ele>
        <time>2016-09-17T07:20:11Z</time>
      </trkpt>
      <trkpt lat="44.68208" lon="-0.23674">
        <ele>58.78</ele>
        <time>2016-09-17T07:20:28Z</time>
      </trkpt>
      <trkpt lat="44.68208" lon="-0.23674">
        <ele>58.78</ele>
        <time>2016-09-17T07:20:47Z</time>
      </trkpt>
      <trkpt lat="44.68209" lon="-0.23674">
        <ele>58.78</ele>
        <time>2016-09-17T07:21:03Z</time>
      </trkpt>
      <trkpt lat="44.68215" lon="-0.23675">
        <ele>58.78</ele>
        <time>2016-09-17T07:21:08Z</time>
      </trkpt>
      <trkpt lat="44.68225" lon="-0.2368">
        <ele>59.26</ele>
        <time>2016-09-17T07:21:24Z</time>
      </trkpt>
      <trkpt lat="44.68227" lon="-0.23681">
        <ele>59.26</ele>
        <time>2016-09-17T07:22:02Z</time>
      </trkpt>
      <trkpt lat="44.68226" lon="-0.23679">
        <ele>59.26</ele>
        <time>2016-09-17T07:22:04Z</time>
      </trkpt>
      <trkpt lat="44.68225" lon="-0.23678">
        <ele>59.26</ele>
        <time>2016-09-17T07:22:06Z</time>
      </trkpt>
      <trkpt lat="44.6821" lon="-0.23675">
        <ele>58.3</ele>
        <time>2016-09-17T07:22:23Z</time>
      </trkpt>
      <trkpt lat="44.6821" lon="-0.23674">
        <ele>58.78</ele>
        <time>2016-09-17T07:22:42Z</time>
      </trkpt>
      <trkpt lat="44.6821" lon="-0.23674">
        <ele>59.26</ele>
        <time>2016-09-17T07:23:02Z</time>
      </trkpt>
      <trkpt lat="44.6821" lon="-0.23675">
        <ele>58.78</ele>
        <time>2016-09-17T07:23:33Z</time>
      </trkpt>
      <trkpt lat="44.6821" lon="-0.23675">
        <ele>58.78</ele>
        <time>2016-09-17T07:23:52Z</time>
      </trkpt>
      <trkpt lat="44.6821" lon="-0.23675">
        <ele>58.3</ele>
        <time>2016-09-17T07:24:10Z</time>
      </trkpt>
      <trkpt lat="44.68209" lon="-0.23674">
        <ele>58.78</ele>
        <time>2016-09-17T07:24:34Z</time>
      </trkpt>
      <trkpt lat="44.68209" lon="-0.23672">
        <ele>58.78</ele>
        <time>2016-09-17T07:24:55Z</time>
      </trkpt>
      <trkpt lat="44.68208" lon="-0.23673">
        <ele>58.3</ele>
        <time>2016-09-17T07:25:13Z</time>
      </trkpt>
      <trkpt lat="44.68208" lon="-0.23673">
        <ele>58.3</ele>
        <time>2016-09-17T07:25:41Z</time>
      </trkpt>
      <trkpt lat="44.68208" lon="-0.23673">
        <ele>58.3</ele>
        <time>2016-09-17T07:26:03Z</time>
      </trkpt>
      <trkpt lat="44.68208" lon="-0.23673">
        <ele>58.3</ele>
        <time>2016-09-17T07:26:33Z</time>
      </trkpt>
      <trkpt lat="44.68208" lon="-0.23676">
        <ele>58.3</ele>
        <time>2016-09-17T07:26:47Z</time>
      </trkpt>
      <trkpt lat="44.68216" lon="-0.23677">
        <ele>58.3</ele>
        <time>2016-09-17T07:26:59Z</time>
      </trkpt>
      <trkpt lat="44.68218" lon="-0.23677">
        <ele>58.3</ele>
        <time>2016-09-17T07:27:01Z</time>
      </trkpt>
      <trkpt lat="44.68241" lon="-0.23677">
        <ele>59.26</ele>
        <time>2016-09-17T07:27:20Z</time>
      </trkpt>
      <trkpt lat="44.68244" lon="-0.23689">
        <ele>59.74</ele>
        <time>2016-09-17T07:27:29Z</time>
      </trkpt>
      <trkpt lat="44.68245" lon="-0.23724">
        <ele>59.74</ele>
        <time>2016-09-17T07:27:50Z</time>
      </trkpt>
      <trkpt lat="44.68247" lon="-0.23762">
        <ele>59.74</ele>
        <time>2016-09-17T07:28:10Z</time>
      </trkpt>
      <trkpt lat="44.68249" lon="-0.23799">
        <ele>59.26</ele>
        <time>2016-09-17T07:28:31Z</time>
      </trkpt>
      <trkpt lat="44.68248" lon="-0.23826">
        <ele>59.26</ele>
        <time>2016-09-17T07:28:48Z</time>
      </trkpt>
      <trkpt lat="44.68255" lon="-0.23857">
        <ele>59.26</ele>
        <time>2016-09-17T07:29:07Z</time>
      </trkpt>
      <trkpt lat="44.68258" lon="-0.23889">
        <ele>59.74</ele>
        <time>2016-09-17T07:29:26Z</time>
      </trkpt>
      <trkpt lat="44.68263" lon="-0.23919">
        <ele>59.74</ele>
        <time>2016-09-17T07:29:43Z</time>
      </trkpt>
      <trkpt lat="44.68268" lon="-0.23937">
        <ele>60.22</ele>
        <time>2016-09-17T07:29:57Z</time>
      </trkpt>
      <trkpt lat="44.68272" lon="-0.23964">
        <ele>60.22</ele>
        <time>2016-09-17T07:30:13Z</time>
      </trkpt>
      <trkpt lat="44.68273" lon="-0.23966">
        <ele>60.7</ele>
        <time>2016-09-17T07:30:15Z</time>
      </trkpt>
      <trkpt lat="44.68282" lon="-0.23993">
        <ele>59.74</ele>
        <time>2016-09-17T07:30:33Z</time>
      </trkpt>
      <trkpt lat="44.68299" lon="-0.24012">
        <ele>59.26</ele>
        <time>2016-09-17T07:30:53Z</time>
      </trkpt>
      <trkpt lat="44.68308" lon="-0.24037">
        <ele>59.26</ele>
        <time>2016-09-17T07:31:12Z</time>
      </trkpt>
      <trkpt lat="44.68311" lon="-0.24065">
        <ele>59.74</ele>
        <time>2016-09-17T07:31:31Z</time>
      </trkpt>
      <trkpt lat="44.68314" lon="-0.24091">
        <ele>59.74</ele>
        <time>2016-09-17T07:31:49Z</time>
      </trkpt>
      <trkpt lat="44.68326" lon="-0.24109">
        <ele>59.26</ele>
        <time>2016-09-17T07:32:09Z</time>
      </trkpt>
      <trkpt lat="44.6833" lon="-0.24112">
        <ele>59.26</ele>
        <time>2016-09-17T07:32:13Z</time>
      </trkpt>
      <trkpt lat="44.68335" lon="-0.24145">
        <ele>58.78</ele>
        <time>2016-09-17T07:32:33Z</time>
      </trkpt>
      <trkpt lat="44.68335" lon="-0.24147">
        <ele>58.78</ele>
        <time>2016-09-17T07:32:34Z</time>
      </trkpt>
      <trkpt lat="44.68335" lon="-0.24159">
        <ele>58.3</ele>
        <time>2016-09-17T07:32:40Z</time>
      </trkpt>
      <trkpt lat="44.68344" lon="-0.242">
        <ele>57.82</ele>
        <time>2016-09-17T07:33:04Z</time>
      </trkpt>
      <trkpt lat="44.68347" lon="-0.24222">
        <ele>57.34</ele>
        <time>2016-09-17T07:33:23Z</time>
      </trkpt>
      <trkpt lat="44.68355" lon="-0.24222">
        <ele>57.82</ele>
        <time>2016-09-17T07:33:31Z</time>
      </trkpt>
      <trkpt lat="44.68381" lon="-0.24213">
        <ele>58.78</ele>
        <time>2016-09-17T07:33:52Z</time>
      </trkpt>
      <trkpt lat="44.68407" lon="-0.24207">
        <ele>58.78</ele>
        <time>2016-09-17T07:34:13Z</time>
      </trkpt>
      <trkpt lat="44.68435" lon="-0.24199">
        <ele>57.34</ele>
        <time>2016-09-17T07:34:36Z</time>
      </trkpt>
      <trkpt lat="44.68462" lon="-0.2419">
        <ele>56.86</ele>
        <time>2016-09-17T07:34:58Z</time>
      </trkpt>
      <trkpt lat="44.68489" lon="-0.24181">
        <ele>56.37</ele>
        <time>2016-09-17T07:35:20Z</time>
      </trkpt>
      <trkpt lat="44.68518" lon="-0.24169">
        <ele>55.41</ele>
        <time>2016-09-17T07:35:41Z</time>
      </trkpt>
      <trkpt lat="44.68546" lon="-0.24157">
        <ele>54.93</ele>
        <time>2016-09-17T07:36:06Z</time>
      </trkpt>
      <trkpt lat="44.68574" lon="-0.24145">
        <ele>54.45</ele>
        <time>2016-09-17T07:36:27Z</time>
      </trkpt>
      <trkpt lat="44.68597" lon="-0.24133">
        <ele>54.45</ele>
        <time>2016-09-17T07:36:48Z</time>
      </trkpt>
      <trkpt lat="44.68626" lon="-0.24116">
        <ele>53.97</ele>
        <time>2016-09-17T07:37:13Z</time>
      </trkpt>
      <trkpt lat="44.68653" lon="-0.24099">
        <ele>53.49</ele>
        <time>2016-09-17T07:37:36Z</time>
      </trkpt>
      <trkpt lat="44.68674" lon="-0.24084">
        <ele>53.49</ele>
        <time>2016-09-17T07:37:57Z</time>
      </trkpt>
      <trkpt lat="44.68695" lon="-0.24071">
        <ele>53.97</ele>
        <time>2016-09-17T07:38:16Z</time>
      </trkpt>
      <trkpt lat="44.68715" lon="-0.24059">
        <ele>53.97</ele>
        <time>2016-09-17T07:38:33Z</time>
      </trkpt>
      <trkpt lat="44.68732" lon="-0.24049">
        <ele>53.97</ele>
        <time>2016-09-17T07:38:54Z</time>
      </trkpt>
      <trkpt lat="44.6873" lon="-0.2405">
        <ele>54.45</ele>
        <time>2016-09-17T07:39:02Z</time>
      </trkpt>
      <trkpt lat="44.68742" lon="-0.24054">
        <ele>53.97</ele>
        <time>2016-09-17T07:39:17Z</time>
      </trkpt>
      <trkpt lat="44.68742" lon="-0.24059">
        <ele>53.97</ele>
        <time>2016-09-17T07:39:21Z</time>
      </trkpt>
      <trkpt lat="44.68749" lon="-0.2409">
        <ele>53.01</ele>
        <time>2016-09-17T07:39:42Z</time>
      </trkpt>
      <trkpt lat="44.68751" lon="-0.24097">
        <ele>53.01</ele>
        <time>2016-09-17T07:39:47Z</time>
      </trkpt>
      <trkpt lat="44.68761" lon="-0.2413">
        <ele>52.53</ele>
        <time>2016-09-17T07:40:09Z</time>
      </trkpt>
      <trkpt lat="44.6877" lon="-0.2416">
        <ele>51.57</ele>
        <time>2016-09-17T07:40:29Z</time>
      </trkpt>
      <trkpt lat="44.6877" lon="-0.24161">
        <ele>51.57</ele>
        <time>2016-09-17T07:40:30Z</time>
      </trkpt>
      <trkpt lat="44.68781" lon="-0.2419">
        <ele>51.09</ele>
        <time>2016-09-17T07:40:50Z</time>
      </trkpt>
      <trkpt lat="44.68788" lon="-0.24216">
        <ele>50.61</ele>
        <time>2016-09-17T07:41:07Z</time>
      </trkpt>
      <trkpt lat="44.68797" lon="-0.24249">
        <ele>49.65</ele>
        <time>2016-09-17T07:41:29Z</time>
      </trkpt>
      <trkpt lat="44.68805" lon="-0.2428">
        <ele>49.16</ele>
        <time>2016-09-17T07:41:49Z</time>
      </trkpt>
      <trkpt lat="44.68806" lon="-0.24284">
        <ele>49.16</ele>
        <time>2016-09-17T07:41:51Z</time>
      </trkpt>
      <trkpt lat="44.68817" lon="-0.24328">
        <ele>48.68</ele>
        <time>2016-09-17T07:42:17Z</time>
      </trkpt>
      <trkpt lat="44.68828" lon="-0.24358">
        <ele>48.2</ele>
        <time>2016-09-17T07:42:39Z</time>
      </trkpt>
      <trkpt lat="44.68844" lon="-0.24386">
        <ele>48.2</ele>
        <time>2016-09-17T07:43:00Z</time>
      </trkpt>
      <trkpt lat="44.68867" lon="-0.24404">
        <ele>48.68</ele>
        <time>2016-09-17T07:43:23Z</time>
      </trkpt>
      <trkpt lat="44.68869" lon="-0.24405">
        <ele>48.2</ele>
        <time>2016-09-17T07:43:25Z</time>
      </trkpt>
      <trkpt lat="44.68896" lon="-0.24417">
        <ele>49.16</ele>
        <time>2016-09-17T07:43:48Z</time>
      </trkpt>
      <trkpt lat="44.68915" lon="-0.24426">
        <ele>50.13</ele>
        <time>2016-09-17T07:44:06Z</time>
      </trkpt>
      <trkpt lat="44.68937" lon="-0.24439">
        <ele>51.57</ele>
        <time>2016-09-17T07:44:28Z</time>
      </trkpt>
      <trkpt lat="44.68959" lon="-0.24452">
        <ele>52.05</ele>
        <time>2016-09-17T07:44:47Z</time>
      </trkpt>
      <trkpt lat="44.68979" lon="-0.24462">
        <ele>52.53</ele>
        <time>2016-09-17T07:45:06Z</time>
      </trkpt>
      <trkpt lat="44.68998" lon="-0.24474">
        <ele>52.05</ele>
        <time>2016-09-17T07:45:25Z</time>
      </trkpt>
      <trkpt lat="44.69016" lon="-0.24495">
        <ele>52.05</ele>
        <time>2016-09-17T07:45:46Z</time>
      </trkpt>
      <trkpt lat="44.6902" lon="-0.2452">
        <ele>51.57</ele>
        <time>2016-09-17T07:46:00Z</time>
      </trkpt>
      <trkpt lat="44.69023" lon="-0.24546">
        <ele>51.09</ele>
        <time>2016-09-17T07:46:19Z</time>
      </trkpt>
      <trkpt lat="44.69029" lon="-0.24583">
        <ele>51.09</ele>
        <time>2016-09-17T07:46:38Z</time>
      </trkpt>
      <trkpt lat="44.6903" lon="-0.24607">
        <ele>51.09</ele>
        <time>2016-09-17T07:46:57Z</time>
      </trkpt>
      <trkpt lat="44.69028" lon="-0.24623">
        <ele>51.09</ele>
        <time>2016-09-17T07:47:11Z</time>
      </trkpt>
      <trkpt lat="44.69029" lon="-0.24655">
        <ele>51.57</ele>
        <time>2016-09-17T07:47:31Z</time>
      </trkpt>
      <trkpt lat="44.69031" lon="-0.24693">
        <ele>51.57</ele>
        <time>2016-09-17T07:47:51Z</time>
      </trkpt>
      <trkpt lat="44.69034" lon="-0.24728">
        <ele>51.09</ele>
        <time>2016-09-17T07:48:11Z</time>
      </trkpt>
      <trkpt lat="44.6904" lon="-0.24764">
        <ele>50.61</ele>
        <time>2016-09-17T07:48:35Z</time>
      </trkpt>
      <trkpt lat="44.69041" lon="-0.24785">
        <ele>50.13</ele>
        <time>2016-09-17T07:48:55Z</time>
      </trkpt>
      <trkpt lat="44.69035" lon="-0.24792">
        <ele>50.13</ele>
        <time>2016-09-17T07:49:18Z</time>
      </trkpt>
      <trkpt lat="44.6904" lon="-0.24795">
        <ele>50.13</ele>
        <time>2016-09-17T07:49:43Z</time>
      </trkpt>
      <trkpt lat="44.69049" lon="-0.24829">
        <ele>49.65</ele>
        <time>2016-09-17T07:50:07Z</time>
      </trkpt>
      <trkpt lat="44.69056" lon="-0.24865">
        <ele>49.16</ele>
        <time>2016-09-17T07:50:29Z</time>
      </trkpt>
      <trkpt lat="44.69063" lon="-0.24899">
        <ele>49.16</ele>
        <time>2016-09-17T07:50:50Z</time>
      </trkpt>
      <trkpt lat="44.69073" lon="-0.24925">
        <ele>48.68</ele>
        <time>2016-09-17T07:51:08Z</time>
      </trkpt>
      <trkpt lat="44.6908" lon="-0.24925">
        <ele>48.68</ele>
        <time>2016-09-17T07:51:14Z</time>
      </trkpt>
      <trkpt lat="44.69106" lon="-0.2491">
        <ele>48.2</ele>
        <time>2016-09-17T07:51:36Z</time>
      </trkpt>
      <trkpt lat="44.69119" lon="-0.24901">
        <ele>48.2</ele>
        <time>2016-09-17T07:51:57Z</time>
      </trkpt>
      <trkpt lat="44.69132" lon="-0.24897">
        <ele>48.68</ele>
        <time>2016-09-17T07:52:15Z</time>
      </trkpt>
      <trkpt lat="44.6915" lon="-0.24887">
        <ele>48.68</ele>
        <time>2016-09-17T07:52:30Z</time>
      </trkpt>
      <trkpt lat="44.69172" lon="-0.2488">
        <ele>48.2</ele>
        <time>2016-09-17T07:52:51Z</time>
      </trkpt>
      <trkpt lat="44.69179" lon="-0.24874">
        <ele>46.76</ele>
        <time>2016-09-17T07:53:09Z</time>
      </trkpt>
      <trkpt lat="44.69198" lon="-0.24868">
        <ele>45.8</ele>
        <time>2016-09-17T07:53:27Z</time>
      </trkpt>
      <trkpt lat="44.69207" lon="-0.24865">
        <ele>44.84</ele>
        <time>2016-09-17T07:53:46Z</time>
      </trkpt>
      <trkpt lat="44.6924" lon="-0.2486">
        <ele>44.36</ele>
        <time>2016-09-17T07:54:09Z</time>
      </trkpt>
      <trkpt lat="44.69261" lon="-0.24861">
        <ele>44.36</ele>
        <time>2016-09-17T07:54:29Z</time>
      </trkpt>
      <trkpt lat="44.69271" lon="-0.24888">
        <ele>45.8</ele>
        <time>2016-09-17T07:54:47Z</time>
      </trkpt>
      <trkpt lat="44.69273" lon="-0.249">
        <ele>45.8</ele>
        <time>2016-09-17T07:54:52Z</time>
      </trkpt>
      <trkpt lat="44.69277" lon="-0.24938">
        <ele>45.32</ele>
        <time>2016-09-17T07:55:13Z</time>
      </trkpt>
      <trkpt lat="44.69279" lon="-0.24977">
        <ele>44.84</ele>
        <time>2016-09-17T07:55:36Z</time>
      </trkpt>
      <trkpt lat="44.69281" lon="-0.25022">
        <ele>44.36</ele>
        <time>2016-09-17T07:56:00Z</time>
      </trkpt>
      <trkpt lat="44.69284" lon="-0.25053">
        <ele>43.88</ele>
        <time>2016-09-17T07:56:24Z</time>
      </trkpt>
      <trkpt lat="44.69295" lon="-0.25078">
        <ele>43.88</ele>
        <time>2016-09-17T07:56:42Z</time>
      </trkpt>
      <trkpt lat="44.6933" lon="-0.25071">
        <ele>44.36</ele>
        <time>2016-09-17T07:57:03Z</time>
      </trkpt>
      <trkpt lat="44.69342" lon="-0.25068">
        <ele>44.84</ele>
        <time>2016-09-17T07:57:13Z</time>
      </trkpt>
      <trkpt lat="44.69373" lon="-0.25062">
        <ele>45.32</ele>
        <time>2016-09-17T07:57:37Z</time>
      </trkpt>
      <trkpt lat="44.69402" lon="-0.25055">
        <ele>45.8</ele>
        <time>2016-09-17T07:58:01Z</time>
      </trkpt>
      <trkpt lat="44.69431" lon="-0.25051">
        <ele>45.8</ele>
        <time>2016-09-17T07:58:25Z</time>
      </trkpt>
      <trkpt lat="44.69457" lon="-0.25046">
        <ele>46.28</ele>
        <time>2016-09-17T07:58:48Z</time>
      </trkpt>
      <trkpt lat="44.69484" lon="-0.2504">
        <ele>46.76</ele>
        <time>2016-09-17T07:59:10Z</time>
      </trkpt>
      <trkpt lat="44.6951" lon="-0.2504">
        <ele>45.8</ele>
        <time>2016-09-17T07:59:32Z</time>
      </trkpt>
      <trkpt lat="44.69534" lon="-0.25036">
        <ele>45.32</ele>
        <time>2016-09-17T07:59:53Z</time>
      </trkpt>
      <trkpt lat="44.6956" lon="-0.25027">
        <ele>45.32</ele>
        <time>2016-09-17T08:00:15Z</time>
      </trkpt>
      <trkpt lat="44.69568" lon="-0.25023">
        <ele>45.32</ele>
        <time>2016-09-17T08:00:22Z</time>
      </trkpt>
      <trkpt lat="44.69568" lon="-0.24992">
        <ele>45.8</ele>
        <time>2016-09-17T08:00:41Z</time>
      </trkpt>
      <trkpt lat="44.69565" lon="-0.24962">
        <ele>46.76</ele>
        <time>2016-09-17T08:01:00Z</time>
      </trkpt>
      <trkpt lat="44.69561" lon="-0.24923">
        <ele>47.24</ele>
        <time>2016-09-17T08:01:25Z</time>
      </trkpt>
      <trkpt lat="44.69557" lon="-0.24889">
        <ele>47.72</ele>
        <time>2016-09-17T08:01:45Z</time>
      </trkpt>
      <trkpt lat="44.69553" lon="-0.24848">
        <ele>47.24</ele>
        <time>2016-09-17T08:02:07Z</time>
      </trkpt>
      <trkpt lat="44.69551" lon="-0.24812">
        <ele>47.24</ele>
        <time>2016-09-17T08:02:29Z</time>
      </trkpt>
      <trkpt lat="44.69548" lon="-0.24789">
        <ele>47.24</ele>
        <time>2016-09-17T08:02:47Z</time>
      </trkpt>
      <trkpt lat="44.69549" lon="-0.24784">
        <ele>47.24</ele>
        <time>2016-09-17T08:02:50Z</time>
      </trkpt>
      <trkpt lat="44.69553" lon="-0.24776">
        <ele>47.24</ele>
        <time>2016-09-17T08:02:56Z</time>
      </trkpt>
      <trkpt lat="44.69565" lon="-0.24774">
        <ele>46.76</ele>
        <time>2016-09-17T08:03:10Z</time>
      </trkpt>
      <trkpt lat="44.69571" lon="-0.24773">
        <ele>46.76</ele>
        <time>2016-09-17T08:03:14Z</time>
      </trkpt>
      <trkpt lat="44.69602" lon="-0.24772">
        <ele>45.32</ele>
        <time>2016-09-17T08:03:38Z</time>
      </trkpt>
      <trkpt lat="44.69621" lon="-0.24765">
        <ele>45.32</ele>
        <time>2016-09-17T08:03:57Z</time>
      </trkpt>
      <trkpt lat="44.69622" lon="-0.24764">
        <ele>45.32</ele>
        <time>2016-09-17T08:04:13Z</time>
      </trkpt>
      <trkpt lat="44.69622" lon="-0.24764">
        <ele>45.8</ele>
        <time>2016-09-17T08:04:47Z</time>
      </trkpt>
      <trkpt lat="44.69622" lon="-0.24765">
        <ele>45.8</ele>
        <time>2016-09-17T08:04:48Z</time>
      </trkpt>
      <trkpt lat="44.69648" lon="-0.24769">
        <ele>44.84</ele>
        <time>2016-09-17T08:05:05Z</time>
      </trkpt>
      <trkpt lat="44.69679" lon="-0.24772">
        <ele>44.36</ele>
        <time>2016-09-17T08:05:24Z</time>
      </trkpt>
      <trkpt lat="44.69708" lon="-0.24771">
        <ele>43.4</ele>
        <time>2016-09-17T08:05:44Z</time>
      </trkpt>
      <trkpt lat="44.69714" lon="-0.24772">
        <ele>42.92</ele>
        <time>2016-09-17T08:05:49Z</time>
      </trkpt>
      <trkpt lat="44.69724" lon="-0.2477">
        <ele>42.92</ele>
        <time>2016-09-17T08:05:55Z</time>
      </trkpt>
      <trkpt lat="44.69758" lon="-0.24769">
        <ele>42.44</ele>
        <time>2016-09-17T08:06:17Z</time>
      </trkpt>
      <trkpt lat="44.69792" lon="-0.24765">
        <ele>40.99</ele>
        <time>2016-09-17T08:06:39Z</time>
      </trkpt>
      <trkpt lat="44.69816" lon="-0.24763">
        <ele>40.03</ele>
        <time>2016-09-17T08:06:55Z</time>
      </trkpt>
      <trkpt lat="44.69831" lon="-0.2479">
        <ele>40.03</ele>
        <time>2016-09-17T08:07:13Z</time>
      </trkpt>
      <trkpt lat="44.69836" lon="-0.24831">
        <ele>39.07</ele>
        <time>2016-09-17T08:07:32Z</time>
      </trkpt>
      <trkpt lat="44.69834" lon="-0.24837">
        <ele>39.07</ele>
        <time>2016-09-17T08:07:35Z</time>
      </trkpt>
      <trkpt lat="44.69815" lon="-0.24854">
        <ele>38.59</ele>
        <time>2016-09-17T08:07:53Z</time>
      </trkpt>
      <trkpt lat="44.69794" lon="-0.24862">
        <ele>35.23</ele>
        <time>2016-09-17T08:08:07Z</time>
      </trkpt>
      <trkpt lat="44.69793" lon="-0.24862">
        <ele>43.88</ele>
        <time>2016-09-17T08:08:08Z</time>
      </trkpt>
      <trkpt lat="44.69792" lon="-0.24862">
        <ele>39.55</ele>
        <time>2016-09-17T08:08:09Z</time>
      </trkpt>
      <trkpt lat="44.69782" lon="-0.24869">
        <ele>39.07</ele>
        <time>2016-09-17T08:08:20Z</time>
      </trkpt>
      <trkpt lat="44.69758" lon="-0.24888">
        <ele>39.07</ele>
        <time>2016-09-17T08:08:43Z</time>
      </trkpt>
      <trkpt lat="44.69763" lon="-0.2489">
        <ele>37.63</ele>
        <time>2016-09-17T08:08:57Z</time>
      </trkpt>
      <trkpt lat="44.69783" lon="-0.24876">
        <ele>35.71</ele>
        <time>2016-09-17T08:09:17Z</time>
      </trkpt>
      <trkpt lat="44.69813" lon="-0.24877">
        <ele>35.23</ele>
        <time>2016-09-17T08:09:39Z</time>
      </trkpt>
      <trkpt lat="44.69802" lon="-0.24899">
        <ele>35.71</ele>
        <time>2016-09-17T08:09:57Z</time>
      </trkpt>
      <trkpt lat="44.69809" lon="-0.24908">
        <ele>35.23</ele>
        <time>2016-09-17T08:10:07Z</time>
      </trkpt>
      <trkpt lat="44.69825" lon="-0.24939">
        <ele>35.23</ele>
        <time>2016-09-17T08:10:29Z</time>
      </trkpt>
      <trkpt lat="44.69843" lon="-0.2494">
        <ele>36.19</ele>
        <time>2016-09-17T08:10:48Z</time>
      </trkpt>
      <trkpt lat="44.69872" lon="-0.24949">
        <ele>38.59</ele>
        <time>2016-09-17T08:11:13Z</time>
      </trkpt>
      <trkpt lat="44.69891" lon="-0.24971">
        <ele>40.51</ele>
        <time>2016-09-17T08:11:34Z</time>
      </trkpt>
      <trkpt lat="44.6992" lon="-0.24977">
        <ele>41.47</ele>
        <time>2016-09-17T08:11:58Z</time>
      </trkpt>
      <trkpt lat="44.69931" lon="-0.24975">
        <ele>42.44</ele>
        <time>2016-09-17T08:12:09Z</time>
      </trkpt>
      <trkpt lat="44.69961" lon="-0.24969">
        <ele>42.92</ele>
        <time>2016-09-17T08:12:32Z</time>
      </trkpt>
      <trkpt lat="44.69988" lon="-0.24965">
        <ele>43.4</ele>
        <time>2016-09-17T08:12:54Z</time>
      </trkpt>
      <trkpt lat="44.70015" lon="-0.24962">
        <ele>44.84</ele>
        <time>2016-09-17T08:13:18Z</time>
      </trkpt>
      <trkpt lat="44.70044" lon="-0.24959">
        <ele>46.28</ele>
        <time>2016-09-17T08:13:42Z</time>
      </trkpt>
      <trkpt lat="44.7007" lon="-0.24956">
        <ele>47.72</ele>
        <time>2016-09-17T08:14:04Z</time>
      </trkpt>
      <trkpt lat="44.70087" lon="-0.24948">
        <ele>48.68</ele>
        <time>2016-09-17T08:14:23Z</time>
      </trkpt>
      <trkpt lat="44.70092" lon="-0.24917">
        <ele>49.16</ele>
        <time>2016-09-17T08:14:43Z</time>
      </trkpt>
      <trkpt lat="44.70093" lon="-0.24891">
        <ele>48.68</ele>
        <time>2016-09-17T08:15:03Z</time>
      </trkpt>
      <trkpt lat="44.70099" lon="-0.24895">
        <ele>48.68</ele>
        <time>2016-09-17T08:15:23Z</time>
      </trkpt>
      <trkpt lat="44.70097" lon="-0.24878">
        <ele>48.68</ele>
        <time>2016-09-17T08:15:36Z</time>
      </trkpt>
      <trkpt lat="44.70109" lon="-0.24856">
        <ele>48.68</ele>
        <time>2016-09-17T08:15:56Z</time>
      </trkpt>
      <trkpt lat="44.70127" lon="-0.24852">
        <ele>50.13</ele>
        <time>2016-09-17T08:16:18Z</time>
      </trkpt>
      <trkpt lat="44.70152" lon="-0.24854">
        <ele>51.09</ele>
        <time>2016-09-17T08:16:38Z</time>
      </trkpt>
      <trkpt lat="44.70161" lon="-0.24855">
        <ele>51.09</ele>
        <time>2016-09-17T08:16:43Z</time>
      </trkpt>
      <trkpt lat="44.7019" lon="-0.24862">
        <ele>53.01</ele>
        <time>2016-09-17T08:17:04Z</time>
      </trkpt>
      <trkpt lat="44.70212" lon="-0.24871">
        <ele>54.93</ele>
        <time>2016-09-17T08:17:24Z</time>
      </trkpt>
      <trkpt lat="44.70235" lon="-0.24874">
        <ele>55.89</ele>
        <time>2016-09-17T08:17:42Z</time>
      </trkpt>
      <trkpt lat="44.70257" lon="-0.24886">
        <ele>57.34</ele>
        <time>2016-09-17T08:18:04Z</time>
      </trkpt>
      <trkpt lat="44.70288" lon="-0.24888">
        <ele>58.3</ele>
        <time>2016-09-17T08:18:29Z</time>
      </trkpt>
      <trkpt lat="44.70317" lon="-0.2489">
        <ele>59.26</ele>
        <time>2016-09-17T08:18:53Z</time>
      </trkpt>
      <trkpt lat="44.70346" lon="-0.24891">
        <ele>59.74</ele>
        <time>2016-09-17T08:19:16Z</time>
      </trkpt>
      <trkpt lat="44.70372" lon="-0.24895">
        <ele>60.22</ele>
        <time>2016-09-17T08:19:39Z</time>
      </trkpt>
      <trkpt lat="44.704" lon="-0.24899">
        <ele>61.18</ele>
        <time>2016-09-17T08:20:04Z</time>
      </trkpt>
      <trkpt lat="44.70408" lon="-0.24901">
        <ele>61.18</ele>
        <time>2016-09-17T08:20:15Z</time>
      </trkpt>
      <trkpt lat="44.70435" lon="-0.24909">
        <ele>61.66</ele>
        <time>2016-09-17T08:20:39Z</time>
      </trkpt>
      <trkpt lat="44.7043" lon="-0.24917">
        <ele>61.18</ele>
        <time>2016-09-17T08:20:49Z</time>
      </trkpt>
      <trkpt lat="44.70417" lon="-0.24944">
        <ele>61.66</ele>
        <time>2016-09-17T08:21:10Z</time>
      </trkpt>
      <trkpt lat="44.70416" lon="-0.24977">
        <ele>61.18</ele>
        <time>2016-09-17T08:21:31Z</time>
      </trkpt>
      <trkpt lat="44.70416" lon="-0.24986">
        <ele>61.18</ele>
        <time>2016-09-17T08:21:36Z</time>
      </trkpt>
      <trkpt lat="44.70419" lon="-0.25005">
        <ele>61.18</ele>
        <time>2016-09-17T08:21:55Z</time>
      </trkpt>
      <trkpt lat="44.70418" lon="-0.25015">
        <ele>60.7</ele>
        <time>2016-09-17T08:22:14Z</time>
      </trkpt>
      <trkpt lat="44.70423" lon="-0.25027">
        <ele>60.7</ele>
        <time>2016-09-17T08:22:29Z</time>
      </trkpt>
      <trkpt lat="44.70422" lon="-0.25029">
        <ele>60.22</ele>
        <time>2016-09-17T08:22:32Z</time>
      </trkpt>
      <trkpt lat="44.70419" lon="-0.25035">
        <ele>59.74</ele>
        <time>2016-09-17T08:22:36Z</time>
      </trkpt>
      <trkpt lat="44.70395" lon="-0.25065">
        <ele>58.78</ele>
        <time>2016-09-17T08:22:59Z</time>
      </trkpt>
      <trkpt lat="44.70372" lon="-0.25085">
        <ele>57.34</ele>
        <time>2016-09-17T08:23:21Z</time>
      </trkpt>
      <trkpt lat="44.70355" lon="-0.25108">
        <ele>55.89</ele>
        <time>2016-09-17T08:23:40Z</time>
      </trkpt>
      <trkpt lat="44.70343" lon="-0.25137">
        <ele>54.93</ele>
        <time>2016-09-17T08:24:00Z</time>
      </trkpt>
      <trkpt lat="44.70341" lon="-0.25169">
        <ele>54.45</ele>
        <time>2016-09-17T08:24:22Z</time>
      </trkpt>
      <trkpt lat="44.70341" lon="-0.25183">
        <ele>53.97</ele>
        <time>2016-09-17T08:24:30Z</time>
      </trkpt>
      <trkpt lat="44.70342" lon="-0.25214">
        <ele>53.49</ele>
        <time>2016-09-17T08:24:52Z</time>
      </trkpt>
      <trkpt lat="44.70343" lon="-0.25249">
        <ele>53.01</ele>
        <time>2016-09-17T08:25:13Z</time>
      </trkpt>
      <trkpt lat="44.70343" lon="-0.25283">
        <ele>52.53</ele>
        <time>2016-09-17T08:25:33Z</time>
      </trkpt>
      <trkpt lat="44.70346" lon="-0.25318">
        <ele>51.57</ele>
        <time>2016-09-17T08:25:57Z</time>
      </trkpt>
      <trkpt lat="44.70351" lon="-0.25338">
        <ele>52.05</ele>
        <time>2016-09-17T08:26:13Z</time>
      </trkpt>
      <trkpt lat="44.70354" lon="-0.25368">
        <ele>51.57</ele>
        <time>2016-09-17T08:26:35Z</time>
      </trkpt>
      <trkpt lat="44.70353" lon="-0.25404">
        <ele>50.61</ele>
        <time>2016-09-17T08:26:58Z</time>
      </trkpt>
      <trkpt lat="44.70353" lon="-0.25433">
        <ele>50.13</ele>
        <time>2016-09-17T08:27:17Z</time>
      </trkpt>
      <trkpt lat="44.70356" lon="-0.25458">
        <ele>50.13</ele>
        <time>2016-09-17T08:27:36Z</time>
      </trkpt>
      <trkpt lat="44.70355" lon="-0.25476">
        <ele>49.65</ele>
        <time>2016-09-17T08:27:51Z</time>
      </trkpt>
      <trkpt lat="44.70353" lon="-0.25514">
        <ele>48.68</ele>
        <time>2016-09-17T08:28:15Z</time>
      </trkpt>
      <trkpt lat="44.70351" lon="-0.25547">
        <ele>47.72</ele>
        <time>2016-09-17T08:28:36Z</time>
      </trkpt>
      <trkpt lat="44.70352" lon="-0.25571">
        <ele>46.76</ele>
        <time>2016-09-17T08:28:57Z</time>
      </trkpt>
      <trkpt lat="44.70349" lon="-0.256">
        <ele>45.8</ele>
        <time>2016-09-17T08:29:20Z</time>
      </trkpt>
      <trkpt lat="44.70346" lon="-0.25621">
        <ele>45.8</ele>
        <time>2016-09-17T08:29:38Z</time>
      </trkpt>
      <trkpt lat="44.70347" lon="-0.25621">
        <ele>45.8</ele>
        <time>2016-09-17T08:29:51Z</time>
      </trkpt>
      <trkpt lat="44.70346" lon="-0.25631">
        <ele>45.32</ele>
        <time>2016-09-17T08:30:08Z</time>
      </trkpt>
      <trkpt lat="44.70344" lon="-0.25643">
        <ele>45.32</ele>
        <time>2016-09-17T08:30:19Z</time>
      </trkpt>
      <trkpt lat="44.70343" lon="-0.25647">
        <ele>44.84</ele>
        <time>2016-09-17T08:30:22Z</time>
      </trkpt>
      <trkpt lat="44.70338" lon="-0.25687">
        <ele>43.4</ele>
        <time>2016-09-17T08:30:43Z</time>
      </trkpt>
      <trkpt lat="44.70332" lon="-0.25717">
        <ele>41.95</ele>
        <time>2016-09-17T08:31:04Z</time>
      </trkpt>
      <trkpt lat="44.70329" lon="-0.25751">
        <ele>41.47</ele>
        <time>2016-09-17T08:31:24Z</time>
      </trkpt>
      <trkpt lat="44.70325" lon="-0.25789">
        <ele>40.51</ele>
        <time>2016-09-17T08:31:47Z</time>
      </trkpt>
      <trkpt lat="44.70316" lon="-0.25821">
        <ele>39.55</ele>
        <time>2016-09-17T08:32:09Z</time>
      </trkpt>
      <trkpt lat="44.70307" lon="-0.25849">
        <ele>39.07</ele>
        <time>2016-09-17T08:32:27Z</time>
      </trkpt>
      <trkpt lat="44.70298" lon="-0.25883">
        <ele>38.11</ele>
        <time>2016-09-17T08:32:46Z</time>
      </trkpt>
      <trkpt lat="44.70293" lon="-0.25896">
        <ele>37.15</ele>
        <time>2016-09-17T08:33:03Z</time>
      </trkpt>
      <trkpt lat="44.70288" lon="-0.25905">
        <ele>37.15</ele>
        <time>2016-09-17T08:33:13Z</time>
      </trkpt>
      <trkpt lat="44.70271" lon="-0.25932">
        <ele>34.74</ele>
        <time>2016-09-17T08:33:35Z</time>
      </trkpt>
      <trkpt lat="44.70259" lon="-0.25958">
        <ele>32.82</ele>
        <time>2016-09-17T08:33:53Z</time>
      </trkpt>
      <trkpt lat="44.70262" lon="-0.25981">
        <ele>31.38</ele>
        <time>2016-09-17T08:34:13Z</time>
      </trkpt>
      <trkpt lat="44.70264" lon="-0.26022">
        <ele>30.9</ele>
        <time>2016-09-17T08:34:33Z</time>
      </trkpt>
      <trkpt lat="44.70264" lon="-0.2603">
        <ele>30.9</ele>
        <time>2016-09-17T08:34:36Z</time>
      </trkpt>
      <trkpt lat="44.70263" lon="-0.26059">
        <ele>29.94</ele>
        <time>2016-09-17T08:34:55Z</time>
      </trkpt>
      <trkpt lat="44.70261" lon="-0.26065">
        <ele>29.94</ele>
        <time>2016-09-17T08:35:11Z</time>
      </trkpt>
      <trkpt lat="44.70258" lon="-0.26076">
        <ele>29.46</ele>
        <time>2016-09-17T08:35:31Z</time>
      </trkpt>
      <trkpt lat="44.7026" lon="-0.26077">
        <ele>29.46</ele>
        <time>2016-09-17T08:35:56Z</time>
      </trkpt>
      <trkpt lat="44.7026" lon="-0.26078">
        <ele>29.94</ele>
        <time>2016-09-17T08:36:22Z</time>
      </trkpt>
      <trkpt lat="44.70258" lon="-0.26077">
        <ele>29.46</ele>
        <time>2016-09-17T08:36:38Z</time>
      </trkpt>
      <trkpt lat="44.70258" lon="-0.26077">
        <ele>29.94</ele>
        <time>2016-09-17T08:36:55Z</time>
      </trkpt>
      <trkpt lat="44.70258" lon="-0.26077">
        <ele>33.3</ele>
        <time>2016-09-17T08:37:01Z</time>
      </trkpt>
      <trkpt lat="44.70258" lon="-0.26077">
        <ele>29.94</ele>
        <time>2016-09-17T08:37:02Z</time>
      </trkpt>
      <trkpt lat="44.70258" lon="-0.26077">
        <ele>32.34</ele>
        <time>2016-09-17T08:37:07Z</time>
      </trkpt>
      <trkpt lat="44.70258" lon="-0.26077">
        <ele>29.94</ele>
        <time>2016-09-17T08:37:09Z</time>
      </trkpt>
      <trkpt lat="44.70258" lon="-0.26077">
        <ele>33.3</ele>
        <time>2016-09-17T08:37:24Z</time>
      </trkpt>
      <trkpt lat="44.70258" lon="-0.26077">
        <ele>29.46</ele>
        <time>2016-09-17T08:37:25Z</time>
      </trkpt>
      <trkpt lat="44.70258" lon="-0.26077">
        <ele>30.42</ele>
        <time>2016-09-17T08:37:39Z</time>
      </trkpt>
      <trkpt lat="44.70259" lon="-0.26072">
        <ele>29.94</ele>
        <time>2016-09-17T08:37:57Z</time>
      </trkpt>
      <trkpt lat="44.70259" lon="-0.26072">
        <ele>29.94</ele>
        <time>2016-09-17T08:38:20Z</time>
      </trkpt>
      <trkpt lat="44.70259" lon="-0.26076">
        <ele>29.94</ele>
        <time>2016-09-17T08:38:38Z</time>
      </trkpt>
      <trkpt lat="44.70259" lon="-0.26075">
        <ele>29.94</ele>
        <time>2016-09-17T08:38:57Z</time>
      </trkpt>
      <trkpt lat="44.70258" lon="-0.26075">
        <ele>30.42</ele>
        <time>2016-09-17T08:39:20Z</time>
      </trkpt>
      <trkpt lat="44.7026" lon="-0.26075">
        <ele>29.46</ele>
        <time>2016-09-17T08:39:37Z</time>
      </trkpt>
      <trkpt lat="44.70261" lon="-0.26077">
        <ele>29.46</ele>
        <time>2016-09-17T08:39:54Z</time>
      </trkpt>
      <trkpt lat="44.70262" lon="-0.26078">
        <ele>28.98</ele>
        <time>2016-09-17T08:40:27Z</time>
      </trkpt>
      <trkpt lat="44.70261" lon="-0.26077">
        <ele>28.98</ele>
        <time>2016-09-17T08:41:07Z</time>
      </trkpt>
      <trkpt lat="44.70261" lon="-0.26076">
        <ele>28.98</ele>
        <time>2016-09-17T08:41:37Z</time>
      </trkpt>
      <trkpt lat="44.70262" lon="-0.26077">
        <ele>28.98</ele>
        <time>2016-09-17T08:42:12Z</time>
      </trkpt>
      <trkpt lat="44.70262" lon="-0.26077">
        <ele>30.9</ele>
        <time>2016-09-17T08:42:28Z</time>
      </trkpt>
      <trkpt lat="44.70259" lon="-0.26074">
        <ele>29.94</ele>
        <time>2016-09-17T08:42:49Z</time>
      </trkpt>
      <trkpt lat="44.70259" lon="-0.26075">
        <ele>30.42</ele>
        <time>2016-09-17T08:43:08Z</time>
      </trkpt>
      <trkpt lat="44.70259" lon="-0.26074">
        <ele>30.42</ele>
        <time>2016-09-17T08:43:31Z</time>
      </trkpt>
      <trkpt lat="44.70251" lon="-0.26068">
        <ele>30.42</ele>
        <time>2016-09-17T08:43:53Z</time>
      </trkpt>
      <trkpt lat="44.70257" lon="-0.26063">
        <ele>29.46</ele>
        <time>2016-09-17T08:44:13Z</time>
      </trkpt>
      <trkpt lat="44.70258" lon="-0.26062">
        <ele>30.42</ele>
        <time>2016-09-17T08:44:34Z</time>
      </trkpt>
      <trkpt lat="44.70257" lon="-0.2606">
        <ele>30.42</ele>
        <time>2016-09-17T08:44:56Z</time>
      </trkpt>
      <trkpt lat="44.70258" lon="-0.26062">
        <ele>30.9</ele>
        <time>2016-09-17T08:45:28Z</time>
      </trkpt>
      <trkpt lat="44.70255" lon="-0.26063">
        <ele>30.9</ele>
        <time>2016-09-17T08:45:47Z</time>
      </trkpt>
      <trkpt lat="44.70255" lon="-0.26063">
        <ele>30.9</ele>
        <time>2016-09-17T08:46:15Z</time>
      </trkpt>
      <trkpt lat="44.70256" lon="-0.26066">
        <ele>30.9</ele>
        <time>2016-09-17T08:46:43Z</time>
      </trkpt>
      <trkpt lat="44.70258" lon="-0.26068">
        <ele>30.9</ele>
        <time>2016-09-17T08:47:07Z</time>
      </trkpt>
      <trkpt lat="44.7026" lon="-0.26071">
        <ele>30.9</ele>
        <time>2016-09-17T08:47:28Z</time>
      </trkpt>
      <trkpt lat="44.70265" lon="-0.26075">
        <ele>31.38</ele>
        <time>2016-09-17T08:47:56Z</time>
      </trkpt>
      <trkpt lat="44.70263" lon="-0.26104">
        <ele>31.38</ele>
        <time>2016-09-17T08:48:19Z</time>
      </trkpt>
      <trkpt lat="44.70264" lon="-0.26128">
        <ele>31.86</ele>
        <time>2016-09-17T08:48:40Z</time>
      </trkpt>
      <trkpt lat="44.70264" lon="-0.26141">
        <ele>31.86</ele>
        <time>2016-09-17T08:48:49Z</time>
      </trkpt>
      <trkpt lat="44.70264" lon="-0.26167">
        <ele>32.34</ele>
        <time>2016-09-17T08:49:04Z</time>
      </trkpt>
      <trkpt lat="44.70264" lon="-0.26174">
        <ele>32.34</ele>
        <time>2016-09-17T08:49:09Z</time>
      </trkpt>
      <trkpt lat="44.70264" lon="-0.26195">
        <ele>32.82</ele>
        <time>2016-09-17T08:49:23Z</time>
      </trkpt>
      <trkpt lat="44.70268" lon="-0.26216">
        <ele>34.74</ele>
        <time>2016-09-17T08:49:38Z</time>
      </trkpt>
      <trkpt lat="44.70271" lon="-0.26243">
        <ele>37.15</ele>
        <time>2016-09-17T08:49:58Z</time>
      </trkpt>
      <trkpt lat="44.70273" lon="-0.26263">
        <ele>39.07</ele>
        <time>2016-09-17T08:50:15Z</time>
      </trkpt>
      <trkpt lat="44.70264" lon="-0.26258">
        <ele>40.03</ele>
        <time>2016-09-17T08:50:29Z</time>
      </trkpt>
      <trkpt lat="44.70252" lon="-0.26239">
        <ele>40.03</ele>
        <time>2016-09-17T08:50:45Z</time>
      </trkpt>
      <trkpt lat="44.70249" lon="-0.26233">
        <ele>36.67</ele>
        <time>2016-09-17T08:50:52Z</time>
      </trkpt>
      <trkpt lat="44.70249" lon="-0.26233">
        <ele>41.95</ele>
        <time>2016-09-17T08:50:53Z</time>
      </trkpt>
      <trkpt lat="44.70247" lon="-0.2623">
        <ele>39.07</ele>
        <time>2016-09-17T08:51:03Z</time>
      </trkpt>
      <trkpt lat="44.70246" lon="-0.26228">
        <ele>44.36</ele>
        <time>2016-09-17T08:51:05Z</time>
      </trkpt>
      <trkpt lat="44.70245" lon="-0.26227">
        <ele>38.59</ele>
        <time>2016-09-17T08:51:06Z</time>
      </trkpt>
      <trkpt lat="44.70234" lon="-0.26215">
        <ele>39.55</ele>
        <time>2016-09-17T08:51:20Z</time>
      </trkpt>
      <trkpt lat="44.70232" lon="-0.26214">
        <ele>39.55</ele>
        <time>2016-09-17T08:51:21Z</time>
      </trkpt>
      <trkpt lat="44.70226" lon="-0.26211">
        <ele>40.03</ele>
        <time>2016-09-17T08:51:26Z</time>
      </trkpt>
      <trkpt lat="44.70203" lon="-0.26203">
        <ele>40.99</ele>
        <time>2016-09-17T08:51:46Z</time>
      </trkpt>
      <trkpt lat="44.70183" lon="-0.26195">
        <ele>41.95</ele>
        <time>2016-09-17T08:52:03Z</time>
      </trkpt>
      <trkpt lat="44.70165" lon="-0.26188">
        <ele>42.92</ele>
        <time>2016-09-17T08:52:19Z</time>
      </trkpt>
      <trkpt lat="44.70151" lon="-0.26175">
        <ele>41.95</ele>
        <time>2016-09-17T08:52:35Z</time>
      </trkpt>
      <trkpt lat="44.70151" lon="-0.2617">
        <ele>41.47</ele>
        <time>2016-09-17T08:52:38Z</time>
      </trkpt>
      <trkpt lat="44.70144" lon="-0.26153">
        <ele>41.47</ele>
        <time>2016-09-17T08:52:51Z</time>
      </trkpt>
      <trkpt lat="44.70125" lon="-0.26148">
        <ele>41.47</ele>
        <time>2016-09-17T08:53:05Z</time>
      </trkpt>
      <trkpt lat="44.70103" lon="-0.26145">
        <ele>41.47</ele>
        <time>2016-09-17T08:53:22Z</time>
      </trkpt>
      <trkpt lat="44.70083" lon="-0.26144">
        <ele>41.47</ele>
        <time>2016-09-17T08:53:39Z</time>
      </trkpt>
      <trkpt lat="44.70058" lon="-0.26142">
        <ele>40.99</ele>
        <time>2016-09-17T08:53:58Z</time>
      </trkpt>
      <trkpt lat="44.70052" lon="-0.26139">
        <ele>40.51</ele>
        <time>2016-09-17T08:54:05Z</time>
      </trkpt>
      <trkpt lat="44.70043" lon="-0.26117">
        <ele>38.11</ele>
        <time>2016-09-17T08:54:23Z</time>
      </trkpt>
      <trkpt lat="44.70035" lon="-0.26097">
        <ele>35.71</ele>
        <time>2016-09-17T08:54:39Z</time>
      </trkpt>
      <trkpt lat="44.70026" lon="-0.26092">
        <ele>33.78</ele>
        <time>2016-09-17T08:54:54Z</time>
      </trkpt>
      <trkpt lat="44.70016" lon="-0.26111">
        <ele>34.74</ele>
        <time>2016-09-17T08:55:12Z</time>
      </trkpt>
      <trkpt lat="44.7001" lon="-0.26116">
        <ele>34.26</ele>
        <time>2016-09-17T08:55:19Z</time>
      </trkpt>
      <trkpt lat="44.70008" lon="-0.26119">
        <ele>34.74</ele>
        <time>2016-09-17T08:55:22Z</time>
      </trkpt>
      <trkpt lat="44.69995" lon="-0.26138">
        <ele>35.23</ele>
        <time>2016-09-17T08:55:39Z</time>
      </trkpt>
      <trkpt lat="44.6999" lon="-0.26147">
        <ele>35.71</ele>
        <time>2016-09-17T08:55:47Z</time>
      </trkpt>
      <trkpt lat="44.69988" lon="-0.26148">
        <ele>35.71</ele>
        <time>2016-09-17T08:55:49Z</time>
      </trkpt>
      <trkpt lat="44.69967" lon="-0.26164">
        <ele>35.23</ele>
        <time>2016-09-17T08:56:10Z</time>
      </trkpt>
      <trkpt lat="44.69956" lon="-0.26178">
        <ele>35.71</ele>
        <time>2016-09-17T08:56:24Z</time>
      </trkpt>
      <trkpt lat="44.69944" lon="-0.26195">
        <ele>34.74</ele>
        <time>2016-09-17T08:56:44Z</time>
      </trkpt>
      <trkpt lat="44.69942" lon="-0.26194">
        <ele>34.26</ele>
        <time>2016-09-17T08:57:09Z</time>
      </trkpt>
      <trkpt lat="44.69941" lon="-0.26193">
        <ele>34.26</ele>
        <time>2016-09-17T08:57:32Z</time>
      </trkpt>
      <trkpt lat="44.69941" lon="-0.26193">
        <ele>33.3</ele>
        <time>2016-09-17T08:57:52Z</time>
      </trkpt>
      <trkpt lat="44.69934" lon="-0.26164">
        <ele>33.3</ele>
        <time>2016-09-17T08:58:10Z</time>
      </trkpt>
      <trkpt lat="44.6993" lon="-0.26137">
        <ele>32.82</ele>
        <time>2016-09-17T08:58:30Z</time>
      </trkpt>
      <trkpt lat="44.69937" lon="-0.26122">
        <ele>32.34</ele>
        <time>2016-09-17T08:58:47Z</time>
      </trkpt>
      <trkpt lat="44.69939" lon="-0.26098">
        <ele>32.82</ele>
        <time>2016-09-17T08:59:06Z</time>
      </trkpt>
      <trkpt lat="44.69945" lon="-0.26075">
        <ele>32.34</ele>
        <time>2016-09-17T08:59:24Z</time>
      </trkpt>
      <trkpt lat="44.6993" lon="-0.26061">
        <ele>32.82</ele>
        <time>2016-09-17T08:59:41Z</time>
      </trkpt>
      <trkpt lat="44.69926" lon="-0.26055">
        <ele>32.82</ele>
        <time>2016-09-17T08:59:45Z</time>
      </trkpt>
      <trkpt lat="44.69911" lon="-0.26045">
        <ele>32.82</ele>
        <time>2016-09-17T09:00:03Z</time>
      </trkpt>
      <trkpt lat="44.69895" lon="-0.26041">
        <ele>32.82</ele>
        <time>2016-09-17T09:00:22Z</time>
      </trkpt>
      <trkpt lat="44.69895" lon="-0.26043">
        <ele>32.82</ele>
        <time>2016-09-17T09:00:48Z</time>
      </trkpt>
      <trkpt lat="44.69892" lon="-0.26041">
        <ele>32.82</ele>
        <time>2016-09-17T09:01:09Z</time>
      </trkpt>
      <trkpt lat="44.6989" lon="-0.26041">
        <ele>32.82</ele>
        <time>2016-09-17T09:01:25Z</time>
      </trkpt>
      <trkpt lat="44.69883" lon="-0.26034">
        <ele>32.82</ele>
        <time>2016-09-17T09:01:43Z</time>
      </trkpt>
      <trkpt lat="44.69883" lon="-0.26032">
        <ele>32.82</ele>
        <time>2016-09-17T09:02:06Z</time>
      </trkpt>
      <trkpt lat="44.69877" lon="-0.26017">
        <ele>33.3</ele>
        <time>2016-09-17T09:02:25Z</time>
      </trkpt>
      <trkpt lat="44.69873" lon="-0.25993">
        <ele>32.82</ele>
        <time>2016-09-17T09:02:42Z</time>
      </trkpt>
      <trkpt lat="44.69864" lon="-0.25973">
        <ele>32.34</ele>
        <time>2016-09-17T09:03:00Z</time>
      </trkpt>
      <trkpt lat="44.69855" lon="-0.25959">
        <ele>33.3</ele>
        <time>2016-09-17T09:03:13Z</time>
      </trkpt>
      <trkpt lat="44.69844" lon="-0.25943">
        <ele>33.3</ele>
        <time>2016-09-17T09:03:31Z</time>
      </trkpt>
      <trkpt lat="44.69829" lon="-0.25935">
        <ele>33.3</ele>
        <time>2016-09-17T09:03:49Z</time>
      </trkpt>
      <trkpt lat="44.69809" lon="-0.25926">
        <ele>33.3</ele>
        <time>2016-09-17T09:04:05Z</time>
      </trkpt>
      <trkpt lat="44.69802" lon="-0.25924">
        <ele>33.3</ele>
        <time>2016-09-17T09:04:19Z</time>
      </trkpt>
      <trkpt lat="44.69794" lon="-0.25918">
        <ele>33.3</ele>
        <time>2016-09-17T09:04:35Z</time>
      </trkpt>
      <trkpt lat="44.69785" lon="-0.2592">
        <ele>33.3</ele>
        <time>2016-09-17T09:04:54Z</time>
      </trkpt>
      <trkpt lat="44.6978" lon="-0.25929">
        <ele>34.74</ele>
        <time>2016-09-17T09:05:11Z</time>
      </trkpt>
      <trkpt lat="44.69772" lon="-0.2594">
        <ele>36.19</ele>
        <time>2016-09-17T09:05:26Z</time>
      </trkpt>
      <trkpt lat="44.69769" lon="-0.25938">
        <ele>36.19</ele>
        <time>2016-09-17T09:05:31Z</time>
      </trkpt>
      <trkpt lat="44.69756" lon="-0.25934">
        <ele>36.67</ele>
        <time>2016-09-17T09:05:47Z</time>
      </trkpt>
      <trkpt lat="44.69747" lon="-0.25933">
        <ele>37.63</ele>
        <time>2016-09-17T09:06:01Z</time>
      </trkpt>
      <trkpt lat="44.69733" lon="-0.25924">
        <ele>37.63</ele>
        <time>2016-09-17T09:06:18Z</time>
      </trkpt>
      <trkpt lat="44.6972" lon="-0.25915">
        <ele>37.15</ele>
        <time>2016-09-17T09:06:31Z</time>
      </trkpt>
      <trkpt lat="44.69705" lon="-0.25911">
        <ele>37.63</ele>
        <time>2016-09-17T09:06:47Z</time>
      </trkpt>
      <trkpt lat="44.69689" lon="-0.25904">
        <ele>38.11</ele>
        <time>2016-09-17T09:07:05Z</time>
      </trkpt>
      <trkpt lat="44.69676" lon="-0.259">
        <ele>38.11</ele>
        <time>2016-09-17T09:07:19Z</time>
      </trkpt>
      <trkpt lat="44.69659" lon="-0.25897">
        <ele>38.11</ele>
        <time>2016-09-17T09:07:34Z</time>
      </trkpt>
      <trkpt lat="44.69642" lon="-0.25895">
        <ele>37.15</ele>
        <time>2016-09-17T09:07:50Z</time>
      </trkpt>
      <trkpt lat="44.69625" lon="-0.25897">
        <ele>37.15</ele>
        <time>2016-09-17T09:08:05Z</time>
      </trkpt>
      <trkpt lat="44.69612" lon="-0.25902">
        <ele>37.15</ele>
        <time>2016-09-17T09:08:23Z</time>
      </trkpt>
      <trkpt lat="44.69608" lon="-0.25904">
        <ele>37.15</ele>
        <time>2016-09-17T09:08:43Z</time>
      </trkpt>
      <trkpt lat="44.69601" lon="-0.25903">
        <ele>36.67</ele>
        <time>2016-09-17T09:08:54Z</time>
      </trkpt>
      <trkpt lat="44.69594" lon="-0.25874">
        <ele>35.71</ele>
        <time>2016-09-17T09:09:16Z</time>
      </trkpt>
      <trkpt lat="44.69586" lon="-0.25879">
        <ele>35.71</ele>
        <time>2016-09-17T09:09:26Z</time>
      </trkpt>
      <trkpt lat="44.69574" lon="-0.25889">
        <ele>36.19</ele>
        <time>2016-09-17T09:09:39Z</time>
      </trkpt>
      <trkpt lat="44.69559" lon="-0.25904">
        <ele>36.67</ele>
        <time>2016-09-17T09:09:56Z</time>
      </trkpt>
      <trkpt lat="44.69543" lon="-0.25916">
        <ele>38.11</ele>
        <time>2016-09-17T09:10:13Z</time>
      </trkpt>
      <trkpt lat="44.69532" lon="-0.25924">
        <ele>38.59</ele>
        <time>2016-09-17T09:10:25Z</time>
      </trkpt>
      <trkpt lat="44.69517" lon="-0.25935">
        <ele>40.03</ele>
        <time>2016-09-17T09:10:43Z</time>
      </trkpt>
      <trkpt lat="44.69502" lon="-0.25951">
        <ele>40.99</ele>
        <time>2016-09-17T09:11:00Z</time>
      </trkpt>
      <trkpt lat="44.69491" lon="-0.25968">
        <ele>42.92</ele>
        <time>2016-09-17T09:11:16Z</time>
      </trkpt>
      <trkpt lat="44.69482" lon="-0.25984">
        <ele>42.92</ele>
        <time>2016-09-17T09:11:31Z</time>
      </trkpt>
      <trkpt lat="44.69471" lon="-0.25996">
        <ele>43.88</ele>
        <time>2016-09-17T09:11:45Z</time>
      </trkpt>
      <trkpt lat="44.69452" lon="-0.25997">
        <ele>43.4</ele>
        <time>2016-09-17T09:12:02Z</time>
      </trkpt>
      <trkpt lat="44.69442" lon="-0.26006">
        <ele>42.92</ele>
        <time>2016-09-17T09:12:14Z</time>
      </trkpt>
      <trkpt lat="44.69425" lon="-0.26025">
        <ele>42.44</ele>
        <time>2016-09-17T09:12:33Z</time>
      </trkpt>
      <trkpt lat="44.69406" lon="-0.26043">
        <ele>40.99</ele>
        <time>2016-09-17T09:12:53Z</time>
      </trkpt>
      <trkpt lat="44.69389" lon="-0.26053">
        <ele>39.55</ele>
        <time>2016-09-17T09:13:12Z</time>
      </trkpt>
      <trkpt lat="44.69389" lon="-0.26073">
        <ele>38.59</ele>
        <time>2016-09-17T09:13:34Z</time>
      </trkpt>
      <trkpt lat="44.69386" lon="-0.261">
        <ele>37.15</ele>
        <time>2016-09-17T09:13:53Z</time>
      </trkpt>
      <trkpt lat="44.69383" lon="-0.2611">
        <ele>35.71</ele>
        <time>2016-09-17T09:14:13Z</time>
      </trkpt>
      <trkpt lat="44.69382" lon="-0.26136">
        <ele>35.71</ele>
        <time>2016-09-17T09:14:34Z</time>
      </trkpt>
      <trkpt lat="44.6938" lon="-0.26168">
        <ele>36.67</ele>
        <time>2016-09-17T09:14:54Z</time>
      </trkpt>
      <trkpt lat="44.69375" lon="-0.26202">
        <ele>37.15</ele>
        <time>2016-09-17T09:15:15Z</time>
      </trkpt>
      <trkpt lat="44.69365" lon="-0.26226">
        <ele>37.15</ele>
        <time>2016-09-17T09:15:31Z</time>
      </trkpt>
      <trkpt lat="44.6936" lon="-0.26241">
        <ele>35.23</ele>
        <time>2016-09-17T09:15:50Z</time>
      </trkpt>
      <trkpt lat="44.69357" lon="-0.26252">
        <ele>34.74</ele>
        <time>2016-09-17T09:16:05Z</time>
      </trkpt>
      <trkpt lat="44.69356" lon="-0.26257">
        <ele>34.74</ele>
        <time>2016-09-17T09:16:26Z</time>
      </trkpt>
      <trkpt lat="44.69351" lon="-0.26268">
        <ele>34.26</ele>
        <time>2016-09-17T09:16:43Z</time>
      </trkpt>
      <trkpt lat="44.69345" lon="-0.26284">
        <ele>33.78</ele>
        <time>2016-09-17T09:17:00Z</time>
      </trkpt>
      <trkpt lat="44.69342" lon="-0.26294">
        <ele>33.78</ele>
        <time>2016-09-17T09:17:14Z</time>
      </trkpt>
      <trkpt lat="44.6934" lon="-0.26296">
        <ele>33.78</ele>
        <time>2016-09-17T09:17:16Z</time>
      </trkpt>
      <trkpt lat="44.69337" lon="-0.26299">
        <ele>34.26</ele>
        <time>2016-09-17T09:17:18Z</time>
      </trkpt>
      <trkpt lat="44.69322" lon="-0.26303">
        <ele>34.26</ele>
        <time>2016-09-17T09:17:35Z</time>
      </trkpt>
      <trkpt lat="44.69318" lon="-0.26303">
        <ele>33.78</ele>
        <time>2016-09-17T09:17:51Z</time>
      </trkpt>
      <trkpt lat="44.69313" lon="-0.26306">
        <ele>33.78</ele>
        <time>2016-09-17T09:18:04Z</time>
      </trkpt>
      <trkpt lat="44.69306" lon="-0.26307">
        <ele>34.26</ele>
        <time>2016-09-17T09:18:13Z</time>
      </trkpt>
      <trkpt lat="44.69292" lon="-0.26309">
        <ele>35.71</ele>
        <time>2016-09-17T09:18:30Z</time>
      </trkpt>
      <trkpt lat="44.69282" lon="-0.26313">
        <ele>36.67</ele>
        <time>2016-09-17T09:18:43Z</time>
      </trkpt>
      <trkpt lat="44.69271" lon="-0.26319">
        <ele>38.59</ele>
        <time>2016-09-17T09:18:58Z</time>
      </trkpt>
      <trkpt lat="44.6926" lon="-0.26325">
        <ele>40.03</ele>
        <time>2016-09-17T09:19:10Z</time>
      </trkpt>
      <trkpt lat="44.6925" lon="-0.26328">
        <ele>40.99</ele>
        <time>2016-09-17T09:19:20Z</time>
      </trkpt>
      <trkpt lat="44.69236" lon="-0.26332">
        <ele>42.92</ele>
        <time>2016-09-17T09:19:37Z</time>
      </trkpt>
      <trkpt lat="44.69233" lon="-0.26332">
        <ele>43.4</ele>
        <time>2016-09-17T09:19:41Z</time>
      </trkpt>
      <trkpt lat="44.69218" lon="-0.26336">
        <ele>43.88</ele>
        <time>2016-09-17T09:19:57Z</time>
      </trkpt>
      <trkpt lat="44.69202" lon="-0.26339">
        <ele>44.84</ele>
        <time>2016-09-17T09:20:14Z</time>
      </trkpt>
      <trkpt lat="44.69191" lon="-0.26341">
        <ele>45.32</ele>
        <time>2016-09-17T09:20:24Z</time>
      </trkpt>
      <trkpt lat="44.69176" lon="-0.26342">
        <ele>45.8</ele>
        <time>2016-09-17T09:20:39Z</time>
      </trkpt>
      <trkpt lat="44.69159" lon="-0.2634">
        <ele>46.28</ele>
        <time>2016-09-17T09:20:55Z</time>
      </trkpt>
      <trkpt lat="44.69143" lon="-0.26346">
        <ele>45.8</ele>
        <time>2016-09-17T09:21:10Z</time>
      </trkpt>
      <trkpt lat="44.69132" lon="-0.26354">
        <ele>45.32</ele>
        <time>2016-09-17T09:21:21Z</time>
      </trkpt>
      <trkpt lat="44.69116" lon="-0.2637">
        <ele>45.32</ele>
        <time>2016-09-17T09:21:38Z</time>
      </trkpt>
      <trkpt lat="44.69099" lon="-0.26387">
        <ele>46.28</ele>
        <time>2016-09-17T09:21:56Z</time>
      </trkpt>
      <trkpt lat="44.69084" lon="-0.26404">
        <ele>46.76</ele>
        <time>2016-09-17T09:22:12Z</time>
      </trkpt>
      <trkpt lat="44.69062" lon="-0.26418">
        <ele>47.24</ele>
        <time>2016-09-17T09:22:31Z</time>
      </trkpt>
      <trkpt lat="44.6905" lon="-0.26411">
        <ele>46.28</ele>
        <time>2016-09-17T09:22:44Z</time>
      </trkpt>
      <trkpt lat="44.69045" lon="-0.26404">
        <ele>45.8</ele>
        <time>2016-09-17T09:22:50Z</time>
      </trkpt>
      <trkpt lat="44.69033" lon="-0.26383">
        <ele>45.32</ele>
        <time>2016-09-17T09:23:07Z</time>
      </trkpt>
      <trkpt lat="44.69019" lon="-0.26371">
        <ele>43.4</ele>
        <time>2016-09-17T09:23:20Z</time>
      </trkpt>
      <trkpt lat="44.69001" lon="-0.26377">
        <ele>44.84</ele>
        <time>2016-09-17T09:23:36Z</time>
      </trkpt>
      <trkpt lat="44.68983" lon="-0.26392">
        <ele>40.51</ele>
        <time>2016-09-17T09:23:53Z</time>
      </trkpt>
      <trkpt lat="44.68982" lon="-0.26393">
        <ele>48.2</ele>
        <time>2016-09-17T09:23:54Z</time>
      </trkpt>
      <trkpt lat="44.68978" lon="-0.26396">
        <ele>41.95</ele>
        <time>2016-09-17T09:23:58Z</time>
      </trkpt>
      <trkpt lat="44.68977" lon="-0.26397">
        <ele>46.76</ele>
        <time>2016-09-17T09:23:59Z</time>
      </trkpt>
      <trkpt lat="44.6896" lon="-0.26411">
        <ele>45.8</ele>
        <time>2016-09-17T09:24:15Z</time>
      </trkpt>
      <trkpt lat="44.68937" lon="-0.26426">
        <ele>46.76</ele>
        <time>2016-09-17T09:24:36Z</time>
      </trkpt>
      <trkpt lat="44.68928" lon="-0.26421">
        <ele>47.24</ele>
        <time>2016-09-17T09:24:48Z</time>
      </trkpt>
      <trkpt lat="44.68921" lon="-0.26382">
        <ele>47.72</ele>
        <time>2016-09-17T09:25:10Z</time>
      </trkpt>
      <trkpt lat="44.68915" lon="-0.26349">
        <ele>45.8</ele>
        <time>2016-09-17T09:25:30Z</time>
      </trkpt>
      <trkpt lat="44.68905" lon="-0.26321">
        <ele>45.32</ele>
        <time>2016-09-17T09:25:49Z</time>
      </trkpt>
      <trkpt lat="44.68893" lon="-0.26282">
        <ele>44.36</ele>
        <time>2016-09-17T09:26:13Z</time>
      </trkpt>
      <trkpt lat="44.6888" lon="-0.26246">
        <ele>43.4</ele>
        <time>2016-09-17T09:26:39Z</time>
      </trkpt>
      <trkpt lat="44.68863" lon="-0.26218">
        <ele>43.4</ele>
        <time>2016-09-17T09:27:01Z</time>
      </trkpt>
      <trkpt lat="44.68846" lon="-0.26198">
        <ele>43.4</ele>
        <time>2016-09-17T09:27:22Z</time>
      </trkpt>
      <trkpt lat="44.68831" lon="-0.26166">
        <ele>42.44</ele>
        <time>2016-09-17T09:27:44Z</time>
      </trkpt>
      <trkpt lat="44.68814" lon="-0.26138">
        <ele>41.47</ele>
        <time>2016-09-17T09:28:08Z</time>
      </trkpt>
      <trkpt lat="44.68801" lon="-0.2611">
        <ele>40.51</ele>
        <time>2016-09-17T09:28:31Z</time>
      </trkpt>
      <trkpt lat="44.68787" lon="-0.26081">
        <ele>39.55</ele>
        <time>2016-09-17T09:28:52Z</time>
      </trkpt>
      <trkpt lat="44.68772" lon="-0.26052">
        <ele>37.63</ele>
        <time>2016-09-17T09:29:13Z</time>
      </trkpt>
      <trkpt lat="44.68753" lon="-0.26021">
        <ele>36.19</ele>
        <time>2016-09-17T09:29:39Z</time>
      </trkpt>
      <trkpt lat="44.68737" lon="-0.25997">
        <ele>34.74</ele>
        <time>2016-09-17T09:29:58Z</time>
      </trkpt>
      <trkpt lat="44.68718" lon="-0.25973">
        <ele>33.3</ele>
        <time>2016-09-17T09:30:20Z</time>
      </trkpt>
      <trkpt lat="44.6872" lon="-0.25951">
        <ele>31.38</ele>
        <time>2016-09-17T09:30:36Z</time>
      </trkpt>
      <trkpt lat="44.68713" lon="-0.25942">
        <ele>30.42</ele>
        <time>2016-09-17T09:30:42Z</time>
      </trkpt>
      <trkpt lat="44.68689" lon="-0.25916">
        <ele>28.98</ele>
        <time>2016-09-17T09:31:06Z</time>
      </trkpt>
      <trkpt lat="44.68671" lon="-0.25905">
        <ele>28.5</ele>
        <time>2016-09-17T09:31:23Z</time>
      </trkpt>
      <trkpt lat="44.68658" lon="-0.25909">
        <ele>28.5</ele>
        <time>2016-09-17T09:31:33Z</time>
      </trkpt>
      <trkpt lat="44.68642" lon="-0.25911">
        <ele>29.46</ele>
        <time>2016-09-17T09:31:52Z</time>
      </trkpt>
      <trkpt lat="44.68643" lon="-0.25914">
        <ele>28.98</ele>
        <time>2016-09-17T09:32:18Z</time>
      </trkpt>
      <trkpt lat="44.68642" lon="-0.25918">
        <ele>29.46</ele>
        <time>2016-09-17T09:32:43Z</time>
      </trkpt>
      <trkpt lat="44.68639" lon="-0.25902">
        <ele>29.46</ele>
        <time>2016-09-17T09:32:59Z</time>
      </trkpt>
      <trkpt lat="44.68639" lon="-0.25897">
        <ele>29.46</ele>
        <time>2016-09-17T09:33:05Z</time>
      </trkpt>
      <trkpt lat="44.68653" lon="-0.2588">
        <ele>29.94</ele>
        <time>2016-09-17T09:33:26Z</time>
      </trkpt>
      <trkpt lat="44.68653" lon="-0.25866">
        <ele>30.42</ele>
        <time>2016-09-17T09:33:39Z</time>
      </trkpt>
      <trkpt lat="44.68674" lon="-0.25846">
        <ele>30.9</ele>
        <time>2016-09-17T09:34:01Z</time>
      </trkpt>
      <trkpt lat="44.68699" lon="-0.25837">
        <ele>32.82</ele>
        <time>2016-09-17T09:34:23Z</time>
      </trkpt>
      <trkpt lat="44.6871" lon="-0.25823">
        <ele>33.78</ele>
        <time>2016-09-17T09:34:43Z</time>
      </trkpt>
      <trkpt lat="44.68708" lon="-0.25823">
        <ele>33.78</ele>
        <time>2016-09-17T09:34:45Z</time>
      </trkpt>
      <trkpt lat="44.68688" lon="-0.25823">
        <ele>34.26</ele>
        <time>2016-09-17T09:35:01Z</time>
      </trkpt>
      <trkpt lat="44.68685" lon="-0.25821">
        <ele>34.26</ele>
        <time>2016-09-17T09:35:04Z</time>
      </trkpt>
      <trkpt lat="44.68667" lon="-0.25825">
        <ele>35.71</ele>
        <time>2016-09-17T09:35:21Z</time>
      </trkpt>
      <trkpt lat="44.68647" lon="-0.25822">
        <ele>36.67</ele>
        <time>2016-09-17T09:35:39Z</time>
      </trkpt>
      <trkpt lat="44.68646" lon="-0.25819">
        <ele>36.67</ele>
        <time>2016-09-17T09:35:41Z</time>
      </trkpt>
      <trkpt lat="44.68639" lon="-0.258">
        <ele>37.15</ele>
        <time>2016-09-17T09:36:01Z</time>
      </trkpt>
      <trkpt lat="44.68635" lon="-0.25779">
        <ele>38.11</ele>
        <time>2016-09-17T09:36:16Z</time>
      </trkpt>
      <trkpt lat="44.68634" lon="-0.25775">
        <ele>38.11</ele>
        <time>2016-09-17T09:36:19Z</time>
      </trkpt>
      <trkpt lat="44.68627" lon="-0.25746">
        <ele>39.55</ele>
        <time>2016-09-17T09:36:37Z</time>
      </trkpt>
      <trkpt lat="44.68624" lon="-0.2573">
        <ele>40.03</ele>
        <time>2016-09-17T09:36:47Z</time>
      </trkpt>
      <trkpt lat="44.68616" lon="-0.25696">
        <ele>41.47</ele>
        <time>2016-09-17T09:37:10Z</time>
      </trkpt>
      <trkpt lat="44.68609" lon="-0.25662">
        <ele>42.44</ele>
        <time>2016-09-17T09:37:31Z</time>
      </trkpt>
      <trkpt lat="44.68603" lon="-0.25634">
        <ele>42.92</ele>
        <time>2016-09-17T09:37:49Z</time>
      </trkpt>
      <trkpt lat="44.68598" lon="-0.25608">
        <ele>43.88</ele>
        <time>2016-09-17T09:38:06Z</time>
      </trkpt>
      <trkpt lat="44.68591" lon="-0.25579">
        <ele>44.36</ele>
        <time>2016-09-17T09:38:25Z</time>
      </trkpt>
      <trkpt lat="44.68585" lon="-0.25552">
        <ele>44.84</ele>
        <time>2016-09-17T09:38:42Z</time>
      </trkpt>
      <trkpt lat="44.68577" lon="-0.25523">
        <ele>45.32</ele>
        <time>2016-09-17T09:39:01Z</time>
      </trkpt>
      <trkpt lat="44.6857" lon="-0.25493">
        <ele>45.32</ele>
        <time>2016-09-17T09:39:20Z</time>
      </trkpt>
      <trkpt lat="44.68559" lon="-0.25448">
        <ele>44.84</ele>
        <time>2016-09-17T09:39:46Z</time>
      </trkpt>
      <trkpt lat="44.68553" lon="-0.25422">
        <ele>45.32</ele>
        <time>2016-09-17T09:40:05Z</time>
      </trkpt>
      <trkpt lat="44.68545" lon="-0.25396">
        <ele>46.28</ele>
        <time>2016-09-17T09:40:23Z</time>
      </trkpt>
      <trkpt lat="44.68539" lon="-0.25367">
        <ele>46.28</ele>
        <time>2016-09-17T09:40:41Z</time>
      </trkpt>
      <trkpt lat="44.68533" lon="-0.25349">
        <ele>45.32</ele>
        <time>2016-09-17T09:40:54Z</time>
      </trkpt>
      <trkpt lat="44.68533" lon="-0.25345">
        <ele>46.76</ele>
        <time>2016-09-17T09:40:56Z</time>
      </trkpt>
      <trkpt lat="44.68524" lon="-0.25312">
        <ele>47.24</ele>
        <time>2016-09-17T09:41:17Z</time>
      </trkpt>
      <trkpt lat="44.68518" lon="-0.25285">
        <ele>47.24</ele>
        <time>2016-09-17T09:41:34Z</time>
      </trkpt>
      <trkpt lat="44.68511" lon="-0.25259">
        <ele>47.72</ele>
        <time>2016-09-17T09:41:52Z</time>
      </trkpt>
      <trkpt lat="44.68504" lon="-0.2523">
        <ele>48.68</ele>
        <time>2016-09-17T09:42:11Z</time>
      </trkpt>
      <trkpt lat="44.68496" lon="-0.25201">
        <ele>49.16</ele>
        <time>2016-09-17T09:42:29Z</time>
      </trkpt>
      <trkpt lat="44.6849" lon="-0.25175">
        <ele>49.65</ele>
        <time>2016-09-17T09:42:46Z</time>
      </trkpt>
      <trkpt lat="44.68482" lon="-0.25148">
        <ele>50.61</ele>
        <time>2016-09-17T09:43:04Z</time>
      </trkpt>
      <trkpt lat="44.68482" lon="-0.25127">
        <ele>51.09</ele>
        <time>2016-09-17T09:43:22Z</time>
      </trkpt>
      <trkpt lat="44.68488" lon="-0.2512">
        <ele>51.09</ele>
        <time>2016-09-17T09:43:29Z</time>
      </trkpt>
      <trkpt lat="44.68511" lon="-0.25105">
        <ele>52.05</ele>
        <time>2016-09-17T09:43:47Z</time>
      </trkpt>
      <trkpt lat="44.68526" lon="-0.25089">
        <ele>53.01</ele>
        <time>2016-09-17T09:44:03Z</time>
      </trkpt>
      <trkpt lat="44.68544" lon="-0.25075">
        <ele>53.49</ele>
        <time>2016-09-17T09:44:20Z</time>
      </trkpt>
      <trkpt lat="44.68561" lon="-0.25059">
        <ele>53.49</ele>
        <time>2016-09-17T09:44:37Z</time>
      </trkpt>
      <trkpt lat="44.68578" lon="-0.25042">
        <ele>53.49</ele>
        <time>2016-09-17T09:44:55Z</time>
      </trkpt>
      <trkpt lat="44.68584" lon="-0.25032">
        <ele>53.97</ele>
        <time>2016-09-17T09:45:09Z</time>
      </trkpt>
      <trkpt lat="44.68587" lon="-0.25024">
        <ele>53.97</ele>
        <time>2016-09-17T09:45:15Z</time>
      </trkpt>
      <trkpt lat="44.68586" lon="-0.25014">
        <ele>54.45</ele>
        <time>2016-09-17T09:45:21Z</time>
      </trkpt>
      <trkpt lat="44.68579" lon="-0.24991">
        <ele>55.89</ele>
        <time>2016-09-17T09:45:37Z</time>
      </trkpt>
      <trkpt lat="44.68571" lon="-0.2497">
        <ele>56.37</ele>
        <time>2016-09-17T09:45:50Z</time>
      </trkpt>
      <trkpt lat="44.68569" lon="-0.24965">
        <ele>56.37</ele>
        <time>2016-09-17T09:45:54Z</time>
      </trkpt>
      <trkpt lat="44.68561" lon="-0.2494">
        <ele>56.37</ele>
        <time>2016-09-17T09:46:10Z</time>
      </trkpt>
      <trkpt lat="44.68553" lon="-0.24918">
        <ele>56.86</ele>
        <time>2016-09-17T09:46:26Z</time>
      </trkpt>
      <trkpt lat="44.68545" lon="-0.24895">
        <ele>57.34</ele>
        <time>2016-09-17T09:46:41Z</time>
      </trkpt>
      <trkpt lat="44.68537" lon="-0.24873">
        <ele>57.34</ele>
        <time>2016-09-17T09:46:56Z</time>
      </trkpt>
      <trkpt lat="44.68528" lon="-0.24851">
        <ele>56.86</ele>
        <time>2016-09-17T09:47:12Z</time>
      </trkpt>
      <trkpt lat="44.68519" lon="-0.24825">
        <ele>55.89</ele>
        <time>2016-09-17T09:47:28Z</time>
      </trkpt>
      <trkpt lat="44.68507" lon="-0.24803">
        <ele>55.89</ele>
        <time>2016-09-17T09:47:44Z</time>
      </trkpt>
      <trkpt lat="44.68497" lon="-0.24783">
        <ele>55.41</ele>
        <time>2016-09-17T09:47:57Z</time>
      </trkpt>
      <trkpt lat="44.68487" lon="-0.24758">
        <ele>55.41</ele>
        <time>2016-09-17T09:48:13Z</time>
      </trkpt>
      <trkpt lat="44.68478" lon="-0.24729">
        <ele>54.93</ele>
        <time>2016-09-17T09:48:32Z</time>
      </trkpt>
      <trkpt lat="44.68472" lon="-0.24715">
        <ele>54.93</ele>
        <time>2016-09-17T09:48:47Z</time>
      </trkpt>
      <trkpt lat="44.68469" lon="-0.24706">
        <ele>54.45</ele>
        <time>2016-09-17T09:48:54Z</time>
      </trkpt>
      <trkpt lat="44.68463" lon="-0.24681">
        <ele>55.41</ele>
        <time>2016-09-17T09:49:10Z</time>
      </trkpt>
      <trkpt lat="44.68462" lon="-0.24676">
        <ele>55.41</ele>
        <time>2016-09-17T09:49:14Z</time>
      </trkpt>
      <trkpt lat="44.68459" lon="-0.24673">
        <ele>55.89</ele>
        <time>2016-09-17T09:49:17Z</time>
      </trkpt>
      <trkpt lat="44.68452" lon="-0.24644">
        <ele>55.41</ele>
        <time>2016-09-17T09:49:35Z</time>
      </trkpt>
      <trkpt lat="44.68451" lon="-0.24641">
        <ele>55.41</ele>
        <time>2016-09-17T09:49:37Z</time>
      </trkpt>
      <trkpt lat="44.68448" lon="-0.24631">
        <ele>55.41</ele>
        <time>2016-09-17T09:49:44Z</time>
      </trkpt>
      <trkpt lat="44.68442" lon="-0.24617">
        <ele>55.41</ele>
        <time>2016-09-17T09:49:54Z</time>
      </trkpt>
      <trkpt lat="44.6844" lon="-0.24608">
        <ele>55.41</ele>
        <time>2016-09-17T09:49:59Z</time>
      </trkpt>
      <trkpt lat="44.68437" lon="-0.24597">
        <ele>55.89</ele>
        <time>2016-09-17T09:50:13Z</time>
      </trkpt>
      <trkpt lat="44.68433" lon="-0.24596">
        <ele>55.41</ele>
        <time>2016-09-17T09:50:32Z</time>
      </trkpt>
      <trkpt lat="44.68409" lon="-0.24602">
        <ele>54.45</ele>
        <time>2016-09-17T09:50:53Z</time>
      </trkpt>
      <trkpt lat="44.68387" lon="-0.24611">
        <ele>53.49</ele>
        <time>2016-09-17T09:51:12Z</time>
      </trkpt>
      <trkpt lat="44.68365" lon="-0.24612">
        <ele>53.01</ele>
        <time>2016-09-17T09:51:30Z</time>
      </trkpt>
      <trkpt lat="44.68355" lon="-0.24611">
        <ele>53.01</ele>
        <time>2016-09-17T09:51:38Z</time>
      </trkpt>
      <trkpt lat="44.68342" lon="-0.24611">
        <ele>53.01</ele>
        <time>2016-09-17T09:51:50Z</time>
      </trkpt>
      <trkpt lat="44.68325" lon="-0.24613">
        <ele>52.53</ele>
        <time>2016-09-17T09:52:05Z</time>
      </trkpt>
      <trkpt lat="44.68305" lon="-0.24628">
        <ele>52.05</ele>
        <time>2016-09-17T09:52:25Z</time>
      </trkpt>
      <trkpt lat="44.68289" lon="-0.2463">
        <ele>51.57</ele>
        <time>2016-09-17T09:52:40Z</time>
      </trkpt>
      <trkpt lat="44.68267" lon="-0.24631">
        <ele>49.65</ele>
        <time>2016-09-17T09:53:00Z</time>
      </trkpt>
      <trkpt lat="44.6825" lon="-0.24632">
        <ele>48.68</ele>
        <time>2016-09-17T09:53:17Z</time>
      </trkpt>
      <trkpt lat="44.68228" lon="-0.2463">
        <ele>48.2</ele>
        <time>2016-09-17T09:53:37Z</time>
      </trkpt>
      <trkpt lat="44.68214" lon="-0.24628">
        <ele>47.24</ele>
        <time>2016-09-17T09:53:50Z</time>
      </trkpt>
      <trkpt lat="44.68208" lon="-0.24625">
        <ele>47.24</ele>
        <time>2016-09-17T09:53:57Z</time>
      </trkpt>
      <trkpt lat="44.68195" lon="-0.24627">
        <ele>46.76</ele>
        <time>2016-09-17T09:54:08Z</time>
      </trkpt>
      <trkpt lat="44.68192" lon="-0.24626">
        <ele>46.28</ele>
        <time>2016-09-17T09:54:11Z</time>
      </trkpt>
      <trkpt lat="44.6817" lon="-0.24627">
        <ele>45.32</ele>
        <time>2016-09-17T09:54:28Z</time>
      </trkpt>
      <trkpt lat="44.68151" lon="-0.24626">
        <ele>44.36</ele>
        <time>2016-09-17T09:54:43Z</time>
      </trkpt>
      <trkpt lat="44.68131" lon="-0.24626">
        <ele>44.36</ele>
        <time>2016-09-17T09:54:59Z</time>
      </trkpt>
      <trkpt lat="44.68112" lon="-0.24628">
        <ele>42.92</ele>
        <time>2016-09-17T09:55:15Z</time>
      </trkpt>
      <trkpt lat="44.68092" lon="-0.24631">
        <ele>41.95</ele>
        <time>2016-09-17T09:55:33Z</time>
      </trkpt>
      <trkpt lat="44.68067" lon="-0.24639">
        <ele>40.99</ele>
        <time>2016-09-17T09:55:53Z</time>
      </trkpt>
      <trkpt lat="44.68045" lon="-0.24646">
        <ele>40.03</ele>
        <time>2016-09-17T09:56:11Z</time>
      </trkpt>
      <trkpt lat="44.68023" lon="-0.2465">
        <ele>40.03</ele>
        <time>2016-09-17T09:56:30Z</time>
      </trkpt>
      <trkpt lat="44.68004" lon="-0.24656">
        <ele>39.07</ele>
        <time>2016-09-17T09:56:48Z</time>
      </trkpt>
      <trkpt lat="44.67984" lon="-0.24664">
        <ele>38.59</ele>
        <time>2016-09-17T09:57:06Z</time>
      </trkpt>
      <trkpt lat="44.67964" lon="-0.24676">
        <ele>37.63</ele>
        <time>2016-09-17T09:57:24Z</time>
      </trkpt>
      <trkpt lat="44.6794" lon="-0.24691">
        <ele>37.15</ele>
        <time>2016-09-17T09:57:45Z</time>
      </trkpt>
      <trkpt lat="44.67925" lon="-0.24697">
        <ele>36.19</ele>
        <time>2016-09-17T09:58:00Z</time>
      </trkpt>
      <trkpt lat="44.67906" lon="-0.24703">
        <ele>35.23</ele>
        <time>2016-09-17T09:58:16Z</time>
      </trkpt>
      <trkpt lat="44.67887" lon="-0.2471">
        <ele>34.26</ele>
        <time>2016-09-17T09:58:32Z</time>
      </trkpt>
      <trkpt lat="44.67878" lon="-0.24716">
        <ele>34.26</ele>
        <time>2016-09-17T09:58:41Z</time>
      </trkpt>
      <trkpt lat="44.67855" lon="-0.24724">
        <ele>33.3</ele>
        <time>2016-09-17T09:59:00Z</time>
      </trkpt>
      <trkpt lat="44.67851" lon="-0.24725">
        <ele>33.3</ele>
        <time>2016-09-17T09:59:16Z</time>
      </trkpt>
      <trkpt lat="44.67851" lon="-0.24725">
        <ele>33.3</ele>
        <time>2016-09-17T09:59:33Z</time>
      </trkpt>
      <trkpt lat="44.67851" lon="-0.24725">
        <ele>32.82</ele>
        <time>2016-09-17T09:59:55Z</time>
      </trkpt>
      <trkpt lat="44.67846" lon="-0.24721">
        <ele>33.3</ele>
        <time>2016-09-17T10:00:11Z</time>
      </trkpt>
      <trkpt lat="44.67839" lon="-0.24699">
        <ele>33.3</ele>
        <time>2016-09-17T10:00:26Z</time>
      </trkpt>
      <trkpt lat="44.67835" lon="-0.24676">
        <ele>33.78</ele>
        <time>2016-09-17T10:00:40Z</time>
      </trkpt>
      <trkpt lat="44.67835" lon="-0.24674">
        <ele>33.78</ele>
        <time>2016-09-17T10:00:41Z</time>
      </trkpt>
      <trkpt lat="44.6783" lon="-0.24651">
        <ele>35.23</ele>
        <time>2016-09-17T10:00:57Z</time>
      </trkpt>
      <trkpt lat="44.67825" lon="-0.24646">
        <ele>35.23</ele>
        <time>2016-09-17T10:01:03Z</time>
      </trkpt>
      <trkpt lat="44.67808" lon="-0.24643">
        <ele>35.23</ele>
        <time>2016-09-17T10:01:19Z</time>
      </trkpt>
      <trkpt lat="44.67796" lon="-0.24641">
        <ele>35.23</ele>
        <time>2016-09-17T10:01:35Z</time>
      </trkpt>
      <trkpt lat="44.67784" lon="-0.24641">
        <ele>35.23</ele>
        <time>2016-09-17T10:01:53Z</time>
      </trkpt>
      <trkpt lat="44.67781" lon="-0.24636">
        <ele>35.23</ele>
        <time>2016-09-17T10:02:04Z</time>
      </trkpt>
      <trkpt lat="44.67777" lon="-0.24632">
        <ele>35.23</ele>
        <time>2016-09-17T10:02:19Z</time>
      </trkpt>
      <trkpt lat="44.67778" lon="-0.2463">
        <ele>35.23</ele>
        <time>2016-09-17T10:02:33Z</time>
      </trkpt>
      <trkpt lat="44.67779" lon="-0.24629">
        <ele>35.23</ele>
        <time>2016-09-17T10:02:52Z</time>
      </trkpt>
      <trkpt lat="44.67777" lon="-0.24635">
        <ele>35.23</ele>
        <time>2016-09-17T10:03:18Z</time>
      </trkpt>
      <trkpt lat="44.67779" lon="-0.24634">
        <ele>35.71</ele>
        <time>2016-09-17T10:03:42Z</time>
      </trkpt>
      <trkpt lat="44.67776" lon="-0.24644">
        <ele>35.23</ele>
        <time>2016-09-17T10:03:55Z</time>
      </trkpt>
      <trkpt lat="44.67776" lon="-0.24654">
        <ele>34.26</ele>
        <time>2016-09-17T10:04:08Z</time>
      </trkpt>
      <trkpt lat="44.67776" lon="-0.24654">
        <ele>34.26</ele>
        <time>2016-09-17T10:04:14Z</time>
      </trkpt>
      <trkpt lat="44.67777" lon="-0.24647">
        <ele>34.74</ele>
        <time>2016-09-17T10:04:26Z</time>
      </trkpt>
      <trkpt lat="44.67778" lon="-0.24651">
        <ele>34.26</ele>
        <time>2016-09-17T10:04:45Z</time>
      </trkpt>
      <trkpt lat="44.67775" lon="-0.24661">
        <ele>34.26</ele>
        <time>2016-09-17T10:04:57Z</time>
      </trkpt>
      <trkpt lat="44.67775" lon="-0.24663">
        <ele>33.78</ele>
        <time>2016-09-17T10:04:59Z</time>
      </trkpt>
      <trkpt lat="44.67768" lon="-0.24691">
        <ele>33.78</ele>
        <time>2016-09-17T10:05:15Z</time>
      </trkpt>
      <trkpt lat="44.67765" lon="-0.24715">
        <ele>33.78</ele>
        <time>2016-09-17T10:05:32Z</time>
      </trkpt>
      <trkpt lat="44.67765" lon="-0.24739">
        <ele>33.3</ele>
        <time>2016-09-17T10:05:48Z</time>
      </trkpt>
      <trkpt lat="44.67764" lon="-0.2477">
        <ele>33.78</ele>
        <time>2016-09-17T10:06:05Z</time>
      </trkpt>
      <trkpt lat="44.67763" lon="-0.24798">
        <ele>33.3</ele>
        <time>2016-09-17T10:06:23Z</time>
      </trkpt>
      <trkpt lat="44.67762" lon="-0.24824">
        <ele>33.78</ele>
        <time>2016-09-17T10:06:39Z</time>
      </trkpt>
      <trkpt lat="44.67761" lon="-0.24851">
        <ele>33.3</ele>
        <time>2016-09-17T10:06:55Z</time>
      </trkpt>
      <trkpt lat="44.6776" lon="-0.24863">
        <ele>33.3</ele>
        <time>2016-09-17T10:07:02Z</time>
      </trkpt>
      <trkpt lat="44.67757" lon="-0.24881">
        <ele>33.3</ele>
        <time>2016-09-17T10:07:14Z</time>
      </trkpt>
      <trkpt lat="44.6775" lon="-0.24884">
        <ele>33.3</ele>
        <time>2016-09-17T10:07:19Z</time>
      </trkpt>
      <trkpt lat="44.67733" lon="-0.24892">
        <ele>34.74</ele>
        <time>2016-09-17T10:07:36Z</time>
      </trkpt>
      <trkpt lat="44.67714" lon="-0.24889">
        <ele>35.23</ele>
        <time>2016-09-17T10:07:52Z</time>
      </trkpt>
      <trkpt lat="44.67698" lon="-0.24894">
        <ele>36.19</ele>
        <time>2016-09-17T10:08:07Z</time>
      </trkpt>
      <trkpt lat="44.67694" lon="-0.24903">
        <ele>37.15</ele>
        <time>2016-09-17T10:08:17Z</time>
      </trkpt>
      <trkpt lat="44.67695" lon="-0.24906">
        <ele>37.15</ele>
        <time>2016-09-17T10:08:19Z</time>
      </trkpt>
      <trkpt lat="44.67699" lon="-0.24928">
        <ele>38.11</ele>
        <time>2016-09-17T10:08:34Z</time>
      </trkpt>
      <trkpt lat="44.67702" lon="-0.24949">
        <ele>39.07</ele>
        <time>2016-09-17T10:08:48Z</time>
      </trkpt>
      <trkpt lat="44.67704" lon="-0.24957">
        <ele>40.03</ele>
        <time>2016-09-17T10:09:04Z</time>
      </trkpt>
      <trkpt lat="44.67706" lon="-0.24967">
        <ele>40.51</ele>
        <time>2016-09-17T10:09:11Z</time>
      </trkpt>
      <trkpt lat="44.6771" lon="-0.24994">
        <ele>40.51</ele>
        <time>2016-09-17T10:09:28Z</time>
      </trkpt>
      <trkpt lat="44.67715" lon="-0.25024">
        <ele>40.03</ele>
        <time>2016-09-17T10:09:45Z</time>
      </trkpt>
      <trkpt lat="44.67707" lon="-0.25041">
        <ele>40.51</ele>
        <time>2016-09-17T10:10:01Z</time>
      </trkpt>
      <trkpt lat="44.67705" lon="-0.25043">
        <ele>40.51</ele>
        <time>2016-09-17T10:10:03Z</time>
      </trkpt>
      <trkpt lat="44.67697" lon="-0.25061">
        <ele>40.99</ele>
        <time>2016-09-17T10:10:17Z</time>
      </trkpt>
      <trkpt lat="44.6769" lon="-0.25083">
        <ele>40.99</ele>
        <time>2016-09-17T10:10:31Z</time>
      </trkpt>
      <trkpt lat="44.67681" lon="-0.25109">
        <ele>40.99</ele>
        <time>2016-09-17T10:10:49Z</time>
      </trkpt>
      <trkpt lat="44.67672" lon="-0.25134">
        <ele>40.99</ele>
        <time>2016-09-17T10:11:05Z</time>
      </trkpt>
      <trkpt lat="44.67662" lon="-0.25159">
        <ele>42.44</ele>
        <time>2016-09-17T10:11:22Z</time>
      </trkpt>
      <trkpt lat="44.67653" lon="-0.2517">
        <ele>41.95</ele>
        <time>2016-09-17T10:11:33Z</time>
      </trkpt>
      <trkpt lat="44.67634" lon="-0.25175">
        <ele>43.88</ele>
        <time>2016-09-17T10:11:50Z</time>
      </trkpt>
      <trkpt lat="44.67622" lon="-0.25175">
        <ele>45.32</ele>
        <time>2016-09-17T10:12:04Z</time>
      </trkpt>
      <trkpt lat="44.67621" lon="-0.25177">
        <ele>45.8</ele>
        <time>2016-09-17T10:12:19Z</time>
      </trkpt>
      <trkpt lat="44.67623" lon="-0.25177">
        <ele>45.8</ele>
        <time>2016-09-17T10:12:38Z</time>
      </trkpt>
      <trkpt lat="44.67618" lon="-0.25176">
        <ele>46.28</ele>
        <time>2016-09-17T10:12:55Z</time>
      </trkpt>
      <trkpt lat="44.67613" lon="-0.25175">
        <ele>46.28</ele>
        <time>2016-09-17T10:13:11Z</time>
      </trkpt>
      <trkpt lat="44.6763" lon="-0.25172">
        <ele>44.84</ele>
        <time>2016-09-17T10:13:29Z</time>
      </trkpt>
      <trkpt lat="44.67632" lon="-0.25173">
        <ele>44.36</ele>
        <time>2016-09-17T10:13:49Z</time>
      </trkpt>
      <trkpt lat="44.67633" lon="-0.25177">
        <ele>44.36</ele>
        <time>2016-09-17T10:14:09Z</time>
      </trkpt>
      <trkpt lat="44.67635" lon="-0.25178">
        <ele>44.84</ele>
        <time>2016-09-17T10:14:30Z</time>
      </trkpt>
      <trkpt lat="44.67635" lon="-0.2518">
        <ele>44.36</ele>
        <time>2016-09-17T10:14:56Z</time>
      </trkpt>
      <trkpt lat="44.67636" lon="-0.25191">
        <ele>44.84</ele>
        <time>2016-09-17T10:15:15Z</time>
      </trkpt>
      <trkpt lat="44.67637" lon="-0.25203">
        <ele>44.84</ele>
        <time>2016-09-17T10:15:34Z</time>
      </trkpt>
      <trkpt lat="44.67641" lon="-0.25222">
        <ele>44.36</ele>
        <time>2016-09-17T10:15:48Z</time>
      </trkpt>
      <trkpt lat="44.67628" lon="-0.25245">
        <ele>45.32</ele>
        <time>2016-09-17T10:16:05Z</time>
      </trkpt>
      <trkpt lat="44.67615" lon="-0.25266">
        <ele>46.76</ele>
        <time>2016-09-17T10:16:25Z</time>
      </trkpt>
      <trkpt lat="44.67607" lon="-0.25281">
        <ele>49.16</ele>
        <time>2016-09-17T10:16:46Z</time>
      </trkpt>
      <trkpt lat="44.67598" lon="-0.25302">
        <ele>50.61</ele>
        <time>2016-09-17T10:17:04Z</time>
      </trkpt>
      <trkpt lat="44.67589" lon="-0.25328">
        <ele>51.57</ele>
        <time>2016-09-17T10:17:26Z</time>
      </trkpt>
      <trkpt lat="44.67581" lon="-0.25352">
        <ele>51.57</ele>
        <time>2016-09-17T10:17:42Z</time>
      </trkpt>
      <trkpt lat="44.67576" lon="-0.25363">
        <ele>51.09</ele>
        <time>2016-09-17T10:17:49Z</time>
      </trkpt>
      <trkpt lat="44.67567" lon="-0.25393">
        <ele>50.61</ele>
        <time>2016-09-17T10:18:09Z</time>
      </trkpt>
      <trkpt lat="44.6757" lon="-0.25414">
        <ele>50.13</ele>
        <time>2016-09-17T10:18:23Z</time>
      </trkpt>
      <trkpt lat="44.67574" lon="-0.25448">
        <ele>50.13</ele>
        <time>2016-09-17T10:18:43Z</time>
      </trkpt>
      <trkpt lat="44.67578" lon="-0.25476">
        <ele>49.16</ele>
        <time>2016-09-17T10:19:00Z</time>
      </trkpt>
      <trkpt lat="44.67579" lon="-0.25482">
        <ele>49.16</ele>
        <time>2016-09-17T10:19:04Z</time>
      </trkpt>
      <trkpt lat="44.67581" lon="-0.25517">
        <ele>49.16</ele>
        <time>2016-09-17T10:19:24Z</time>
      </trkpt>
      <trkpt lat="44.6757" lon="-0.25548">
        <ele>49.16</ele>
        <time>2016-09-17T10:19:44Z</time>
      </trkpt>
      <trkpt lat="44.67554" lon="-0.25566">
        <ele>49.16</ele>
        <time>2016-09-17T10:20:01Z</time>
      </trkpt>
      <trkpt lat="44.67549" lon="-0.25589">
        <ele>48.68</ele>
        <time>2016-09-17T10:20:15Z</time>
      </trkpt>
      <trkpt lat="44.67549" lon="-0.25602">
        <ele>49.16</ele>
        <time>2016-09-17T10:20:27Z</time>
      </trkpt>
      <trkpt lat="44.67549" lon="-0.25604">
        <ele>48.68</ele>
        <time>2016-09-17T10:20:30Z</time>
      </trkpt>
      <trkpt lat="44.67552" lon="-0.25613">
        <ele>49.16</ele>
        <time>2016-09-17T10:20:37Z</time>
      </trkpt>
      <trkpt lat="44.67549" lon="-0.25619">
        <ele>48.68</ele>
        <time>2016-09-17T10:20:41Z</time>
      </trkpt>
      <trkpt lat="44.67535" lon="-0.25632">
        <ele>48.2</ele>
        <time>2016-09-17T10:20:56Z</time>
      </trkpt>
      <trkpt lat="44.67528" lon="-0.25636">
        <ele>47.72</ele>
        <time>2016-09-17T10:21:03Z</time>
      </trkpt>
      <trkpt lat="44.67517" lon="-0.25644">
        <ele>47.24</ele>
        <time>2016-09-17T10:21:15Z</time>
      </trkpt>
      <trkpt lat="44.67504" lon="-0.25654">
        <ele>45.8</ele>
        <time>2016-09-17T10:21:29Z</time>
      </trkpt>
      <trkpt lat="44.67492" lon="-0.25663">
        <ele>45.32</ele>
        <time>2016-09-17T10:21:40Z</time>
      </trkpt>
      <trkpt lat="44.67478" lon="-0.25679">
        <ele>43.88</ele>
        <time>2016-09-17T10:21:57Z</time>
      </trkpt>
      <trkpt lat="44.67477" lon="-0.25679">
        <ele>43.88</ele>
        <time>2016-09-17T10:21:59Z</time>
      </trkpt>
      <trkpt lat="44.67473" lon="-0.25684">
        <ele>43.88</ele>
        <time>2016-09-17T10:22:05Z</time>
      </trkpt>
      <trkpt lat="44.67456" lon="-0.25704">
        <ele>42.44</ele>
        <time>2016-09-17T10:22:24Z</time>
      </trkpt>
      <trkpt lat="44.67445" lon="-0.25717">
        <ele>41.47</ele>
        <time>2016-09-17T10:22:41Z</time>
      </trkpt>
      <trkpt lat="44.67436" lon="-0.25728">
        <ele>40.99</ele>
        <time>2016-09-17T10:22:53Z</time>
      </trkpt>
      <trkpt lat="44.67418" lon="-0.25746">
        <ele>40.03</ele>
        <time>2016-09-17T10:23:11Z</time>
      </trkpt>
      <trkpt lat="44.67403" lon="-0.25764">
        <ele>39.55</ele>
        <time>2016-09-17T10:23:29Z</time>
      </trkpt>
      <trkpt lat="44.6739" lon="-0.25783">
        <ele>40.03</ele>
        <time>2016-09-17T10:23:46Z</time>
      </trkpt>
      <trkpt lat="44.67379" lon="-0.25802">
        <ele>40.51</ele>
        <time>2016-09-17T10:24:02Z</time>
      </trkpt>
      <trkpt lat="44.67369" lon="-0.25819">
        <ele>40.99</ele>
        <time>2016-09-17T10:24:17Z</time>
      </trkpt>
      <trkpt lat="44.67359" lon="-0.25836">
        <ele>41.95</ele>
        <time>2016-09-17T10:24:32Z</time>
      </trkpt>
      <trkpt lat="44.67347" lon="-0.25853">
        <ele>43.4</ele>
        <time>2016-09-17T10:24:47Z</time>
      </trkpt>
      <trkpt lat="44.67335" lon="-0.25875">
        <ele>44.36</ele>
        <time>2016-09-17T10:25:06Z</time>
      </trkpt>
      <trkpt lat="44.67324" lon="-0.25891">
        <ele>45.32</ele>
        <time>2016-09-17T10:25:21Z</time>
      </trkpt>
      <trkpt lat="44.67315" lon="-0.25904">
        <ele>47.24</ele>
        <time>2016-09-17T10:25:37Z</time>
      </trkpt>
      <trkpt lat="44.67305" lon="-0.2592">
        <ele>49.16</ele>
        <time>2016-09-17T10:25:55Z</time>
      </trkpt>
      <trkpt lat="44.67298" lon="-0.25926">
        <ele>50.13</ele>
        <time>2016-09-17T10:26:05Z</time>
      </trkpt>
      <trkpt lat="44.67296" lon="-0.25925">
        <ele>50.13</ele>
        <time>2016-09-17T10:26:07Z</time>
      </trkpt>
      <trkpt lat="44.67284" lon="-0.25913">
        <ele>51.57</ele>
        <time>2016-09-17T10:26:20Z</time>
      </trkpt>
      <trkpt lat="44.67281" lon="-0.2591">
        <ele>52.05</ele>
        <time>2016-09-17T10:26:24Z</time>
      </trkpt>
      <trkpt lat="44.67268" lon="-0.25913">
        <ele>53.01</ele>
        <time>2016-09-17T10:26:34Z</time>
      </trkpt>
      <trkpt lat="44.67254" lon="-0.25922">
        <ele>54.93</ele>
        <time>2016-09-17T10:26:49Z</time>
      </trkpt>
      <trkpt lat="44.67249" lon="-0.25926">
        <ele>55.41</ele>
        <time>2016-09-17T10:26:56Z</time>
      </trkpt>
      <trkpt lat="44.67242" lon="-0.25932">
        <ele>56.37</ele>
        <time>2016-09-17T10:27:02Z</time>
      </trkpt>
      <trkpt lat="44.67228" lon="-0.2594">
        <ele>57.82</ele>
        <time>2016-09-17T10:27:17Z</time>
      </trkpt>
      <trkpt lat="44.67219" lon="-0.25948">
        <ele>58.3</ele>
        <time>2016-09-17T10:27:29Z</time>
      </trkpt>
      <trkpt lat="44.67218" lon="-0.25952">
        <ele>58.78</ele>
        <time>2016-09-17T10:27:32Z</time>
      </trkpt>
      <trkpt lat="44.67213" lon="-0.2596">
        <ele>58.78</ele>
        <time>2016-09-17T10:27:46Z</time>
      </trkpt>
      <trkpt lat="44.67213" lon="-0.2596">
        <ele>59.26</ele>
        <time>2016-09-17T10:28:06Z</time>
      </trkpt>
      <trkpt lat="44.67204" lon="-0.25948">
        <ele>58.78</ele>
        <time>2016-09-17T10:28:24Z</time>
      </trkpt>
      <trkpt lat="44.67203" lon="-0.25945">
        <ele>58.78</ele>
        <time>2016-09-17T10:28:26Z</time>
      </trkpt>
      <trkpt lat="44.67185" lon="-0.25927">
        <ele>58.78</ele>
        <time>2016-09-17T10:28:45Z</time>
      </trkpt>
      <trkpt lat="44.67166" lon="-0.25912">
        <ele>59.26</ele>
        <time>2016-09-17T10:29:02Z</time>
      </trkpt>
      <trkpt lat="44.67163" lon="-0.25909">
        <ele>59.26</ele>
        <time>2016-09-17T10:29:05Z</time>
      </trkpt>
      <trkpt lat="44.67161" lon="-0.25907">
        <ele>59.26</ele>
        <time>2016-09-17T10:29:07Z</time>
      </trkpt>
      <trkpt lat="44.67146" lon="-0.25902">
        <ele>59.74</ele>
        <time>2016-09-17T10:29:19Z</time>
      </trkpt>
      <trkpt lat="44.67126" lon="-0.25896">
        <ele>59.74</ele>
        <time>2016-09-17T10:29:36Z</time>
      </trkpt>
      <trkpt lat="44.67106" lon="-0.2589">
        <ele>58.3</ele>
        <time>2016-09-17T10:29:53Z</time>
      </trkpt>
      <trkpt lat="44.67091" lon="-0.25885">
        <ele>57.82</ele>
        <time>2016-09-17T10:30:07Z</time>
      </trkpt>
      <trkpt lat="44.67074" lon="-0.25884">
        <ele>57.34</ele>
        <time>2016-09-17T10:30:21Z</time>
      </trkpt>
      <trkpt lat="44.67059" lon="-0.25898">
        <ele>55.89</ele>
        <time>2016-09-17T10:30:36Z</time>
      </trkpt>
      <trkpt lat="44.67047" lon="-0.25916">
        <ele>54.45</ele>
        <time>2016-09-17T10:30:50Z</time>
      </trkpt>
      <trkpt lat="44.67032" lon="-0.25932">
        <ele>53.49</ele>
        <time>2016-09-17T10:31:06Z</time>
      </trkpt>
      <trkpt lat="44.67013" lon="-0.25936">
        <ele>52.53</ele>
        <time>2016-09-17T10:31:21Z</time>
      </trkpt>
      <trkpt lat="44.67002" lon="-0.25937">
        <ele>52.53</ele>
        <time>2016-09-17T10:31:35Z</time>
      </trkpt>
      <trkpt lat="44.67001" lon="-0.25941">
        <ele>52.53</ele>
        <time>2016-09-17T10:31:57Z</time>
      </trkpt>
      <trkpt lat="44.67001" lon="-0.2594">
        <ele>52.05</ele>
        <time>2016-09-17T10:32:20Z</time>
      </trkpt>
      <trkpt lat="44.67" lon="-0.25938">
        <ele>52.05</ele>
        <time>2016-09-17T10:32:26Z</time>
      </trkpt>
      <trkpt lat="44.66995" lon="-0.25912">
        <ele>53.01</ele>
        <time>2016-09-17T10:32:43Z</time>
      </trkpt>
      <trkpt lat="44.66991" lon="-0.25909">
        <ele>53.01</ele>
        <time>2016-09-17T10:32:52Z</time>
      </trkpt>
      <trkpt lat="44.66986" lon="-0.25908">
        <ele>53.01</ele>
        <time>2016-09-17T10:32:56Z</time>
      </trkpt>
      <trkpt lat="44.66984" lon="-0.25907">
        <ele>52.53</ele>
        <time>2016-09-17T10:32:58Z</time>
      </trkpt>
      <trkpt lat="44.66973" lon="-0.25891">
        <ele>53.97</ele>
        <time>2016-09-17T10:33:14Z</time>
      </trkpt>
      <trkpt lat="44.66962" lon="-0.25871">
        <ele>54.93</ele>
        <time>2016-09-17T10:33:29Z</time>
      </trkpt>
      <trkpt lat="44.66956" lon="-0.25847">
        <ele>55.89</ele>
        <time>2016-09-17T10:33:45Z</time>
      </trkpt>
      <trkpt lat="44.66951" lon="-0.25842">
        <ele>55.89</ele>
        <time>2016-09-17T10:33:50Z</time>
      </trkpt>
      <trkpt lat="44.66936" lon="-0.25824">
        <ele>56.86</ele>
        <time>2016-09-17T10:34:06Z</time>
      </trkpt>
      <trkpt lat="44.66933" lon="-0.2582">
        <ele>57.34</ele>
        <time>2016-09-17T10:34:10Z</time>
      </trkpt>
      <trkpt lat="44.66915" lon="-0.25802">
        <ele>58.78</ele>
        <time>2016-09-17T10:34:28Z</time>
      </trkpt>
      <trkpt lat="44.66898" lon="-0.25791">
        <ele>59.74</ele>
        <time>2016-09-17T10:34:44Z</time>
      </trkpt>
      <trkpt lat="44.6689" lon="-0.25788">
        <ele>60.22</ele>
        <time>2016-09-17T10:34:50Z</time>
      </trkpt>
      <trkpt lat="44.6687" lon="-0.25782">
        <ele>60.7</ele>
        <time>2016-09-17T10:35:06Z</time>
      </trkpt>
      <trkpt lat="44.66853" lon="-0.2578">
        <ele>61.18</ele>
        <time>2016-09-17T10:35:21Z</time>
      </trkpt>
      <trkpt lat="44.66833" lon="-0.25777">
        <ele>61.18</ele>
        <time>2016-09-17T10:35:37Z</time>
      </trkpt>
      <trkpt lat="44.66818" lon="-0.25777">
        <ele>62.14</ele>
        <time>2016-09-17T10:35:48Z</time>
      </trkpt>
      <trkpt lat="44.668" lon="-0.2578">
        <ele>62.62</ele>
        <time>2016-09-17T10:36:03Z</time>
      </trkpt>
      <trkpt lat="44.66782" lon="-0.25786">
        <ele>63.58</ele>
        <time>2016-09-17T10:36:19Z</time>
      </trkpt>
      <trkpt lat="44.66765" lon="-0.25795">
        <ele>64.07</ele>
        <time>2016-09-17T10:36:33Z</time>
      </trkpt>
      <trkpt lat="44.66754" lon="-0.25797">
        <ele>64.55</ele>
        <time>2016-09-17T10:36:42Z</time>
      </trkpt>
      <trkpt lat="44.66743" lon="-0.25799">
        <ele>65.03</ele>
        <time>2016-09-17T10:36:52Z</time>
      </trkpt>
      <trkpt lat="44.66729" lon="-0.25815">
        <ele>66.47</ele>
        <time>2016-09-17T10:37:06Z</time>
      </trkpt>
      <trkpt lat="44.66723" lon="-0.25824">
        <ele>67.43</ele>
        <time>2016-09-17T10:37:13Z</time>
      </trkpt>
      <trkpt lat="44.6671" lon="-0.25838">
        <ele>67.43</ele>
        <time>2016-09-17T10:37:27Z</time>
      </trkpt>
      <trkpt lat="44.66709" lon="-0.2584">
        <ele>67.91</ele>
        <time>2016-09-17T10:37:29Z</time>
      </trkpt>
      <trkpt lat="44.66695" lon="-0.25857">
        <ele>68.87</ele>
        <time>2016-09-17T10:37:46Z</time>
      </trkpt>
      <trkpt lat="44.66682" lon="-0.25872">
        <ele>69.83</ele>
        <time>2016-09-17T10:38:01Z</time>
      </trkpt>
      <trkpt lat="44.6667" lon="-0.25889">
        <ele>71.27</ele>
        <time>2016-09-17T10:38:16Z</time>
      </trkpt>
      <trkpt lat="44.66666" lon="-0.25892">
        <ele>71.27</ele>
        <time>2016-09-17T10:38:21Z</time>
      </trkpt>
      <trkpt lat="44.66653" lon="-0.2591">
        <ele>72.72</ele>
        <time>2016-09-17T10:38:37Z</time>
      </trkpt>
      <trkpt lat="44.6664" lon="-0.25927">
        <ele>72.72</ele>
        <time>2016-09-17T10:38:51Z</time>
      </trkpt>
      <trkpt lat="44.66629" lon="-0.25942">
        <ele>73.2</ele>
        <time>2016-09-17T10:39:04Z</time>
      </trkpt>
      <trkpt lat="44.66618" lon="-0.25958">
        <ele>73.68</ele>
        <time>2016-09-17T10:39:19Z</time>
      </trkpt>
      <trkpt lat="44.66609" lon="-0.25966">
        <ele>73.68</ele>
        <time>2016-09-17T10:39:34Z</time>
      </trkpt>
      <trkpt lat="44.66603" lon="-0.25974">
        <ele>73.68</ele>
        <time>2016-09-17T10:39:47Z</time>
      </trkpt>
      <trkpt lat="44.666" lon="-0.25994">
        <ele>73.68</ele>
        <time>2016-09-17T10:40:06Z</time>
      </trkpt>
      <trkpt lat="44.66598" lon="-0.25998">
        <ele>73.68</ele>
        <time>2016-09-17T10:40:24Z</time>
      </trkpt>
      <trkpt lat="44.666" lon="-0.25995">
        <ele>73.68</ele>
        <time>2016-09-17T10:40:44Z</time>
      </trkpt>
      <trkpt lat="44.66601" lon="-0.25995">
        <ele>73.2</ele>
        <time>2016-09-17T10:41:01Z</time>
      </trkpt>
      <trkpt lat="44.66601" lon="-0.25996">
        <ele>73.2</ele>
        <time>2016-09-17T10:41:12Z</time>
      </trkpt>
      <trkpt lat="44.66602" lon="-0.25994">
        <ele>72.24</ele>
        <time>2016-09-17T10:41:26Z</time>
      </trkpt>
      <trkpt lat="44.66604" lon="-0.25991">
        <ele>73.68</ele>
        <time>2016-09-17T10:41:52Z</time>
      </trkpt>
      <trkpt lat="44.66604" lon="-0.25992">
        <ele>70.31</ele>
        <time>2016-09-17T10:42:02Z</time>
      </trkpt>
      <trkpt lat="44.66604" lon="-0.25992">
        <ele>71.27</ele>
        <time>2016-09-17T10:42:03Z</time>
      </trkpt>
      <trkpt lat="44.66604" lon="-0.25992">
        <ele>72.72</ele>
        <time>2016-09-17T10:42:06Z</time>
      </trkpt>
      <trkpt lat="44.66603" lon="-0.25992">
        <ele>72.72</ele>
        <time>2016-09-17T10:42:24Z</time>
      </trkpt>
      <trkpt lat="44.66604" lon="-0.25992">
        <ele>72.72</ele>
        <time>2016-09-17T10:42:51Z</time>
      </trkpt>
      <trkpt lat="44.66604" lon="-0.25992">
        <ele>73.2</ele>
        <time>2016-09-17T10:43:17Z</time>
      </trkpt>
      <trkpt lat="44.66602" lon="-0.25995">
        <ele>72.72</ele>
        <time>2016-09-17T10:43:40Z</time>
      </trkpt>
      <trkpt lat="44.66603" lon="-0.25996">
        <ele>73.2</ele>
        <time>2016-09-17T10:44:17Z</time>
      </trkpt>
      <trkpt lat="44.66602" lon="-0.25994">
        <ele>73.2</ele>
        <time>2016-09-17T10:44:49Z</time>
      </trkpt>
      <trkpt lat="44.66602" lon="-0.25994">
        <ele>73.2</ele>
        <time>2016-09-17T10:45:20Z</time>
      </trkpt>
      <trkpt lat="44.66602" lon="-0.25997">
        <ele>73.2</ele>
        <time>2016-09-17T10:45:52Z</time>
      </trkpt>
      <trkpt lat="44.66603" lon="-0.25997">
        <ele>73.2</ele>
        <time>2016-09-17T10:46:27Z</time>
      </trkpt>
      <trkpt lat="44.66602" lon="-0.25996">
        <ele>73.68</ele>
        <time>2016-09-17T10:46:59Z</time>
      </trkpt>
      <trkpt lat="44.66602" lon="-0.25995">
        <ele>73.68</ele>
        <time>2016-09-17T10:47:27Z</time>
      </trkpt>
      <trkpt lat="44.66602" lon="-0.25993">
        <ele>73.2</ele>
        <time>2016-09-17T10:47:59Z</time>
      </trkpt>
      <trkpt lat="44.66602" lon="-0.25993">
        <ele>73.68</ele>
        <time>2016-09-17T10:48:31Z</time>
      </trkpt>
      <trkpt lat="44.66602" lon="-0.25994">
        <ele>73.68</ele>
        <time>2016-09-17T10:49:06Z</time>
      </trkpt>
      <trkpt lat="44.66602" lon="-0.25994">
        <ele>73.68</ele>
        <time>2016-09-17T10:49:34Z</time>
      </trkpt>
      <trkpt lat="44.66602" lon="-0.25995">
        <ele>73.68</ele>
        <time>2016-09-17T10:50:02Z</time>
      </trkpt>
      <trkpt lat="44.66601" lon="-0.25996">
        <ele>73.68</ele>
        <time>2016-09-17T10:50:33Z</time>
      </trkpt>
      <trkpt lat="44.66601" lon="-0.25995">
        <ele>73.68</ele>
        <time>2016-09-17T10:51:05Z</time>
      </trkpt>
      <trkpt lat="44.66601" lon="-0.25994">
        <ele>73.68</ele>
        <time>2016-09-17T10:51:41Z</time>
      </trkpt>
      <trkpt lat="44.66601" lon="-0.25994">
        <ele>73.68</ele>
        <time>2016-09-17T10:52:13Z</time>
      </trkpt>
      <trkpt lat="44.666" lon="-0.25993">
        <ele>73.68</ele>
        <time>2016-09-17T10:52:39Z</time>
      </trkpt>
      <trkpt lat="44.66601" lon="-0.2599">
        <ele>73.68</ele>
        <time>2016-09-17T10:53:13Z</time>
      </trkpt>
      <trkpt lat="44.66601" lon="-0.25991">
        <ele>74.16</ele>
        <time>2016-09-17T10:53:43Z</time>
      </trkpt>
      <trkpt lat="44.66601" lon="-0.25991">
        <ele>74.16</ele>
        <time>2016-09-17T10:54:10Z</time>
      </trkpt>
      <trkpt lat="44.666" lon="-0.2599">
        <ele>74.16</ele>
        <time>2016-09-17T10:54:35Z</time>
      </trkpt>
      <trkpt lat="44.66601" lon="-0.25989">
        <ele>74.16</ele>
        <time>2016-09-17T10:55:03Z</time>
      </trkpt>
      <trkpt lat="44.66602" lon="-0.25988">
        <ele>74.16</ele>
        <time>2016-09-17T10:55:37Z</time>
      </trkpt>
      <trkpt lat="44.66602" lon="-0.25988">
        <ele>74.16</ele>
        <time>2016-09-17T10:56:08Z</time>
      </trkpt>
      <trkpt lat="44.66601" lon="-0.25988">
        <ele>74.16</ele>
        <time>2016-09-17T10:56:35Z</time>
      </trkpt>
      <trkpt lat="44.66601" lon="-0.25989">
        <ele>74.16</ele>
        <time>2016-09-17T10:57:04Z</time>
      </trkpt>
      <trkpt lat="44.66602" lon="-0.25989">
        <ele>75.12</ele>
        <time>2016-09-17T10:57:34Z</time>
      </trkpt>
      <trkpt lat="44.66602" lon="-0.25989">
        <ele>74.64</ele>
        <time>2016-09-17T10:58:03Z</time>
      </trkpt>
      <trkpt lat="44.66602" lon="-0.25992">
        <ele>74.64</ele>
        <time>2016-09-17T10:58:31Z</time>
      </trkpt>
      <trkpt lat="44.66604" lon="-0.25991">
        <ele>74.64</ele>
        <time>2016-09-17T10:59:01Z</time>
      </trkpt>
      <trkpt lat="44.66603" lon="-0.25993">
        <ele>74.64</ele>
        <time>2016-09-17T10:59:30Z</time>
      </trkpt>
      <trkpt lat="44.66603" lon="-0.25992">
        <ele>74.64</ele>
        <time>2016-09-17T11:00:00Z</time>
      </trkpt>
      <trkpt lat="44.66604" lon="-0.25992">
        <ele>74.64</ele>
        <time>2016-09-17T11:00:28Z</time>
      </trkpt>
      <trkpt lat="44.66604" lon="-0.25991">
        <ele>74.64</ele>
        <time>2016-09-17T11:00:57Z</time>
      </trkpt>
      <trkpt lat="44.66605" lon="-0.25991">
        <ele>74.64</ele>
        <time>2016-09-17T11:01:26Z</time>
      </trkpt>
      <trkpt lat="44.66605" lon="-0.25992">
        <ele>74.64</ele>
        <time>2016-09-17T11:01:59Z</time>
      </trkpt>
      <trkpt lat="44.66605" lon="-0.25994">
        <ele>75.12</ele>
        <time>2016-09-17T11:02:29Z</time>
      </trkpt>
      <trkpt lat="44.66604" lon="-0.25995">
        <ele>75.12</ele>
        <time>2016-09-17T11:03:00Z</time>
      </trkpt>
      <trkpt lat="44.66604" lon="-0.25994">
        <ele>75.12</ele>
        <time>2016-09-17T11:03:32Z</time>
      </trkpt>
      <trkpt lat="44.66603" lon="-0.25992">
        <ele>75.12</ele>
        <time>2016-09-17T11:04:02Z</time>
      </trkpt>
      <trkpt lat="44.66604" lon="-0.25991">
        <ele>75.6</ele>
        <time>2016-09-17T11:04:31Z</time>
      </trkpt>
      <trkpt lat="44.66604" lon="-0.25992">
        <ele>75.6</ele>
        <time>2016-09-17T11:04:59Z</time>
      </trkpt>
      <trkpt lat="44.66605" lon="-0.25991">
        <ele>75.6</ele>
        <time>2016-09-17T11:05:27Z</time>
      </trkpt>
      <trkpt lat="44.66605" lon="-0.25993">
        <ele>75.6</ele>
        <time>2016-09-17T11:05:52Z</time>
      </trkpt>
      <trkpt lat="44.66604" lon="-0.25994">
        <ele>76.08</ele>
        <time>2016-09-17T11:06:16Z</time>
      </trkpt>
      <trkpt lat="44.66603" lon="-0.25993">
        <ele>76.08</ele>
        <time>2016-09-17T11:06:40Z</time>
      </trkpt>
      <trkpt lat="44.66603" lon="-0.25993">
        <ele>76.56</ele>
        <time>2016-09-17T11:07:03Z</time>
      </trkpt>
      <trkpt lat="44.66603" lon="-0.25992">
        <ele>76.56</ele>
        <time>2016-09-17T11:07:17Z</time>
      </trkpt>
      <trkpt lat="44.66603" lon="-0.25993">
        <ele>77.04</ele>
        <time>2016-09-17T11:07:40Z</time>
      </trkpt>
      <trkpt lat="44.66605" lon="-0.25992">
        <ele>77.04</ele>
        <time>2016-09-17T11:08:04Z</time>
      </trkpt>
      <trkpt lat="44.66602" lon="-0.2598">
        <ele>77.04</ele>
        <time>2016-09-17T11:08:20Z</time>
      </trkpt>
      <trkpt lat="44.66602" lon="-0.2598">
        <ele>77.04</ele>
        <time>2016-09-17T11:08:40Z</time>
      </trkpt>
      <trkpt lat="44.666" lon="-0.25967">
        <ele>77.52</ele>
        <time>2016-09-17T11:09:01Z</time>
      </trkpt>
      <trkpt lat="44.666" lon="-0.2597">
        <ele>77.52</ele>
        <time>2016-09-17T11:09:30Z</time>
      </trkpt>
      <trkpt lat="44.666" lon="-0.25982">
        <ele>77.52</ele>
        <time>2016-09-17T11:09:50Z</time>
      </trkpt>
      <trkpt lat="44.66603" lon="-0.25986">
        <ele>78</ele>
        <time>2016-09-17T11:10:12Z</time>
      </trkpt>
      <trkpt lat="44.66604" lon="-0.25987">
        <ele>78</ele>
        <time>2016-09-17T11:10:34Z</time>
      </trkpt>
      <trkpt lat="44.66603" lon="-0.25986">
        <ele>78.48</ele>
        <time>2016-09-17T11:11:00Z</time>
      </trkpt>
      <trkpt lat="44.66606" lon="-0.25991">
        <ele>77.04</ele>
        <time>2016-09-17T11:11:24Z</time>
      </trkpt>
      <trkpt lat="44.66605" lon="-0.25995">
        <ele>77.04</ele>
        <time>2016-09-17T11:11:56Z</time>
      </trkpt>
      <trkpt lat="44.66604" lon="-0.25998">
        <ele>77.52</ele>
        <time>2016-09-17T11:12:27Z</time>
      </trkpt>
      <trkpt lat="44.66603" lon="-0.25996">
        <ele>77.52</ele>
        <time>2016-09-17T11:13:01Z</time>
      </trkpt>
      <trkpt lat="44.66602" lon="-0.25997">
        <ele>78</ele>
        <time>2016-09-17T11:13:31Z</time>
      </trkpt>
      <trkpt lat="44.66602" lon="-0.25996">
        <ele>78</ele>
        <time>2016-09-17T11:13:49Z</time>
      </trkpt>
      <trkpt lat="44.66602" lon="-0.25995">
        <ele>77.52</ele>
        <time>2016-09-17T11:14:11Z</time>
      </trkpt>
      <trkpt lat="44.66602" lon="-0.25995">
        <ele>78</ele>
        <time>2016-09-17T11:14:33Z</time>
      </trkpt>
      <trkpt lat="44.66602" lon="-0.25995">
        <ele>78</ele>
        <time>2016-09-17T11:15:00Z</time>
      </trkpt>
      <trkpt lat="44.66602" lon="-0.25994">
        <ele>78.48</ele>
        <time>2016-09-17T11:15:24Z</time>
      </trkpt>
      <trkpt lat="44.66602" lon="-0.25993">
        <ele>78.48</ele>
        <time>2016-09-17T11:15:39Z</time>
      </trkpt>
      <trkpt lat="44.66602" lon="-0.25993">
        <ele>78.48</ele>
        <time>2016-09-17T11:16:00Z</time>
      </trkpt>
      <trkpt lat="44.66605" lon="-0.25993">
        <ele>78.48</ele>
        <time>2016-09-17T11:16:21Z</time>
      </trkpt>
      <trkpt lat="44.66603" lon="-0.25988">
        <ele>78</ele>
        <time>2016-09-17T11:16:43Z</time>
      </trkpt>
      <trkpt lat="44.66604" lon="-0.25987">
        <ele>79.93</ele>
        <time>2016-09-17T11:16:55Z</time>
      </trkpt>
      <trkpt lat="44.66604" lon="-0.25987">
        <ele>78.48</ele>
        <time>2016-09-17T11:16:57Z</time>
      </trkpt>
      <trkpt lat="44.66603" lon="-0.25989">
        <ele>78</ele>
        <time>2016-09-17T11:17:24Z</time>
      </trkpt>
      <trkpt lat="44.66603" lon="-0.25989">
        <ele>77.52</ele>
        <time>2016-09-17T11:17:49Z</time>
      </trkpt>
      <trkpt lat="44.666" lon="-0.2599">
        <ele>78.48</ele>
        <time>2016-09-17T11:18:13Z</time>
      </trkpt>
      <trkpt lat="44.66585" lon="-0.26003">
        <ele>78.97</ele>
        <time>2016-09-17T11:18:35Z</time>
      </trkpt>
      <trkpt lat="44.66572" lon="-0.26028">
        <ele>79.93</ele>
        <time>2016-09-17T11:18:58Z</time>
      </trkpt>
      <trkpt lat="44.6656" lon="-0.26044">
        <ele>79.45</ele>
        <time>2016-09-17T11:19:18Z</time>
      </trkpt>
      <trkpt lat="44.66539" lon="-0.26067">
        <ele>78</ele>
        <time>2016-09-17T11:19:39Z</time>
      </trkpt>
      <trkpt lat="44.66529" lon="-0.26078">
        <ele>77.52</ele>
        <time>2016-09-17T11:19:48Z</time>
      </trkpt>
      <trkpt lat="44.66508" lon="-0.261">
        <ele>77.04</ele>
        <time>2016-09-17T11:20:13Z</time>
      </trkpt>
      <trkpt lat="44.66502" lon="-0.26123">
        <ele>77.04</ele>
        <time>2016-09-17T11:20:31Z</time>
      </trkpt>
      <trkpt lat="44.66504" lon="-0.26163">
        <ele>78</ele>
        <time>2016-09-17T11:20:53Z</time>
      </trkpt>
      <trkpt lat="44.66502" lon="-0.262">
        <ele>78.97</ele>
        <time>2016-09-17T11:21:15Z</time>
      </trkpt>
      <trkpt lat="44.66493" lon="-0.26219">
        <ele>80.89</ele>
        <time>2016-09-17T11:21:34Z</time>
      </trkpt>
      <trkpt lat="44.66487" lon="-0.26246">
        <ele>82.33</ele>
        <time>2016-09-17T11:21:54Z</time>
      </trkpt>
      <trkpt lat="44.66477" lon="-0.26271">
        <ele>82.33</ele>
        <time>2016-09-17T11:22:12Z</time>
      </trkpt>
      <trkpt lat="44.6647" lon="-0.263">
        <ele>82.81</ele>
        <time>2016-09-17T11:22:31Z</time>
      </trkpt>
      <trkpt lat="44.6646" lon="-0.26337">
        <ele>83.77</ele>
        <time>2016-09-17T11:22:53Z</time>
      </trkpt>
      <trkpt lat="44.66461" lon="-0.2636">
        <ele>83.77</ele>
        <time>2016-09-17T11:23:11Z</time>
      </trkpt>
      <trkpt lat="44.66454" lon="-0.26376">
        <ele>86.18</ele>
        <time>2016-09-17T11:23:32Z</time>
      </trkpt>
      <trkpt lat="44.66445" lon="-0.26388">
        <ele>87.62</ele>
        <time>2016-09-17T11:23:53Z</time>
      </trkpt>
      <trkpt lat="44.66442" lon="-0.26391">
        <ele>87.62</ele>
        <time>2016-09-17T11:24:17Z</time>
      </trkpt>
      <trkpt lat="44.66438" lon="-0.26401">
        <ele>88.58</ele>
        <time>2016-09-17T11:24:32Z</time>
      </trkpt>
      <trkpt lat="44.66436" lon="-0.26402">
        <ele>88.58</ele>
        <time>2016-09-17T11:24:58Z</time>
      </trkpt>
      <trkpt lat="44.66436" lon="-0.26403">
        <ele>88.58</ele>
        <time>2016-09-17T11:25:18Z</time>
      </trkpt>
      <trkpt lat="44.66437" lon="-0.26413">
        <ele>87.62</ele>
        <time>2016-09-17T11:25:24Z</time>
      </trkpt>
      <trkpt lat="44.66444" lon="-0.26451">
        <ele>85.21</ele>
        <time>2016-09-17T11:25:48Z</time>
      </trkpt>
      <trkpt lat="44.66449" lon="-0.26479">
        <ele>82.81</ele>
        <time>2016-09-17T11:26:07Z</time>
      </trkpt>
      <trkpt lat="44.66452" lon="-0.26509">
        <ele>81.85</ele>
        <time>2016-09-17T11:26:25Z</time>
      </trkpt>
      <trkpt lat="44.6646" lon="-0.26546">
        <ele>81.85</ele>
        <time>2016-09-17T11:26:48Z</time>
      </trkpt>
      <trkpt lat="44.66467" lon="-0.26581">
        <ele>82.33</ele>
        <time>2016-09-17T11:27:10Z</time>
      </trkpt>
      <trkpt lat="44.66474" lon="-0.26612">
        <ele>83.77</ele>
        <time>2016-09-17T11:27:31Z</time>
      </trkpt>
      <trkpt lat="44.66475" lon="-0.26637">
        <ele>86.18</ele>
        <time>2016-09-17T11:27:49Z</time>
      </trkpt>
      <trkpt lat="44.66475" lon="-0.26649">
        <ele>87.62</ele>
        <time>2016-09-17T11:28:09Z</time>
      </trkpt>
      <trkpt lat="44.66475" lon="-0.2665">
        <ele>87.14</ele>
        <time>2016-09-17T11:28:35Z</time>
      </trkpt>
      <trkpt lat="44.66474" lon="-0.26653">
        <ele>87.14</ele>
        <time>2016-09-17T11:28:58Z</time>
      </trkpt>
      <trkpt lat="44.66474" lon="-0.26648">
        <ele>87.14</ele>
        <time>2016-09-17T11:29:22Z</time>
      </trkpt>
      <trkpt lat="44.6648" lon="-0.26649">
        <ele>87.14</ele>
        <time>2016-09-17T11:29:29Z</time>
      </trkpt>
      <trkpt lat="44.66483" lon="-0.2665">
        <ele>87.14</ele>
        <time>2016-09-17T11:29:32Z</time>
      </trkpt>
      <trkpt lat="44.66477" lon="-0.26655">
        <ele>87.62</ele>
        <time>2016-09-17T11:29:46Z</time>
      </trkpt>
      <trkpt lat="44.66467" lon="-0.2668">
        <ele>89.54</ele>
        <time>2016-09-17T11:30:03Z</time>
      </trkpt>
      <trkpt lat="44.66467" lon="-0.26683">
        <ele>89.54</ele>
        <time>2016-09-17T11:30:30Z</time>
      </trkpt>
      <trkpt lat="44.66464" lon="-0.26686">
        <ele>90.02</ele>
        <time>2016-09-17T11:30:43Z</time>
      </trkpt>
      <trkpt lat="44.6645" lon="-0.26702">
        <ele>91.46</ele>
        <time>2016-09-17T11:31:01Z</time>
      </trkpt>
      <trkpt lat="44.66449" lon="-0.26705">
        <ele>91.46</ele>
        <time>2016-09-17T11:31:03Z</time>
      </trkpt>
      <trkpt lat="44.6644" lon="-0.26719">
        <ele>92.42</ele>
        <time>2016-09-17T11:31:20Z</time>
      </trkpt>
      <trkpt lat="44.6644" lon="-0.26724">
        <ele>92.42</ele>
        <time>2016-09-17T11:31:28Z</time>
      </trkpt>
      <trkpt lat="44.66438" lon="-0.26748">
        <ele>94.83</ele>
        <time>2016-09-17T11:31:48Z</time>
      </trkpt>
      <trkpt lat="44.66437" lon="-0.26754">
        <ele>95.31</ele>
        <time>2016-09-17T11:32:06Z</time>
      </trkpt>
      <trkpt lat="44.66434" lon="-0.26755">
        <ele>95.31</ele>
        <time>2016-09-17T11:32:22Z</time>
      </trkpt>
      <trkpt lat="44.66435" lon="-0.26736">
        <ele>92.42</ele>
        <time>2016-09-17T11:32:43Z</time>
      </trkpt>
      <trkpt lat="44.66437" lon="-0.26729">
        <ele>91.94</ele>
        <time>2016-09-17T11:32:48Z</time>
      </trkpt>
      <trkpt lat="44.66453" lon="-0.26695">
        <ele>90.5</ele>
        <time>2016-09-17T11:33:07Z</time>
      </trkpt>
      <trkpt lat="44.66466" lon="-0.26683">
        <ele>89.54</ele>
        <time>2016-09-17T11:33:26Z</time>
      </trkpt>
      <trkpt lat="44.66466" lon="-0.26668">
        <ele>87.62</ele>
        <time>2016-09-17T11:33:44Z</time>
      </trkpt>
      <trkpt lat="44.66475" lon="-0.26647">
        <ele>85.69</ele>
        <time>2016-09-17T11:34:04Z</time>
      </trkpt>
      <trkpt lat="44.66478" lon="-0.26641">
        <ele>84.73</ele>
        <time>2016-09-17T11:34:10Z</time>
      </trkpt>
      <trkpt lat="44.66479" lon="-0.26634">
        <ele>84.25</ele>
        <time>2016-09-17T11:34:27Z</time>
      </trkpt>
      <trkpt lat="44.66478" lon="-0.2663">
        <ele>84.73</ele>
        <time>2016-09-17T11:34:51Z</time>
      </trkpt>
      <trkpt lat="44.66476" lon="-0.26631">
        <ele>84.73</ele>
        <time>2016-09-17T11:35:13Z</time>
      </trkpt>
      <trkpt lat="44.66477" lon="-0.26627">
        <ele>84.73</ele>
        <time>2016-09-17T11:35:38Z</time>
      </trkpt>
      <trkpt lat="44.66476" lon="-0.26622">
        <ele>83.29</ele>
        <time>2016-09-17T11:35:43Z</time>
      </trkpt>
      <trkpt lat="44.66474" lon="-0.26616">
        <ele>82.81</ele>
        <time>2016-09-17T11:35:47Z</time>
      </trkpt>
      <trkpt lat="44.66469" lon="-0.26581">
        <ele>80.41</ele>
        <time>2016-09-17T11:36:11Z</time>
      </trkpt>
      <trkpt lat="44.66463" lon="-0.26555">
        <ele>79.93</ele>
        <time>2016-09-17T11:36:29Z</time>
      </trkpt>
      <trkpt lat="44.66455" lon="-0.26529">
        <ele>79.93</ele>
        <time>2016-09-17T11:36:46Z</time>
      </trkpt>
      <trkpt lat="44.66448" lon="-0.26494">
        <ele>79.93</ele>
        <time>2016-09-17T11:37:09Z</time>
      </trkpt>
      <trkpt lat="44.66445" lon="-0.2647">
        <ele>81.37</ele>
        <time>2016-09-17T11:37:27Z</time>
      </trkpt>
      <trkpt lat="44.66439" lon="-0.26445">
        <ele>83.29</ele>
        <time>2016-09-17T11:37:42Z</time>
      </trkpt>
      <trkpt lat="44.66436" lon="-0.26418">
        <ele>85.69</ele>
        <time>2016-09-17T11:38:00Z</time>
      </trkpt>
      <trkpt lat="44.6643" lon="-0.26384">
        <ele>87.62</ele>
        <time>2016-09-17T11:38:22Z</time>
      </trkpt>
      <trkpt lat="44.66427" lon="-0.26357">
        <ele>89.06</ele>
        <time>2016-09-17T11:38:41Z</time>
      </trkpt>
      <trkpt lat="44.66419" lon="-0.26324">
        <ele>91.46</ele>
        <time>2016-09-17T11:39:04Z</time>
      </trkpt>
      <trkpt lat="44.66414" lon="-0.26304">
        <ele>93.39</ele>
        <time>2016-09-17T11:39:24Z</time>
      </trkpt>
      <trkpt lat="44.66408" lon="-0.26271">
        <ele>95.31</ele>
        <time>2016-09-17T11:39:44Z</time>
      </trkpt>
      <trkpt lat="44.66408" lon="-0.26249">
        <ele>96.75</ele>
        <time>2016-09-17T11:39:56Z</time>
      </trkpt>
      <trkpt lat="44.66406" lon="-0.26226">
        <ele>98.67</ele>
        <time>2016-09-17T11:40:09Z</time>
      </trkpt>
      <trkpt lat="44.66395" lon="-0.26188">
        <ele>99.63</ele>
        <time>2016-09-17T11:40:30Z</time>
      </trkpt>
      <trkpt lat="44.66394" lon="-0.26179">
        <ele>99.63</ele>
        <time>2016-09-17T11:40:36Z</time>
      </trkpt>
      <trkpt lat="44.66389" lon="-0.26164">
        <ele>99.63</ele>
        <time>2016-09-17T11:40:54Z</time>
      </trkpt>
      <trkpt lat="44.66381" lon="-0.26142">
        <ele>99.15</ele>
        <time>2016-09-17T11:41:12Z</time>
      </trkpt>
      <trkpt lat="44.66371" lon="-0.26108">
        <ele>99.63</ele>
        <time>2016-09-17T11:41:31Z</time>
      </trkpt>
      <trkpt lat="44.66362" lon="-0.26085">
        <ele>100.11</ele>
        <time>2016-09-17T11:41:49Z</time>
      </trkpt>
      <trkpt lat="44.6635" lon="-0.26055">
        <ele>100.11</ele>
        <time>2016-09-17T11:42:09Z</time>
      </trkpt>
      <trkpt lat="44.66337" lon="-0.26029">
        <ele>99.63</ele>
        <time>2016-09-17T11:42:27Z</time>
      </trkpt>
      <trkpt lat="44.66323" lon="-0.26002">
        <ele>99.15</ele>
        <time>2016-09-17T11:42:47Z</time>
      </trkpt>
      <trkpt lat="44.66312" lon="-0.25975">
        <ele>99.15</ele>
        <time>2016-09-17T11:43:05Z</time>
      </trkpt>
      <trkpt lat="44.66308" lon="-0.25944">
        <ele>100.6</ele>
        <time>2016-09-17T11:43:25Z</time>
      </trkpt>
      <trkpt lat="44.66306" lon="-0.25916">
        <ele>100.11</ele>
        <time>2016-09-17T11:43:43Z</time>
      </trkpt>
      <trkpt lat="44.66295" lon="-0.25895">
        <ele>100.11</ele>
        <time>2016-09-17T11:43:57Z</time>
      </trkpt>
      <trkpt lat="44.66281" lon="-0.25879">
        <ele>100.6</ele>
        <time>2016-09-17T11:44:13Z</time>
      </trkpt>
      <trkpt lat="44.66276" lon="-0.25875">
        <ele>100.6</ele>
        <time>2016-09-17T11:44:18Z</time>
      </trkpt>
      <trkpt lat="44.66253" lon="-0.25882">
        <ele>101.08</ele>
        <time>2016-09-17T11:44:37Z</time>
      </trkpt>
      <trkpt lat="44.66231" lon="-0.25891">
        <ele>101.08</ele>
        <time>2016-09-17T11:44:57Z</time>
      </trkpt>
      <trkpt lat="44.6622" lon="-0.2589">
        <ele>100.6</ele>
        <time>2016-09-17T11:45:07Z</time>
      </trkpt>
      <trkpt lat="44.66211" lon="-0.2588">
        <ele>100.6</ele>
        <time>2016-09-17T11:45:15Z</time>
      </trkpt>
      <trkpt lat="44.66197" lon="-0.2585">
        <ele>99.63</ele>
        <time>2016-09-17T11:45:36Z</time>
      </trkpt>
      <trkpt lat="44.6619" lon="-0.25843">
        <ele>99.63</ele>
        <time>2016-09-17T11:45:45Z</time>
      </trkpt>
      <trkpt lat="44.66169" lon="-0.25861">
        <ele>100.11</ele>
        <time>2016-09-17T11:46:06Z</time>
      </trkpt>
      <trkpt lat="44.66152" lon="-0.2588">
        <ele>98.19</ele>
        <time>2016-09-17T11:46:26Z</time>
      </trkpt>
      <trkpt lat="44.66134" lon="-0.25894">
        <ele>95.79</ele>
        <time>2016-09-17T11:46:45Z</time>
      </trkpt>
      <trkpt lat="44.66127" lon="-0.25892">
        <ele>94.83</ele>
        <time>2016-09-17T11:46:56Z</time>
      </trkpt>
      <trkpt lat="44.66117" lon="-0.25885">
        <ele>93.87</ele>
        <time>2016-09-17T11:47:07Z</time>
      </trkpt>
      <trkpt lat="44.66099" lon="-0.25869">
        <ele>91.46</ele>
        <time>2016-09-17T11:47:28Z</time>
      </trkpt>
      <trkpt lat="44.66089" lon="-0.25859">
        <ele>91.46</ele>
        <time>2016-09-17T11:47:39Z</time>
      </trkpt>
      <trkpt lat="44.66072" lon="-0.25871">
        <ele>87.62</ele>
        <time>2016-09-17T11:47:57Z</time>
      </trkpt>
      <trkpt lat="44.66056" lon="-0.25888">
        <ele>85.21</ele>
        <time>2016-09-17T11:48:14Z</time>
      </trkpt>
      <trkpt lat="44.66038" lon="-0.25906">
        <ele>83.29</ele>
        <time>2016-09-17T11:48:33Z</time>
      </trkpt>
      <trkpt lat="44.66019" lon="-0.2592">
        <ele>79.93</ele>
        <time>2016-09-17T11:48:53Z</time>
      </trkpt>
      <trkpt lat="44.66018" lon="-0.2592">
        <ele>79.93</ele>
        <time>2016-09-17T11:48:55Z</time>
      </trkpt>
      <trkpt lat="44.66011" lon="-0.25913">
        <ele>78.48</ele>
        <time>2016-09-17T11:49:06Z</time>
      </trkpt>
      <trkpt lat="44.65999" lon="-0.25892">
        <ele>76.08</ele>
        <time>2016-09-17T11:49:23Z</time>
      </trkpt>
      <trkpt lat="44.65984" lon="-0.25868">
        <ele>73.68</ele>
        <time>2016-09-17T11:49:42Z</time>
      </trkpt>
      <trkpt lat="44.65971" lon="-0.25853">
        <ele>72.72</ele>
        <time>2016-09-17T11:49:59Z</time>
      </trkpt>
      <trkpt lat="44.65966" lon="-0.25857">
        <ele>72.24</ele>
        <time>2016-09-17T11:50:04Z</time>
      </trkpt>
      <trkpt lat="44.65951" lon="-0.25874">
        <ele>70.31</ele>
        <time>2016-09-17T11:50:24Z</time>
      </trkpt>
      <trkpt lat="44.65937" lon="-0.25889">
        <ele>68.87</ele>
        <time>2016-09-17T11:50:42Z</time>
      </trkpt>
      <trkpt lat="44.65922" lon="-0.25905">
        <ele>67.43</ele>
        <time>2016-09-17T11:51:02Z</time>
      </trkpt>
      <trkpt lat="44.65908" lon="-0.25918">
        <ele>65.03</ele>
        <time>2016-09-17T11:51:20Z</time>
      </trkpt>
      <trkpt lat="44.65897" lon="-0.25909">
        <ele>64.55</ele>
        <time>2016-09-17T11:51:36Z</time>
      </trkpt>
      <trkpt lat="44.65891" lon="-0.25897">
        <ele>64.07</ele>
        <time>2016-09-17T11:51:46Z</time>
      </trkpt>
      <trkpt lat="44.65887" lon="-0.2587">
        <ele>63.1</ele>
        <time>2016-09-17T11:52:04Z</time>
      </trkpt>
      <trkpt lat="44.65873" lon="-0.25851">
        <ele>61.66</ele>
        <time>2016-09-17T11:52:21Z</time>
      </trkpt>
      <trkpt lat="44.65864" lon="-0.25836">
        <ele>57.82</ele>
        <time>2016-09-17T11:52:34Z</time>
      </trkpt>
      <trkpt lat="44.65863" lon="-0.25835">
        <ele>61.66</ele>
        <time>2016-09-17T11:52:35Z</time>
      </trkpt>
      <trkpt lat="44.6586" lon="-0.25828">
        <ele>57.34</ele>
        <time>2016-09-17T11:52:42Z</time>
      </trkpt>
      <trkpt lat="44.65859" lon="-0.25827">
        <ele>64.07</ele>
        <time>2016-09-17T11:52:43Z</time>
      </trkpt>
      <trkpt lat="44.65859" lon="-0.25825">
        <ele>60.7</ele>
        <time>2016-09-17T11:52:45Z</time>
      </trkpt>
      <trkpt lat="44.65858" lon="-0.25824">
        <ele>60.7</ele>
        <time>2016-09-17T11:52:46Z</time>
      </trkpt>
      <trkpt lat="44.65851" lon="-0.25801">
        <ele>58.78</ele>
        <time>2016-09-17T11:53:05Z</time>
      </trkpt>
      <trkpt lat="44.65848" lon="-0.25795">
        <ele>58.3</ele>
        <time>2016-09-17T11:53:11Z</time>
      </trkpt>
      <trkpt lat="44.65838" lon="-0.25779">
        <ele>57.34</ele>
        <time>2016-09-17T11:53:27Z</time>
      </trkpt>
      <trkpt lat="44.65827" lon="-0.25767">
        <ele>54.93</ele>
        <time>2016-09-17T11:53:42Z</time>
      </trkpt>
      <trkpt lat="44.65823" lon="-0.25764">
        <ele>54.93</ele>
        <time>2016-09-17T11:53:49Z</time>
      </trkpt>
      <trkpt lat="44.65819" lon="-0.25762">
        <ele>54.93</ele>
        <time>2016-09-17T11:53:53Z</time>
      </trkpt>
      <trkpt lat="44.65803" lon="-0.25751">
        <ele>53.49</ele>
        <time>2016-09-17T11:54:08Z</time>
      </trkpt>
      <trkpt lat="44.65784" lon="-0.25738">
        <ele>52.05</ele>
        <time>2016-09-17T11:54:25Z</time>
      </trkpt>
      <trkpt lat="44.65768" lon="-0.2573">
        <ele>50.61</ele>
        <time>2016-09-17T11:54:40Z</time>
      </trkpt>
      <trkpt lat="44.65755" lon="-0.25721">
        <ele>49.65</ele>
        <time>2016-09-17T11:54:54Z</time>
      </trkpt>
      <trkpt lat="44.65744" lon="-0.25711">
        <ele>48.68</ele>
        <time>2016-09-17T11:55:09Z</time>
      </trkpt>
      <trkpt lat="44.65736" lon="-0.25706">
        <ele>47.24</ele>
        <time>2016-09-17T11:55:25Z</time>
      </trkpt>
      <trkpt lat="44.65735" lon="-0.25707">
        <ele>47.24</ele>
        <time>2016-09-17T11:55:50Z</time>
      </trkpt>
      <trkpt lat="44.65735" lon="-0.25706">
        <ele>46.76</ele>
        <time>2016-09-17T11:55:59Z</time>
      </trkpt>
      <trkpt lat="44.65741" lon="-0.25678">
        <ele>48.2</ele>
        <time>2016-09-17T11:56:18Z</time>
      </trkpt>
      <trkpt lat="44.65743" lon="-0.25671">
        <ele>48.2</ele>
        <time>2016-09-17T11:56:22Z</time>
      </trkpt>
      <trkpt lat="44.65747" lon="-0.25659">
        <ele>49.16</ele>
        <time>2016-09-17T11:56:34Z</time>
      </trkpt>
      <trkpt lat="44.65748" lon="-0.25654">
        <ele>49.16</ele>
        <time>2016-09-17T11:56:37Z</time>
      </trkpt>
      <trkpt lat="44.65755" lon="-0.25619">
        <ele>50.13</ele>
        <time>2016-09-17T11:56:57Z</time>
      </trkpt>
      <trkpt lat="44.65757" lon="-0.25614">
        <ele>50.13</ele>
        <time>2016-09-17T11:57:02Z</time>
      </trkpt>
      <trkpt lat="44.65761" lon="-0.25602">
        <ele>49.65</ele>
        <time>2016-09-17T11:57:09Z</time>
      </trkpt>
      <trkpt lat="44.65769" lon="-0.25584">
        <ele>49.16</ele>
        <time>2016-09-17T11:57:24Z</time>
      </trkpt>
      <trkpt lat="44.65772" lon="-0.25554">
        <ele>48.68</ele>
        <time>2016-09-17T11:57:43Z</time>
      </trkpt>
      <trkpt lat="44.65774" lon="-0.2554">
        <ele>48.68</ele>
        <time>2016-09-17T11:57:50Z</time>
      </trkpt>
      <trkpt lat="44.65777" lon="-0.25506">
        <ele>49.65</ele>
        <time>2016-09-17T11:58:08Z</time>
      </trkpt>
      <trkpt lat="44.65777" lon="-0.25496">
        <ele>49.65</ele>
        <time>2016-09-17T11:58:15Z</time>
      </trkpt>
      <trkpt lat="44.65774" lon="-0.25461">
        <ele>49.16</ele>
        <time>2016-09-17T11:58:34Z</time>
      </trkpt>
      <trkpt lat="44.6577" lon="-0.25442">
        <ele>48.68</ele>
        <time>2016-09-17T11:58:47Z</time>
      </trkpt>
      <trkpt lat="44.65773" lon="-0.25421">
        <ele>49.16</ele>
        <time>2016-09-17T11:59:01Z</time>
      </trkpt>
      <trkpt lat="44.65779" lon="-0.25399">
        <ele>49.65</ele>
        <time>2016-09-17T11:59:14Z</time>
      </trkpt>
      <trkpt lat="44.65782" lon="-0.25371">
        <ele>50.61</ele>
        <time>2016-09-17T11:59:31Z</time>
      </trkpt>
      <trkpt lat="44.65789" lon="-0.25346">
        <ele>51.57</ele>
        <time>2016-09-17T11:59:48Z</time>
      </trkpt>
      <trkpt lat="44.65789" lon="-0.25342">
        <ele>51.57</ele>
        <time>2016-09-17T11:59:51Z</time>
      </trkpt>
      <trkpt lat="44.65788" lon="-0.2531">
        <ele>50.61</ele>
        <time>2016-09-17T12:00:10Z</time>
      </trkpt>
      <trkpt lat="44.65782" lon="-0.25289">
        <ele>49.65</ele>
        <time>2016-09-17T12:00:27Z</time>
      </trkpt>
      <trkpt lat="44.6578" lon="-0.25264">
        <ele>50.13</ele>
        <time>2016-09-17T12:00:41Z</time>
      </trkpt>
      <trkpt lat="44.65781" lon="-0.25241">
        <ele>50.61</ele>
        <time>2016-09-17T12:00:56Z</time>
      </trkpt>
      <trkpt lat="44.65777" lon="-0.25217">
        <ele>51.09</ele>
        <time>2016-09-17T12:01:13Z</time>
      </trkpt>
      <trkpt lat="44.65775" lon="-0.25197">
        <ele>50.13</ele>
        <time>2016-09-17T12:01:29Z</time>
      </trkpt>
      <trkpt lat="44.65776" lon="-0.25181">
        <ele>50.13</ele>
        <time>2016-09-17T12:01:42Z</time>
      </trkpt>
      <trkpt lat="44.65776" lon="-0.25176">
        <ele>50.13</ele>
        <time>2016-09-17T12:01:46Z</time>
      </trkpt>
      <trkpt lat="44.65763" lon="-0.25143">
        <ele>50.61</ele>
        <time>2016-09-17T12:02:05Z</time>
      </trkpt>
      <trkpt lat="44.6576" lon="-0.25139">
        <ele>50.61</ele>
        <time>2016-09-17T12:02:21Z</time>
      </trkpt>
      <trkpt lat="44.6576" lon="-0.25134">
        <ele>50.13</ele>
        <time>2016-09-17T12:02:44Z</time>
      </trkpt>
      <trkpt lat="44.65754" lon="-0.2513">
        <ele>50.13</ele>
        <time>2016-09-17T12:03:10Z</time>
      </trkpt>
      <trkpt lat="44.65744" lon="-0.25108">
        <ele>50.13</ele>
        <time>2016-09-17T12:03:30Z</time>
      </trkpt>
      <trkpt lat="44.65735" lon="-0.25078">
        <ele>50.13</ele>
        <time>2016-09-17T12:03:48Z</time>
      </trkpt>
      <trkpt lat="44.65729" lon="-0.25066">
        <ele>50.61</ele>
        <time>2016-09-17T12:04:05Z</time>
      </trkpt>
      <trkpt lat="44.65721" lon="-0.25038">
        <ele>51.09</ele>
        <time>2016-09-17T12:04:24Z</time>
      </trkpt>
      <trkpt lat="44.65722" lon="-0.25026">
        <ele>51.57</ele>
        <time>2016-09-17T12:04:39Z</time>
      </trkpt>
      <trkpt lat="44.65725" lon="-0.25007">
        <ele>52.53</ele>
        <time>2016-09-17T12:04:52Z</time>
      </trkpt>
      <trkpt lat="44.65725" lon="-0.24996">
        <ele>52.53</ele>
        <time>2016-09-17T12:05:01Z</time>
      </trkpt>
      <trkpt lat="44.65725" lon="-0.24993">
        <ele>52.53</ele>
        <time>2016-09-17T12:05:03Z</time>
      </trkpt>
      <trkpt lat="44.65723" lon="-0.24973">
        <ele>52.53</ele>
        <time>2016-09-17T12:05:19Z</time>
      </trkpt>
      <trkpt lat="44.65723" lon="-0.24948">
        <ele>53.49</ele>
        <time>2016-09-17T12:05:35Z</time>
      </trkpt>
      <trkpt lat="44.65721" lon="-0.24923">
        <ele>53.49</ele>
        <time>2016-09-17T12:05:51Z</time>
      </trkpt>
      <trkpt lat="44.65721" lon="-0.24917">
        <ele>53.49</ele>
        <time>2016-09-17T12:06:07Z</time>
      </trkpt>
      <trkpt lat="44.65721" lon="-0.24895">
        <ele>53.97</ele>
        <time>2016-09-17T12:06:23Z</time>
      </trkpt>
      <trkpt lat="44.65717" lon="-0.24868">
        <ele>54.45</ele>
        <time>2016-09-17T12:06:41Z</time>
      </trkpt>
      <trkpt lat="44.65716" lon="-0.24865">
        <ele>54.93</ele>
        <time>2016-09-17T12:06:43Z</time>
      </trkpt>
      <trkpt lat="44.65711" lon="-0.24843">
        <ele>54.93</ele>
        <time>2016-09-17T12:07:02Z</time>
      </trkpt>
      <trkpt lat="44.65711" lon="-0.2484">
        <ele>55.41</ele>
        <time>2016-09-17T12:07:27Z</time>
      </trkpt>
      <trkpt lat="44.65711" lon="-0.2484">
        <ele>55.41</ele>
        <time>2016-09-17T12:07:48Z</time>
      </trkpt>
      <trkpt lat="44.65711" lon="-0.2484">
        <ele>55.41</ele>
        <time>2016-09-17T12:08:07Z</time>
      </trkpt>
      <trkpt lat="44.6571" lon="-0.2484">
        <ele>55.41</ele>
        <time>2016-09-17T12:08:23Z</time>
      </trkpt>
      <trkpt lat="44.65709" lon="-0.24839">
        <ele>55.41</ele>
        <time>2016-09-17T12:08:47Z</time>
      </trkpt>
      <trkpt lat="44.65703" lon="-0.24828">
        <ele>54.45</ele>
        <time>2016-09-17T12:09:05Z</time>
      </trkpt>
      <trkpt lat="44.65688" lon="-0.24801">
        <ele>54.45</ele>
        <time>2016-09-17T12:09:21Z</time>
      </trkpt>
      <trkpt lat="44.65686" lon="-0.24794">
        <ele>55.41</ele>
        <time>2016-09-17T12:09:41Z</time>
      </trkpt>
      <trkpt lat="44.65685" lon="-0.24779">
        <ele>54.45</ele>
        <time>2016-09-17T12:09:57Z</time>
      </trkpt>
      <trkpt lat="44.65673" lon="-0.24759">
        <ele>53.97</ele>
        <time>2016-09-17T12:10:16Z</time>
      </trkpt>
      <trkpt lat="44.6566" lon="-0.24749">
        <ele>53.97</ele>
        <time>2016-09-17T12:10:35Z</time>
      </trkpt>
      <trkpt lat="44.65648" lon="-0.24726">
        <ele>53.97</ele>
        <time>2016-09-17T12:10:54Z</time>
      </trkpt>
      <trkpt lat="44.65644" lon="-0.24692">
        <ele>54.93</ele>
        <time>2016-09-17T12:11:15Z</time>
      </trkpt>
      <trkpt lat="44.65641" lon="-0.24662">
        <ele>55.89</ele>
        <time>2016-09-17T12:11:34Z</time>
      </trkpt>
      <trkpt lat="44.65641" lon="-0.24653">
        <ele>56.86</ele>
        <time>2016-09-17T12:11:41Z</time>
      </trkpt>
      <trkpt lat="44.65641" lon="-0.2465">
        <ele>57.34</ele>
        <time>2016-09-17T12:11:43Z</time>
      </trkpt>
      <trkpt lat="44.65637" lon="-0.24636">
        <ele>57.82</ele>
        <time>2016-09-17T12:11:52Z</time>
      </trkpt>
      <trkpt lat="44.65634" lon="-0.24611">
        <ele>59.26</ele>
        <time>2016-09-17T12:12:08Z</time>
      </trkpt>
      <trkpt lat="44.65632" lon="-0.24586">
        <ele>60.22</ele>
        <time>2016-09-17T12:12:25Z</time>
      </trkpt>
      <trkpt lat="44.65629" lon="-0.24566">
        <ele>60.7</ele>
        <time>2016-09-17T12:12:37Z</time>
      </trkpt>
      <trkpt lat="44.65628" lon="-0.24558">
        <ele>61.18</ele>
        <time>2016-09-17T12:12:42Z</time>
      </trkpt>
      <trkpt lat="44.65628" lon="-0.24532">
        <ele>61.66</ele>
        <time>2016-09-17T12:12:59Z</time>
      </trkpt>
      <trkpt lat="44.65626" lon="-0.2451">
        <ele>62.62</ele>
        <time>2016-09-17T12:13:14Z</time>
      </trkpt>
      <trkpt lat="44.65625" lon="-0.24487">
        <ele>63.58</ele>
        <time>2016-09-17T12:13:30Z</time>
      </trkpt>
      <trkpt lat="44.65625" lon="-0.24475">
        <ele>64.07</ele>
        <time>2016-09-17T12:13:39Z</time>
      </trkpt>
      <trkpt lat="44.65624" lon="-0.24446">
        <ele>65.51</ele>
        <time>2016-09-17T12:13:59Z</time>
      </trkpt>
      <trkpt lat="44.6562" lon="-0.24417">
        <ele>66.47</ele>
        <time>2016-09-17T12:14:16Z</time>
      </trkpt>
      <trkpt lat="44.65617" lon="-0.24396">
        <ele>67.91</ele>
        <time>2016-09-17T12:14:31Z</time>
      </trkpt>
      <trkpt lat="44.65615" lon="-0.24372">
        <ele>69.35</ele>
        <time>2016-09-17T12:14:49Z</time>
      </trkpt>
      <trkpt lat="44.65612" lon="-0.24346">
        <ele>70.31</ele>
        <time>2016-09-17T12:15:05Z</time>
      </trkpt>
      <trkpt lat="44.65611" lon="-0.24325">
        <ele>71.76</ele>
        <time>2016-09-17T12:15:20Z</time>
      </trkpt>
      <trkpt lat="44.6561" lon="-0.24295">
        <ele>73.2</ele>
        <time>2016-09-17T12:15:37Z</time>
      </trkpt>
      <trkpt lat="44.6561" lon="-0.24266">
        <ele>74.64</ele>
        <time>2016-09-17T12:15:53Z</time>
      </trkpt>
      <trkpt lat="44.65609" lon="-0.24238">
        <ele>75.6</ele>
        <time>2016-09-17T12:16:11Z</time>
      </trkpt>
      <trkpt lat="44.65609" lon="-0.24207">
        <ele>76.56</ele>
        <time>2016-09-17T12:16:30Z</time>
      </trkpt>
      <trkpt lat="44.65609" lon="-0.2418">
        <ele>78</ele>
        <time>2016-09-17T12:16:47Z</time>
      </trkpt>
      <trkpt lat="44.65608" lon="-0.24158">
        <ele>80.41</ele>
        <time>2016-09-17T12:17:02Z</time>
      </trkpt>
      <trkpt lat="44.65609" lon="-0.24141">
        <ele>82.33</ele>
        <time>2016-09-17T12:17:15Z</time>
      </trkpt>
      <trkpt lat="44.65607" lon="-0.24124">
        <ele>83.77</ele>
        <time>2016-09-17T12:17:28Z</time>
      </trkpt>
      <trkpt lat="44.65606" lon="-0.24103">
        <ele>85.69</ele>
        <time>2016-09-17T12:17:43Z</time>
      </trkpt>
      <trkpt lat="44.65606" lon="-0.24091">
        <ele>87.14</ele>
        <time>2016-09-17T12:17:54Z</time>
      </trkpt>
      <trkpt lat="44.65608" lon="-0.24089">
        <ele>87.14</ele>
        <time>2016-09-17T12:17:56Z</time>
      </trkpt>
      <trkpt lat="44.65622" lon="-0.24086">
        <ele>89.54</ele>
        <time>2016-09-17T12:18:12Z</time>
      </trkpt>
      <trkpt lat="44.65642" lon="-0.24085">
        <ele>91.94</ele>
        <time>2016-09-17T12:18:29Z</time>
      </trkpt>
      <trkpt lat="44.65648" lon="-0.24085">
        <ele>92.9</ele>
        <time>2016-09-17T12:18:42Z</time>
      </trkpt>
      <trkpt lat="44.65649" lon="-0.24084">
        <ele>92.9</ele>
        <time>2016-09-17T12:19:12Z</time>
      </trkpt>
      <trkpt lat="44.65649" lon="-0.24085">
        <ele>93.39</ele>
        <time>2016-09-17T12:19:36Z</time>
      </trkpt>
      <trkpt lat="44.65649" lon="-0.24085">
        <ele>92.9</ele>
        <time>2016-09-17T12:20:03Z</time>
      </trkpt>
      <trkpt lat="44.65649" lon="-0.24084">
        <ele>92.9</ele>
        <time>2016-09-17T12:20:28Z</time>
      </trkpt>
      <trkpt lat="44.65649" lon="-0.24084">
        <ele>92.9</ele>
        <time>2016-09-17T12:20:52Z</time>
      </trkpt>
      <trkpt lat="44.6565" lon="-0.24084">
        <ele>92.9</ele>
        <time>2016-09-17T12:21:19Z</time>
      </trkpt>
      <trkpt lat="44.6565" lon="-0.24084">
        <ele>92.9</ele>
        <time>2016-09-17T12:21:51Z</time>
      </trkpt>
      <trkpt lat="44.6565" lon="-0.24084">
        <ele>92.9</ele>
        <time>2016-09-17T12:22:17Z</time>
      </trkpt>
      <trkpt lat="44.6565" lon="-0.24083">
        <ele>92.9</ele>
        <time>2016-09-17T12:22:45Z</time>
      </trkpt>
      <trkpt lat="44.6565" lon="-0.24083">
        <ele>92.9</ele>
        <time>2016-09-17T12:23:10Z</time>
      </trkpt>
      <trkpt lat="44.65662" lon="-0.24095">
        <ele>92.9</ele>
        <time>2016-09-17T12:23:29Z</time>
      </trkpt>
      <trkpt lat="44.65682" lon="-0.24117">
        <ele>92.9</ele>
        <time>2016-09-17T12:23:52Z</time>
      </trkpt>
      <trkpt lat="44.65708" lon="-0.24138">
        <ele>94.35</ele>
        <time>2016-09-17T12:24:16Z</time>
      </trkpt>
      <trkpt lat="44.65734" lon="-0.24152">
        <ele>94.83</ele>
        <time>2016-09-17T12:24:38Z</time>
      </trkpt>
      <trkpt lat="44.65766" lon="-0.24162">
        <ele>95.31</ele>
        <time>2016-09-17T12:25:02Z</time>
      </trkpt>
      <trkpt lat="44.65796" lon="-0.24172">
        <ele>95.79</ele>
        <time>2016-09-17T12:25:24Z</time>
      </trkpt>
      <trkpt lat="44.6582" lon="-0.24178">
        <ele>95.79</ele>
        <time>2016-09-17T12:25:47Z</time>
      </trkpt>
      <trkpt lat="44.65841" lon="-0.24184">
        <ele>96.27</ele>
        <time>2016-09-17T12:26:08Z</time>
      </trkpt>
      <trkpt lat="44.65867" lon="-0.24194">
        <ele>96.27</ele>
        <time>2016-09-17T12:26:29Z</time>
      </trkpt>
      <trkpt lat="44.65896" lon="-0.24203">
        <ele>95.31</ele>
        <time>2016-09-17T12:26:52Z</time>
      </trkpt>
      <trkpt lat="44.65922" lon="-0.2421">
        <ele>95.31</ele>
        <time>2016-09-17T12:27:15Z</time>
      </trkpt>
      <trkpt lat="44.65948" lon="-0.24221">
        <ele>94.83</ele>
        <time>2016-09-17T12:27:37Z</time>
      </trkpt>
      <trkpt lat="44.65972" lon="-0.24233">
        <ele>95.31</ele>
        <time>2016-09-17T12:27:57Z</time>
      </trkpt>
      <trkpt lat="44.65995" lon="-0.24254">
        <ele>95.31</ele>
        <time>2016-09-17T12:28:16Z</time>
      </trkpt>
      <trkpt lat="44.66015" lon="-0.24278">
        <ele>94.83</ele>
        <time>2016-09-17T12:28:38Z</time>
      </trkpt>
      <trkpt lat="44.66038" lon="-0.24307">
        <ele>94.83</ele>
        <time>2016-09-17T12:29:02Z</time>
      </trkpt>
      <trkpt lat="44.66057" lon="-0.24338">
        <ele>95.31</ele>
        <time>2016-09-17T12:29:25Z</time>
      </trkpt>
      <trkpt lat="44.6607" lon="-0.2433">
        <ele>94.35</ele>
        <time>2016-09-17T12:29:42Z</time>
      </trkpt>
      <trkpt lat="44.66071" lon="-0.24317">
        <ele>93.39</ele>
        <time>2016-09-17T12:29:50Z</time>
      </trkpt>
      <trkpt lat="44.66082" lon="-0.24283">
        <ele>92.42</ele>
        <time>2016-09-17T12:30:13Z</time>
      </trkpt>
      <trkpt lat="44.66095" lon="-0.24266">
        <ele>91.94</ele>
        <time>2016-09-17T12:30:26Z</time>
      </trkpt>
      <trkpt lat="44.66111" lon="-0.24239">
        <ele>91.94</ele>
        <time>2016-09-17T12:30:45Z</time>
      </trkpt>
      <trkpt lat="44.66121" lon="-0.24204">
        <ele>92.42</ele>
        <time>2016-09-17T12:31:08Z</time>
      </trkpt>
      <trkpt lat="44.66136" lon="-0.24169">
        <ele>93.39</ele>
        <time>2016-09-17T12:31:30Z</time>
      </trkpt>
      <trkpt lat="44.66159" lon="-0.24142">
        <ele>93.87</ele>
        <time>2016-09-17T12:31:51Z</time>
      </trkpt>
      <trkpt lat="44.6617" lon="-0.24126">
        <ele>91.94</ele>
        <time>2016-09-17T12:32:13Z</time>
      </trkpt>
      <trkpt lat="44.66192" lon="-0.24112">
        <ele>88.58</ele>
        <time>2016-09-17T12:32:32Z</time>
      </trkpt>
      <trkpt lat="44.66207" lon="-0.241">
        <ele>85.69</ele>
        <time>2016-09-17T12:32:50Z</time>
      </trkpt>
      <trkpt lat="44.6623" lon="-0.24089">
        <ele>82.81</ele>
        <time>2016-09-17T12:33:11Z</time>
      </trkpt>
      <trkpt lat="44.66248" lon="-0.24078">
        <ele>81.37</ele>
        <time>2016-09-17T12:33:30Z</time>
      </trkpt>
      <trkpt lat="44.6627" lon="-0.24063">
        <ele>79.93</ele>
        <time>2016-09-17T12:33:49Z</time>
      </trkpt>
      <trkpt lat="44.66275" lon="-0.24061">
        <ele>79.93</ele>
        <time>2016-09-17T12:33:54Z</time>
      </trkpt>
      <trkpt lat="44.66285" lon="-0.24056">
        <ele>79.45</ele>
        <time>2016-09-17T12:34:02Z</time>
      </trkpt>
      <trkpt lat="44.66298" lon="-0.24049">
        <ele>79.45</ele>
        <time>2016-09-17T12:34:24Z</time>
      </trkpt>
      <trkpt lat="44.66298" lon="-0.24047">
        <ele>79.45</ele>
        <time>2016-09-17T12:34:45Z</time>
      </trkpt>
      <trkpt lat="44.66298" lon="-0.24047">
        <ele>78.97</ele>
        <time>2016-09-17T12:35:06Z</time>
      </trkpt>
      <trkpt lat="44.663" lon="-0.2405">
        <ele>79.45</ele>
        <time>2016-09-17T12:35:28Z</time>
      </trkpt>
      <trkpt lat="44.663" lon="-0.24044">
        <ele>78.97</ele>
        <time>2016-09-17T12:35:50Z</time>
      </trkpt>
      <trkpt lat="44.66301" lon="-0.24045">
        <ele>79.45</ele>
        <time>2016-09-17T12:36:12Z</time>
      </trkpt>
      <trkpt lat="44.66297" lon="-0.24041">
        <ele>79.45</ele>
        <time>2016-09-17T12:36:37Z</time>
      </trkpt>
      <trkpt lat="44.66297" lon="-0.24044">
        <ele>79.45</ele>
        <time>2016-09-17T12:37:02Z</time>
      </trkpt>
      <trkpt lat="44.66298" lon="-0.24044">
        <ele>79.45</ele>
        <time>2016-09-17T12:37:27Z</time>
      </trkpt>
      <trkpt lat="44.663" lon="-0.24045">
        <ele>79.45</ele>
        <time>2016-09-17T12:37:52Z</time>
      </trkpt>
      <trkpt lat="44.66296" lon="-0.24043">
        <ele>79.93</ele>
        <time>2016-09-17T12:38:18Z</time>
      </trkpt>
      <trkpt lat="44.66297" lon="-0.24045">
        <ele>79.93</ele>
        <time>2016-09-17T12:38:39Z</time>
      </trkpt>
      <trkpt lat="44.66298" lon="-0.24035">
        <ele>79.93</ele>
        <time>2016-09-17T12:38:57Z</time>
      </trkpt>
      <trkpt lat="44.66299" lon="-0.24038">
        <ele>79.93</ele>
        <time>2016-09-17T12:39:20Z</time>
      </trkpt>
      <trkpt lat="44.66297" lon="-0.24042">
        <ele>79.93</ele>
        <time>2016-09-17T12:39:41Z</time>
      </trkpt>
      <trkpt lat="44.66299" lon="-0.24045">
        <ele>79.93</ele>
        <time>2016-09-17T12:40:10Z</time>
      </trkpt>
      <trkpt lat="44.66312" lon="-0.24039">
        <ele>79.45</ele>
        <time>2016-09-17T12:40:30Z</time>
      </trkpt>
      <trkpt lat="44.66332" lon="-0.24026">
        <ele>78.48</ele>
        <time>2016-09-17T12:40:50Z</time>
      </trkpt>
      <trkpt lat="44.66359" lon="-0.24014">
        <ele>77.04</ele>
        <time>2016-09-17T12:41:13Z</time>
      </trkpt>
      <trkpt lat="44.66381" lon="-0.23997">
        <ele>75.12</ele>
        <time>2016-09-17T12:41:31Z</time>
      </trkpt>
      <trkpt lat="44.66392" lon="-0.23965">
        <ele>73.68</ele>
        <time>2016-09-17T12:41:51Z</time>
      </trkpt>
      <trkpt lat="44.66405" lon="-0.23936">
        <ele>71.76</ele>
        <time>2016-09-17T12:42:14Z</time>
      </trkpt>
      <trkpt lat="44.66409" lon="-0.23934">
        <ele>71.27</ele>
        <time>2016-09-17T12:42:20Z</time>
      </trkpt>
      <trkpt lat="44.66438" lon="-0.23935">
        <ele>68.87</ele>
        <time>2016-09-17T12:42:44Z</time>
      </trkpt>
      <trkpt lat="44.66452" lon="-0.23932">
        <ele>66.95</ele>
        <time>2016-09-17T12:43:05Z</time>
      </trkpt>
      <trkpt lat="44.66484" lon="-0.2393">
        <ele>65.51</ele>
        <time>2016-09-17T12:43:26Z</time>
      </trkpt>
      <trkpt lat="44.66498" lon="-0.23927">
        <ele>63.1</ele>
        <time>2016-09-17T12:43:44Z</time>
      </trkpt>
      <trkpt lat="44.66513" lon="-0.23925">
        <ele>62.62</ele>
        <time>2016-09-17T12:43:54Z</time>
      </trkpt>
      <trkpt lat="44.6655" lon="-0.23917">
        <ele>61.18</ele>
        <time>2016-09-17T12:44:18Z</time>
      </trkpt>
      <trkpt lat="44.66571" lon="-0.23899">
        <ele>60.7</ele>
        <time>2016-09-17T12:44:39Z</time>
      </trkpt>
      <trkpt lat="44.6659" lon="-0.2387">
        <ele>60.22</ele>
        <time>2016-09-17T12:45:02Z</time>
      </trkpt>
      <trkpt lat="44.66609" lon="-0.23843">
        <ele>58.78</ele>
        <time>2016-09-17T12:45:24Z</time>
      </trkpt>
      <trkpt lat="44.66627" lon="-0.23815">
        <ele>57.82</ele>
        <time>2016-09-17T12:45:47Z</time>
      </trkpt>
      <trkpt lat="44.66642" lon="-0.23805">
        <ele>58.3</ele>
        <time>2016-09-17T12:46:05Z</time>
      </trkpt>
      <trkpt lat="44.66654" lon="-0.23806">
        <ele>58.78</ele>
        <time>2016-09-17T12:46:14Z</time>
      </trkpt>
      <trkpt lat="44.66663" lon="-0.238">
        <ele>58.78</ele>
        <time>2016-09-17T12:46:24Z</time>
      </trkpt>
      <trkpt lat="44.66688" lon="-0.23786">
        <ele>58.78</ele>
        <time>2016-09-17T12:46:47Z</time>
      </trkpt>
      <trkpt lat="44.66719" lon="-0.23767">
        <ele>58.78</ele>
        <time>2016-09-17T12:47:11Z</time>
      </trkpt>
      <trkpt lat="44.66747" lon="-0.23749">
        <ele>59.26</ele>
        <time>2016-09-17T12:47:35Z</time>
      </trkpt>
      <trkpt lat="44.66768" lon="-0.2374">
        <ele>58.3</ele>
        <time>2016-09-17T12:47:55Z</time>
      </trkpt>
      <trkpt lat="44.66785" lon="-0.2373">
        <ele>55.89</ele>
        <time>2016-09-17T12:48:15Z</time>
      </trkpt>
      <trkpt lat="44.66805" lon="-0.23726">
        <ele>53.97</ele>
        <time>2016-09-17T12:48:36Z</time>
      </trkpt>
      <trkpt lat="44.66816" lon="-0.23725">
        <ele>52.05</ele>
        <time>2016-09-17T12:48:56Z</time>
      </trkpt>
      <trkpt lat="44.66848" lon="-0.23721">
        <ele>50.61</ele>
        <time>2016-09-17T12:49:15Z</time>
      </trkpt>
      <trkpt lat="44.66865" lon="-0.23714">
        <ele>49.16</ele>
        <time>2016-09-17T12:49:32Z</time>
      </trkpt>
      <trkpt lat="44.66889" lon="-0.23709">
        <ele>47.72</ele>
        <time>2016-09-17T12:49:50Z</time>
      </trkpt>
      <trkpt lat="44.66914" lon="-0.23698">
        <ele>47.24</ele>
        <time>2016-09-17T12:50:12Z</time>
      </trkpt>
      <trkpt lat="44.66937" lon="-0.23676">
        <ele>47.24</ele>
        <time>2016-09-17T12:50:35Z</time>
      </trkpt>
      <trkpt lat="44.66942" lon="-0.23672">
        <ele>47.24</ele>
        <time>2016-09-17T12:50:39Z</time>
      </trkpt>
      <trkpt lat="44.66969" lon="-0.23651">
        <ele>48.2</ele>
        <time>2016-09-17T12:51:01Z</time>
      </trkpt>
      <trkpt lat="44.66983" lon="-0.23647">
        <ele>49.65</ele>
        <time>2016-09-17T12:51:13Z</time>
      </trkpt>
      <trkpt lat="44.67015" lon="-0.23641">
        <ele>50.13</ele>
        <time>2016-09-17T12:51:37Z</time>
      </trkpt>
      <trkpt lat="44.67038" lon="-0.23637">
        <ele>51.57</ele>
        <time>2016-09-17T12:51:58Z</time>
      </trkpt>
      <trkpt lat="44.67068" lon="-0.23633">
        <ele>53.01</ele>
        <time>2016-09-17T12:52:24Z</time>
      </trkpt>
      <trkpt lat="44.67092" lon="-0.23626">
        <ele>52.53</ele>
        <time>2016-09-17T12:52:45Z</time>
      </trkpt>
      <trkpt lat="44.67115" lon="-0.23613">
        <ele>50.61</ele>
        <time>2016-09-17T12:53:07Z</time>
      </trkpt>
      <trkpt lat="44.6714" lon="-0.236">
        <ele>48.2</ele>
        <time>2016-09-17T12:53:27Z</time>
      </trkpt>
      <trkpt lat="44.67158" lon="-0.23591">
        <ele>46.76</ele>
        <time>2016-09-17T12:53:47Z</time>
      </trkpt>
      <trkpt lat="44.67186" lon="-0.2358">
        <ele>43.88</ele>
        <time>2016-09-17T12:54:09Z</time>
      </trkpt>
      <trkpt lat="44.67214" lon="-0.23568">
        <ele>41.47</ele>
        <time>2016-09-17T12:54:33Z</time>
      </trkpt>
      <trkpt lat="44.67219" lon="-0.23568">
        <ele>41.47</ele>
        <time>2016-09-17T12:54:37Z</time>
      </trkpt>
      <trkpt lat="44.67247" lon="-0.23558">
        <ele>40.03</ele>
        <time>2016-09-17T12:55:01Z</time>
      </trkpt>
      <trkpt lat="44.67271" lon="-0.23548">
        <ele>37.63</ele>
        <time>2016-09-17T12:55:23Z</time>
      </trkpt>
      <trkpt lat="44.67277" lon="-0.23547">
        <ele>36.19</ele>
        <time>2016-09-17T12:55:37Z</time>
      </trkpt>
      <trkpt lat="44.67277" lon="-0.23547">
        <ele>39.55</ele>
        <time>2016-09-17T12:55:41Z</time>
      </trkpt>
      <trkpt lat="44.67277" lon="-0.23547">
        <ele>38.11</ele>
        <time>2016-09-17T12:55:45Z</time>
      </trkpt>
      <trkpt lat="44.67277" lon="-0.23547">
        <ele>38.11</ele>
        <time>2016-09-17T12:55:50Z</time>
      </trkpt>
      <trkpt lat="44.67278" lon="-0.23545">
        <ele>37.63</ele>
        <time>2016-09-17T12:55:52Z</time>
      </trkpt>
      <trkpt lat="44.67288" lon="-0.23543">
        <ele>36.67</ele>
        <time>2016-09-17T12:56:02Z</time>
      </trkpt>
      <trkpt lat="44.67308" lon="-0.23537">
        <ele>36.19</ele>
        <time>2016-09-17T12:56:21Z</time>
      </trkpt>
      <trkpt lat="44.6732" lon="-0.23535">
        <ele>35.71</ele>
        <time>2016-09-17T12:56:34Z</time>
      </trkpt>
      <trkpt lat="44.67343" lon="-0.23525">
        <ele>36.19</ele>
        <time>2016-09-17T12:56:52Z</time>
      </trkpt>
      <trkpt lat="44.67357" lon="-0.23508">
        <ele>36.19</ele>
        <time>2016-09-17T12:57:06Z</time>
      </trkpt>
      <trkpt lat="44.67359" lon="-0.23509">
        <ele>36.19</ele>
        <time>2016-09-17T12:57:16Z</time>
      </trkpt>
      <trkpt lat="44.6737" lon="-0.23499">
        <ele>36.19</ele>
        <time>2016-09-17T12:57:24Z</time>
      </trkpt>
      <trkpt lat="44.67371" lon="-0.23473">
        <ele>37.15</ele>
        <time>2016-09-17T12:57:39Z</time>
      </trkpt>
      <trkpt lat="44.67372" lon="-0.2347">
        <ele>37.15</ele>
        <time>2016-09-17T12:57:41Z</time>
      </trkpt>
      <trkpt lat="44.67375" lon="-0.23437">
        <ele>38.59</ele>
        <time>2016-09-17T12:58:01Z</time>
      </trkpt>
      <trkpt lat="44.67375" lon="-0.2341">
        <ele>40.03</ele>
        <time>2016-09-17T12:58:18Z</time>
      </trkpt>
      <trkpt lat="44.67375" lon="-0.23406">
        <ele>40.51</ele>
        <time>2016-09-17T12:58:20Z</time>
      </trkpt>
      <trkpt lat="44.67373" lon="-0.23387">
        <ele>41.47</ele>
        <time>2016-09-17T12:58:30Z</time>
      </trkpt>
      <trkpt lat="44.67374" lon="-0.23379">
        <ele>41.95</ele>
        <time>2016-09-17T12:58:35Z</time>
      </trkpt>
      <trkpt lat="44.67375" lon="-0.23348">
        <ele>42.44</ele>
        <time>2016-09-17T12:58:53Z</time>
      </trkpt>
      <trkpt lat="44.67376" lon="-0.23313">
        <ele>43.4</ele>
        <time>2016-09-17T12:59:12Z</time>
      </trkpt>
      <trkpt lat="44.67378" lon="-0.23305">
        <ele>43.88</ele>
        <time>2016-09-17T12:59:17Z</time>
      </trkpt>
      <trkpt lat="44.6738" lon="-0.23298">
        <ele>43.88</ele>
        <time>2016-09-17T12:59:21Z</time>
      </trkpt>
      <trkpt lat="44.6739" lon="-0.23275">
        <ele>44.36</ele>
        <time>2016-09-17T12:59:37Z</time>
      </trkpt>
      <trkpt lat="44.67397" lon="-0.2326">
        <ele>44.84</ele>
        <time>2016-09-17T12:59:47Z</time>
      </trkpt>
      <trkpt lat="44.67399" lon="-0.23251">
        <ele>44.36</ele>
        <time>2016-09-17T12:59:53Z</time>
      </trkpt>
      <trkpt lat="44.67401" lon="-0.23244">
        <ele>44.84</ele>
        <time>2016-09-17T12:59:57Z</time>
      </trkpt>
      <trkpt lat="44.67397" lon="-0.23236">
        <ele>44.84</ele>
        <time>2016-09-17T13:00:02Z</time>
      </trkpt>
      <trkpt lat="44.67384" lon="-0.23212">
        <ele>44.84</ele>
        <time>2016-09-17T13:00:18Z</time>
      </trkpt>
      <trkpt lat="44.67378" lon="-0.23201">
        <ele>44.36</ele>
        <time>2016-09-17T13:00:26Z</time>
      </trkpt>
      <trkpt lat="44.67378" lon="-0.23195">
        <ele>44.36</ele>
        <time>2016-09-17T13:00:30Z</time>
      </trkpt>
      <trkpt lat="44.67387" lon="-0.23178">
        <ele>45.8</ele>
        <time>2016-09-17T13:00:45Z</time>
      </trkpt>
      <trkpt lat="44.67405" lon="-0.23166">
        <ele>46.76</ele>
        <time>2016-09-17T13:01:02Z</time>
      </trkpt>
      <trkpt lat="44.67425" lon="-0.23148">
        <ele>47.24</ele>
        <time>2016-09-17T13:01:21Z</time>
      </trkpt>
      <trkpt lat="44.67433" lon="-0.23136">
        <ele>48.2</ele>
        <time>2016-09-17T13:01:30Z</time>
      </trkpt>
      <trkpt lat="44.67439" lon="-0.23122">
        <ele>48.68</ele>
        <time>2016-09-17T13:01:40Z</time>
      </trkpt>
      <trkpt lat="44.67452" lon="-0.23093">
        <ele>49.65</ele>
        <time>2016-09-17T13:02:00Z</time>
      </trkpt>
      <trkpt lat="44.67438" lon="-0.23076">
        <ele>49.65</ele>
        <time>2016-09-17T13:02:13Z</time>
      </trkpt>
      <trkpt lat="44.67417" lon="-0.2305">
        <ele>48.68</ele>
        <time>2016-09-17T13:02:33Z</time>
      </trkpt>
      <trkpt lat="44.67412" lon="-0.23041">
        <ele>48.2</ele>
        <time>2016-09-17T13:02:40Z</time>
      </trkpt>
      <trkpt lat="44.6741" lon="-0.23037">
        <ele>48.2</ele>
        <time>2016-09-17T13:02:43Z</time>
      </trkpt>
      <trkpt lat="44.674" lon="-0.23025">
        <ele>47.72</ele>
        <time>2016-09-17T13:02:55Z</time>
      </trkpt>
      <trkpt lat="44.67402" lon="-0.23014">
        <ele>47.72</ele>
        <time>2016-09-17T13:03:09Z</time>
      </trkpt>
      <trkpt lat="44.67402" lon="-0.23014">
        <ele>48.2</ele>
        <time>2016-09-17T13:03:13Z</time>
      </trkpt>
    </trkseg>
  </trk>
</gpx>